Provisional Data: Choconut Creek near Vestal Center, NY


Please select a monitoring station.
Please select start date.
Please select start date.

Toggle Unit: C/F Toggle Unit: C/F
Sample Time Temperature (C) Temperature (F) Specific Conductivity (mS/cm) pH   Turbidity (NTU+) DO (mg/L)
5/17/2022 12:00:00 AM 14.76 58.568 0.089 6.95 10.69 8.9
5/17/2022 12:15:00 AM 14.66 58.388 0.089 6.95 11.06 8.92
5/17/2022 12:30:00 AM 14.57 58.226 0.087 6.95 11.28 8.94
5/17/2022 12:45:00 AM 14.48 58.064 0.089 6.95 10.21 8.95
5/17/2022 1:00:00 AM 14.39 57.902 0.087 6.92 10.9 8.96
5/17/2022 1:15:00 AM 14.31 57.758 0.089 6.95 10.18 8.97
5/17/2022 1:30:00 AM 14.23 57.614 0.089 6.95 9.71 8.98
5/17/2022 1:45:00 AM 14.16 57.488 0.089 6.87 9.6 9
5/17/2022 2:00:00 AM 14.1 57.38 0.089 6.95 9.18 9
5/17/2022 2:15:00 AM 14.05 57.29 0.089 6.95 8.76 9.01
5/17/2022 2:30:00 AM 13.99 57.182 0.087 6.93 9.29 9.01
5/17/2022 2:45:00 AM 13.9 57.02 0.089 6.87 8.47 9.02
5/17/2022 3:00:00 AM 13.81 56.858 0.089 6.95 7.78 9.04
5/17/2022 3:15:00 AM 13.74 56.732 0.089 6.95 7.96 9.06
5/17/2022 3:30:00 AM 13.66 56.588 0.089 6.95 17.58 9.07
5/17/2022 3:45:00 AM 13.58 56.444 0.089 6.86 7.48 9.09
5/17/2022 4:00:00 AM 13.49 56.282 0.089 6.95 7.24 9.12
5/17/2022 4:15:00 AM 13.41 56.138 0.089 6.95 6.94 9.13
5/17/2022 4:30:00 AM 13.34 56.012 0.089 6.95 6.96 9.15
5/17/2022 4:45:00 AM 13.27 55.886 0.089 6.95 6.87 9.16
5/17/2022 5:00:00 AM 13.21 55.778 0.087 6.79 7.13 9.17
5/17/2022 5:15:00 AM 13.16 55.688 0.089 6.95 6.27 9.18
5/17/2022 5:30:00 AM 13.11 55.598 0.089 6.95 6.07 9.2
5/17/2022 5:45:00 AM 13.06 55.508 0.09 6.95 6.05 9.22
5/17/2022 6:00:00 AM 13.01 55.418 0.088 6.92 6.87 9.23
5/17/2022 6:15:00 AM 12.97 55.346 0.09 6.95 5.79 9.25
5/17/2022 6:30:00 AM 12.93 55.274 0.09 6.95 5.58 9.28
5/17/2022 6:45:00 AM 12.9 55.22 0.09 6.96 5.57 9.33
5/17/2022 7:00:00 AM 12.88 55.184 0.09 6.96 5.31 9.37
5/17/2022 7:15:00 AM 12.83 55.094 0.088 6.94 6 9.4
5/17/2022 7:30:00 AM 12.84 55.112 0.09 6.98 7.2 9.47
5/17/2022 7:45:00 AM 12.84 55.112 0.088 6.95 6.09 9.52
5/17/2022 8:00:00 AM 12.84 55.112 0.088 6.96 5.92 9.54
5/17/2022 8:15:00 AM 12.88 55.184 0.089 7 5.87 9.6
5/17/2022 8:30:00 AM 12.91 55.238 0.09 7.02 4.82 9.66
5/17/2022 8:45:00 AM 12.94 55.292 0.089 7.03 4.66 9.71
5/17/2022 9:00:00 AM 13.02 55.436 0.089 7.04 4.63 9.77
5/17/2022 9:15:00 AM 13.12 55.616 0.089 7.06 4.48 9.82
5/17/2022 9:30:00 AM 13.16 55.688 0.089 7.07 4.27 9.86
5/17/2022 9:45:00 AM 13.16 55.688 0.09 7.02 4.34 9.87
5/17/2022 10:00:00 AM 13.24 55.832 0.089 7.04 4.26 9.92
5/17/2022 10:15:00 AM 13.45 56.21 0.09 7.11 4.18 9.98
5/17/2022 10:30:00 AM 13.64 56.552 0.089 7.12 4.23 10.01
5/17/2022 10:45:00 AM 13.86 56.948 0.089 7.13 4.05 10.04
5/17/2022 11:00:00 AM 14.02 57.236 0.087 7.02 4.88 10.07
5/17/2022 11:15:00 AM 14.08 57.344 0.089 7.16 3.94 10.06
5/17/2022 11:30:00 AM 14.09 57.362 0.089 7.17 3.91 10.05
5/17/2022 11:45:00 AM 14.41 57.938 0.089 7.18 3.95 10.08
5/17/2022 12:00:00 PM 14.7 58.46 0.089 7.19 3.92 10.1
5/17/2022 12:15:00 PM 14.78 58.604 0.089 7.21 3.82 10.11
5/17/2022 12:30:00 PM 15.08 59.144 0.089 7.22 3.77 10.12
5/17/2022 12:45:00 PM 15.29 59.522 0.089 7.18 3.85 10.11
5/17/2022 1:00:00 PM 15.48 59.864 0.089 7.24 3.92 10.1
5/17/2022 1:15:00 PM 15.59 60.062 0.086 7.22 4.53 10.08
5/17/2022 1:30:00 PM 15.77 60.386 0.087 7.24 4.5 10.07
5/17/2022 1:45:00 PM 15.83 60.494 0.087 7.24 4.32 10.04
5/17/2022 2:00:00 PM 15.95 60.71 0.089 7.27 3.69 10.02
5/17/2022 2:15:00 PM 16.08 60.944 0.088 7.29 3.65 10.04
5/17/2022 2:30:00 PM 16.2 61.16 0.088 7.29 3.67 10.03
5/17/2022 2:45:00 PM 16.34 61.412 0.088 7.3 3.55 10.01
5/17/2022 3:00:00 PM 16.32 61.376 0.086 7.28 4.42 9.99
5/17/2022 3:15:00 PM 16.35 61.43 0.088 7.23 3.5 9.99
5/17/2022 3:30:00 PM 16.37 61.466 0.086 7.3 4.3 9.96
5/17/2022 3:45:00 PM 16.52 61.736 0.087 7.29 4.65 9.96
5/17/2022 4:00:00 PM 16.55 61.79 0.088 7.33 3.42 9.91
5/17/2022 4:15:00 PM 16.53 61.754 0.087 7.3 4.34 9.88
5/17/2022 4:30:00 PM 16.48 61.664 0.086 7.3 4.32 9.85
5/17/2022 4:45:00 PM 16.5 61.7 0.088 7.26 3.53 9.83
5/17/2022 5:00:00 PM 16.54 61.772 0.086 7.3 4.24 9.81
5/17/2022 5:15:00 PM 16.48 61.664 0.088 7.32 3.39 9.79
5/17/2022 5:30:00 PM 16.4 61.52 0.087 7.28 4.15 9.75
5/17/2022 5:45:00 PM 16.39 61.502 0.089 7.31 3.52 9.72
5/17/2022 6:00:00 PM 16.32 61.376 0.087 7.27 4.38 9.69
5/17/2022 6:15:00 PM 16.23 61.214 0.089 7.29 3.45 9.63
5/17/2022 6:30:00 PM 16.18 61.124 0.089 7.27 3.41 9.56
5/17/2022 6:45:00 PM 16.15 61.07 0.087 7.25 4.46 9.52
5/17/2022 7:00:00 PM 16.11 60.998 0.089 7.24 3.38 9.46
5/17/2022 7:15:00 PM 16.05 60.89 0.089 7.23 3.36 9.39
5/17/2022 7:30:00 PM 15.98 60.764 0.086 7.18 4.22 9.32
5/17/2022 7:45:00 PM 15.91 60.638 0.089 7.09 3.17 9.24
5/17/2022 8:00:00 PM 15.83 60.494 0.087 7.15 4.15 9.18
5/17/2022 8:15:00 PM 15.76 60.368 0.089 7.15 3.23 9.12
5/17/2022 8:30:00 PM 15.67 60.206 0.089 7.13 3.18 9.06
5/17/2022 8:45:00 PM 15.57 60.026 0.089 7.11 3.33 9.02
5/17/2022 9:00:00 PM 15.49 59.882 0.089 7.1 3.24 8.97
5/17/2022 9:15:00 PM 15.39 59.702 0.089 7.08 3.26 8.94
5/17/2022 9:30:00 PM 15.31 59.558 0.088 7.05 4.15 8.92
5/17/2022 9:45:00 PM 15.22 59.396 0.09 7.06 3.29 8.9
5/17/2022 10:00:00 PM 15.15 59.27 0.087 7.01 4.12 8.89
5/17/2022 10:15:00 PM 15.08 59.144 0.09 7.04 3.34 8.88
5/17/2022 10:30:00 PM 15 59 0.09 7.04 3.21 8.87
5/17/2022 10:45:00 PM 14.91 58.838 0.09 7.03 3.48 8.87
5/17/2022 11:00:00 PM 14.83 58.694 0.09 7.03 3.51 8.86
5/17/2022 11:15:00 PM 14.75 58.55 0.09 7.02 3.37 8.85
5/17/2022 11:30:00 PM 14.67 58.406 0.088 6.98 4.37 8.84
5/17/2022 11:45:00 PM 14.57 58.226 0.09 7.01 3.41 8.83
5/18/2022 12:00:00 AM 14.46 58.028 0.09 7 3.36 8.84
5/18/2022 12:15:00 AM 14.35 57.83 0.09 6.99 3.46 8.84
5/18/2022 12:30:00 AM 14.24 57.632 0.09 6.92 3.3 8.85
5/18/2022 12:45:00 AM 14.14 57.452 0.091 6.98 3.39 8.86
5/18/2022 1:00:00 AM 14.02 57.236 0.088 6.95 4.16 8.87
5/18/2022 1:15:00 AM 13.91 57.038 0.088 6.97 4.33 8.88
5/18/2022 1:30:00 AM 13.8 56.84 0.089 6.81 4.14 8.89
5/18/2022 1:45:00 AM 13.7 56.66 0.088 6.95 4.07 8.91
5/18/2022 2:00:00 AM 13.61 56.498 0.089 6.93 4.09 8.93
5/18/2022 2:15:00 AM 13.53 56.354 0.091 6.96 3.31 8.94
5/18/2022 2:30:00 AM 13.44 56.192 0.091 6.92 3.23 8.96
5/18/2022 2:45:00 AM 13.4 56.12 0.091 6.95 3.12 8.96
5/18/2022 3:00:00 AM 13.34 56.012 0.091 6.96 3.31 8.98
5/18/2022 3:15:00 AM 13.28 55.904 0.091 6.96 3.16 8.99
5/18/2022 3:30:00 AM 13.21 55.778 0.092 6.96 3.24 9
5/18/2022 3:45:00 AM 13.15 55.67 0.092 6.96 3.24 9.01
5/18/2022 4:00:00 AM 13.09 55.562 0.092 6.96 3.25 9.03
5/18/2022 4:15:00 AM 13.01 55.418 0.092 6.95 3.32 9.05
5/18/2022 4:30:00 AM 12.92 55.256 0.092 6.96 3.26 9.06
5/18/2022 4:45:00 AM 12.84 55.112 0.092 6.96 3.17 9.1
5/18/2022 5:00:00 AM 12.75 54.95 0.092 6.96 3.22 9.11
5/18/2022 5:15:00 AM 12.68 54.824 0.092 6.96 3.22 9.13
5/18/2022 5:30:00 AM 12.61 54.698 0.092 6.96 3.25 9.14
5/18/2022 5:45:00 AM 12.51 54.518 0.092 6.96 3.26 9.16
5/18/2022 6:00:00 AM 12.41 54.338 0.092 6.95 3.23 9.21
5/18/2022 6:15:00 AM 12.34 54.212 0.092 6.96 3.17 9.25
5/18/2022 6:30:00 AM 12.27 54.086 0.092 6.97 3.31 9.31
5/18/2022 6:45:00 AM 12.2 53.96 0.092 6.97 3.04 9.37
5/18/2022 7:00:00 AM 12.15 53.87 0.092 6.99 3.18 9.43
5/18/2022 7:15:00 AM 12.11 53.798 0.092 7 3.24 9.52
5/18/2022 7:30:00 AM 12.1 53.78 0.091 7.01 3.02 9.59
5/18/2022 7:45:00 AM 12.12 53.816 0.091 7.02 3.05 9.69
5/18/2022 8:00:00 AM 12.13 53.834 0.091 7.03 3.17 9.76
5/18/2022 8:15:00 AM 12.21 53.978 0.091 6.95 3.05 9.84
5/18/2022 8:30:00 AM 12.25 54.05 0.091 7 3.1 9.91
5/18/2022 8:45:00 AM 12.33 54.194 0.092 7.07 3.06 9.97
5/18/2022 9:00:00 AM 12.46 54.428 0.092 7.08 2.95 10.05
5/18/2022 9:15:00 AM 12.6 54.68 0.092 7.1 2.93 10.13
5/18/2022 9:30:00 AM 12.71 54.878 0.092 7.11 2.83 10.17
5/18/2022 9:45:00 AM 12.81 55.058 0.092 7.12 2.85 10.21
5/18/2022 10:00:00 AM 12.94 55.292 0.092 7.14 2.72 10.26
5/18/2022 10:15:00 AM 13.12 55.616 0.092 7.09 2.8 10.29
5/18/2022 10:30:00 AM 13.28 55.904 0.092 7.17 2.69 10.33
5/18/2022 10:45:00 AM 13.51 56.318 0.092 7.19 2.72 10.38
5/18/2022 11:00:00 AM 13.64 56.552 0.092 7.21 2.62 10.42
5/18/2022 11:15:00 AM 13.95 57.11 0.092 7.23 2.72 10.44
5/18/2022 11:30:00 AM 14.3 57.74 0.09 7.21 3.47 10.47
5/18/2022 11:45:00 AM 14.55 58.19 0.092 7.26 2.63 10.46
5/18/2022 12:00:00 PM 14.86 58.748 0.092 7.28 2.6 10.48
5/18/2022 12:15:00 PM 15.08 59.144 0.092 7.29 2.54 10.48
5/18/2022 12:30:00 PM 15.38 59.684 0.092 7.31 2.62 10.49
5/18/2022 12:45:00 PM 15.66 60.188 0.09 7.16 3.62 10.46
5/18/2022 1:00:00 PM 15.83 60.494 0.092 7.33 2.56 10.43
5/18/2022 1:15:00 PM 15.98 60.764 0.092 7.35 2.66 10.4
5/18/2022 1:30:00 PM 16.16 61.088 0.092 7.36 2.58 10.39
5/18/2022 1:45:00 PM 16.37 61.466 0.092 7.37 2.72 10.34
5/18/2022 2:00:00 PM 16.6 61.88 0.092 7.38 2.65 10.32
5/18/2022 2:15:00 PM 16.71 62.078 0.092 7.39 2.7 10.29
5/18/2022 2:30:00 PM 16.81 62.258 0.09 7.37 3.54 10.29
5/18/2022 2:45:00 PM 16.84 62.312 0.09 7.39 3.44 10.27
5/18/2022 3:00:00 PM 16.91 62.438 0.089 7.4 3.53 10.25
5/18/2022 3:15:00 PM 17.03 62.654 0.091 7.43 2.58 10.26
5/18/2022 3:30:00 PM 17.05 62.69 0.091 7.46 2.59 10.25
5/18/2022 3:45:00 PM 17.05 62.69 0.091 7.46 2.58 10.24
5/18/2022 4:00:00 PM 17.01 62.618 0.088 7.45 3.59 10.18
5/18/2022 4:15:00 PM 17 62.6 0.088 7.44 3.62 10.13
5/18/2022 4:30:00 PM 16.95 62.51 0.088 7.43 3.43 10.08
5/18/2022 4:45:00 PM 16.88 62.384 0.09 7.45 2.65 10.01
5/18/2022 5:00:00 PM 16.79 62.222 0.09 7.41 2.53 9.86
5/18/2022 5:15:00 PM 16.71 62.078 0.09 7.37 2.63 9.75
5/18/2022 5:30:00 PM 16.65 61.97 0.09 7.34 2.58 9.64
5/18/2022 5:45:00 PM 16.59 61.862 0.091 7.31 2.61 9.52
5/18/2022 6:00:00 PM 16.54 61.772 0.091 7.27 2.63 9.41
5/18/2022 6:15:00 PM 16.49 61.682 0.089 7.2 3.46 9.3
5/18/2022 6:30:00 PM 16.44 61.592 0.091 7.23 2.58 9.25
5/18/2022 6:45:00 PM 16.41 61.538 0.089 7.18 3.42 9.21
5/18/2022 7:00:00 PM 16.37 61.466 0.089 7.16 3.47 9.18
5/18/2022 7:15:00 PM 16.32 61.376 0.091 7.19 2.72 9.14
5/18/2022 7:30:00 PM 16.26 61.268 0.089 7.14 3.51 9.08
5/18/2022 7:45:00 PM 16.21 61.178 0.091 7.16 2.76 9.01
5/18/2022 8:00:00 PM 16.15 61.07 0.09 7.14 3.54 8.96
5/18/2022 8:15:00 PM 16.07 60.926 0.092 7.13 2.76 8.9
5/18/2022 8:30:00 PM 16 60.8 0.092 7.11 2.74 8.83
5/18/2022 8:45:00 PM 15.93 60.674 0.09 7.06 3.44 8.76
5/18/2022 9:00:00 PM 15.87 60.566 0.092 7.01 2.73 8.7
5/18/2022 9:15:00 PM 15.79 60.422 0.092 7 2.69 8.65
5/18/2022 9:30:00 PM 15.72 60.296 0.092 7.05 2.81 8.62
5/18/2022 9:45:00 PM 15.65 60.17 0.092 7.04 2.68 8.59
5/18/2022 10:00:00 PM 15.58 60.044 0.09 7 3.63 8.58
5/18/2022 10:15:00 PM 15.52 59.936 0.091 7 3.57 8.57
5/18/2022 10:30:00 PM 15.44 59.792 0.093 7.02 2.8 8.55
5/18/2022 10:45:00 PM 15.36 59.648 0.092 6.98 3.78 8.55
5/18/2022 11:00:00 PM 15.29 59.522 0.092 6.97 3.81 8.54
5/18/2022 11:15:00 PM 15.21 59.378 0.095 6.96 2.95 8.53
5/18/2022 11:30:00 PM 15.14 59.252 0.096 6.98 3.13 8.54
5/18/2022 11:45:00 PM 15.07 59.126 0.095 6.96 3.08 8.55
5/19/2022 12:00:00 AM 14.99 58.982 0.096 6.97 3.11 8.55
5/19/2022 12:15:00 AM 14.92 58.856 0.096 6.97 3.3 8.56
5/19/2022 12:30:00 AM 14.85 58.73 0.097 6.97 3 8.55
5/19/2022 12:45:00 AM 14.78 58.604 0.097 6.96 3.08 8.55
5/19/2022 1:00:00 AM 14.71 58.478 0.098 6.96 2.99 8.55
5/19/2022 1:15:00 AM 14.64 58.352 0.097 6.96 2.98 8.56
5/19/2022 1:30:00 AM 14.56 58.208 0.097 6.95 3.19 8.58
5/19/2022 1:45:00 AM 14.48 58.064 0.097 6.96 3.14 8.61
5/19/2022 2:00:00 AM 14.41 57.938 0.097 6.95 3.17 8.62
5/19/2022 2:15:00 AM 14.34 57.812 0.097 6.96 3.06 8.64
5/19/2022 2:30:00 AM 14.26 57.668 0.096 6.96 3.09 8.67
5/19/2022 2:45:00 AM 14.18 57.524 0.096 6.85 3.13 8.7
5/19/2022 3:00:00 AM 14.11 57.398 0.1 6.95 11.06 8.72
5/19/2022 3:15:00 AM 14.03 57.254 0.093 6.93 4 8.75
5/19/2022 3:30:00 AM 13.95 57.11 0.096 6.96 3.15 8.76
5/19/2022 3:45:00 AM 13.88 56.984 0.096 6.96 3.17 8.79
5/19/2022 4:00:00 AM 13.81 56.858 0.096 6.96 3.26 8.81
5/19/2022 4:15:00 AM 13.74 56.732 0.097 6.96 3.25 8.83
5/19/2022 4:30:00 AM 13.67 56.606 0.097 6.96 3.33 8.85
5/19/2022 4:45:00 AM 13.6 56.48 0.096 6.97 3.31 8.88
5/19/2022 5:00:00 AM 13.53 56.354 0.097 6.97 3.54 8.9
5/19/2022 5:15:00 AM 13.47 56.246 0.096 6.97 3.36 8.93
5/19/2022 5:30:00 AM 13.41 56.138 0.096 6.97 3.47 8.95
5/19/2022 5:45:00 AM 13.36 56.048 0.096 6.97 3.43 8.97
5/19/2022 6:00:00 AM 13.31 55.958 0.095 6.97 3.3 8.99
5/19/2022 6:15:00 AM 13.27 55.886 0.095 6.96 3.28 9.02
5/19/2022 6:30:00 AM 13.22 55.796 0.094 6.95 4.07 9.04
5/19/2022 6:45:00 AM 13.18 55.724 0.096 6.98 3.75 9.09
5/19/2022 7:00:00 AM 13.14 55.652 0.096 6.99 3.06 9.12
5/19/2022 7:15:00 AM 13.11 55.598 0.096 6.99 3.15 9.14
5/19/2022 7:30:00 AM 13.08 55.544 0.096 6.99 3.01 9.18
5/19/2022 7:45:00 AM 13.06 55.508 0.096 7 3 9.24
5/19/2022 8:00:00 AM 13.04 55.472 0.096 7.01 3.03 9.29
5/19/2022 8:15:00 AM 13.03 55.454 0.096 7.02 3.07 9.36
5/19/2022 8:30:00 AM 13.01 55.418 0.096 7.03 3.05 9.42
5/19/2022 8:45:00 AM 13.01 55.418 0.095 7.05 3.04 9.51
5/19/2022 9:00:00 AM 13 55.4 0.095 7.06 3.02 9.56
5/19/2022 9:15:00 AM 12.97 55.346 0.095 7.06 2.88 9.58
5/19/2022 9:30:00 AM 12.97 55.346 0.095 7.07 2.96 9.61
5/19/2022 9:45:00 AM 12.98 55.364 0.095 7.09 2.98 9.7
5/19/2022 10:00:00 AM 12.99 55.382 0.096 7.1 2.99 9.77
5/19/2022 10:15:00 AM 12.99 55.382 0.096 7.11 2.9 9.78
5/19/2022 10:30:00 AM 12.99 55.382 0.096 7.12 2.92 9.82
5/19/2022 10:45:00 AM 13 55.4 0.096 7.13 2.85 9.87
5/19/2022 11:00:00 AM 13.03 55.454 0.095 7.14 2.91 9.95
5/19/2022 11:15:00 AM 13.06 55.508 0.095 7.16 2.86 10.01
5/19/2022 11:30:00 AM 13.2 55.76 0.095 7.18 2.85 10.08
5/19/2022 11:45:00 AM 13.27 55.886 0.095 7.2 2.87 10.17
5/19/2022 12:00:00 PM 13.28 55.904 0.095 7.22 2.94 10.21
5/19/2022 12:15:00 PM 13.39 56.102 0.095 7.24 2.95 10.27
5/19/2022 12:30:00 PM 13.53 56.354 0.094 7.27 2.96 10.35
5/19/2022 12:45:00 PM 13.64 56.552 0.094 7.29 2.8 10.42
5/19/2022 1:00:00 PM 13.91 57.038 0.094 7.32 2.73 10.44
5/19/2022 1:15:00 PM 14.06 57.308 0.094 7.34 2.73 10.49
5/19/2022 1:30:00 PM 14.37 57.866 0.09 7.36 3.52 10.52
5/19/2022 1:45:00 PM 14.69 58.442 0.089 7.35 3.6 10.52
5/19/2022 2:00:00 PM 14.96 58.928 0.094 7.4 2.6 10.51
5/19/2022 2:15:00 PM 15.14 59.252 0.094 7.41 2.58 10.49
5/19/2022 2:30:00 PM 15.32 59.576 0.093 7.44 2.53 10.49
5/19/2022 2:45:00 PM 15.36 59.648 0.093 7.44 2.58 10.45
5/19/2022 3:00:00 PM 15.45 59.81 0.093 7.46 2.63 10.45
5/19/2022 3:15:00 PM 15.54 59.972 0.093 7.45 2.67 10.4
5/19/2022 3:30:00 PM 15.48 59.864 0.091 7.44 3.6 10.33
5/19/2022 3:45:00 PM 15.65 60.17 0.093 7.45 2.66 10.35
5/19/2022 4:00:00 PM 15.73 60.314 0.092 7.4 2.6 10.31
5/19/2022 4:15:00 PM 15.78 60.404 0.092 7.47 2.6 10.29
5/19/2022 4:30:00 PM 15.77 60.386 0.091 7.42 3.58 10.22
5/19/2022 4:45:00 PM 15.88 60.584 0.093 7.43 2.64 10.18
5/19/2022 5:00:00 PM 15.99 60.782 0.09 7.42 3.48 10.15
5/19/2022 5:15:00 PM 16.05 60.89 0.092 7.45 2.55 10.12
5/19/2022 5:30:00 PM 16.07 60.926 0.093 7.44 2.56 10.07
5/19/2022 5:45:00 PM 16.08 60.944 0.092 7.44 2.53 10.03
5/19/2022 6:00:00 PM 16.07 60.926 0.091 7.4 3.9 9.98
5/19/2022 6:15:00 PM 16.04 60.872 0.092 7.41 2.62 9.91
5/19/2022 6:30:00 PM 15.97 60.746 0.092 7.39 2.54 9.82
5/19/2022 6:45:00 PM 15.92 60.656 0.091 7.3 3.49 9.72
5/19/2022 7:00:00 PM 15.89 60.602 0.091 7.31 3.4 9.65
5/19/2022 7:15:00 PM 15.83 60.494 0.091 7.28 3.49 9.57
5/19/2022 7:30:00 PM 15.79 60.422 0.091 7.24 3.46 9.49
5/19/2022 7:45:00 PM 15.73 60.314 0.093 7.25 2.51 9.39
5/19/2022 8:00:00 PM 15.67 60.206 0.092 7.19 3.46 9.3
5/19/2022 8:15:00 PM 15.61 60.098 0.092 7.16 3.43 9.2
5/19/2022 8:30:00 PM 15.54 59.972 0.094 7.16 2.53 9.12
5/19/2022 8:45:00 PM 15.48 59.864 0.094 7.05 2.65 9.05
5/19/2022 9:00:00 PM 15.41 59.738 0.094 7.12 2.65 8.98
5/19/2022 9:15:00 PM 15.35 59.63 0.092 7.08 3.62 8.94
5/19/2022 9:30:00 PM 15.29 59.522 0.094 7.09 2.69 8.88
5/19/2022 9:45:00 PM 15.22 59.396 0.094 7.08 2.65 8.85
5/19/2022 10:00:00 PM 15.16 59.288 0.094 7.07 2.68 8.84
5/19/2022 10:15:00 PM 15.09 59.162 0.094 7.06 2.69 8.82
5/19/2022 10:30:00 PM 15.02 59.036 0.094 7.05 2.82 8.81
5/19/2022 10:45:00 PM 14.96 58.928 0.092 7.01 3.66 8.8
5/19/2022 11:00:00 PM 14.89 58.802 0.091 7.01 3.58 8.79
5/19/2022 11:15:00 PM 14.8 58.64 0.094 6.94 2.66 8.78
5/19/2022 11:30:00 PM 14.72 58.496 0.094 7.02 2.66 8.77
5/19/2022 11:45:00 PM 14.64 58.352 0.094 7.02 2.7 8.75
5/20/2022 12:00:00 AM 14.55 58.19 0.095 7.01 2.73 8.74
5/20/2022 12:15:00 AM 14.45 58.01 0.095 7 2.71 8.74
5/20/2022 12:30:00 AM 14.36 57.848 0.095 7 2.66 8.75
5/20/2022 12:45:00 AM 14.27 57.686 0.095 6.9 2.63 8.75
5/20/2022 1:00:00 AM 14.18 57.524 0.095 6.99 2.66 8.76
5/20/2022 1:15:00 AM 14.09 57.362 0.095 6.98 2.73 8.77
5/20/2022 1:30:00 AM 14.01 57.218 0.095 6.98 2.72 8.77
5/20/2022 1:45:00 AM 13.91 57.038 0.095 6.98 2.78 8.78
5/20/2022 2:00:00 AM 13.82 56.876 0.095 6.97 2.77 8.79
5/20/2022 2:15:00 AM 13.75 56.75 0.095 6.95 2.75 8.8
5/20/2022 2:30:00 AM 13.67 56.606 0.095 6.97 2.64 8.81
5/20/2022 2:45:00 AM 13.61 56.498 0.096 6.97 2.64 8.82
5/20/2022 3:00:00 AM 13.55 56.39 0.096 6.97 2.62 8.84
5/20/2022 3:15:00 AM 13.46 56.228 0.096 6.96 2.7 8.85
5/20/2022 3:30:00 AM 13.39 56.102 0.096 6.96 2.63 8.86
5/20/2022 3:45:00 AM 13.33 55.994 0.093 6.92 3.56 8.87
5/20/2022 4:00:00 AM 13.28 55.904 0.096 6.96 2.71 8.88
5/20/2022 4:15:00 AM 13.21 55.778 0.096 6.96 2.62 8.89
5/20/2022 4:30:00 AM 13.14 55.652 0.096 6.96 2.62 8.9
5/20/2022 4:45:00 AM 13.08 55.544 0.097 6.96 2.6 8.93
5/20/2022 5:00:00 AM 13 55.4 0.097 6.87 2.5 8.93
5/20/2022 5:15:00 AM 12.95 55.31 0.097 6.92 2.6 8.95
5/20/2022 5:30:00 AM 12.89 55.202 0.097 6.95 2.6 8.97
5/20/2022 5:45:00 AM 12.82 55.076 0.097 6.95 2.59 9
5/20/2022 6:00:00 AM 12.77 54.986 0.097 6.96 2.63 9.03
5/20/2022 6:15:00 AM 12.72 54.896 0.097 6.96 2.55 9.09
5/20/2022 6:30:00 AM 12.68 54.824 0.097 6.97 2.73 9.18
5/20/2022 6:45:00 AM 12.66 54.788 0.097 6.99 2.69 9.27
5/20/2022 7:00:00 AM 12.64 54.752 0.097 7 2.71 9.34
5/20/2022 7:15:00 AM 12.66 54.788 0.097 7.01 2.62 9.49
5/20/2022 7:30:00 AM 12.69 54.842 0.097 7.03 2.62 9.61
5/20/2022 7:45:00 AM 12.73 54.914 0.097 7.05 2.57 9.7
5/20/2022 8:00:00 AM 12.74 54.932 0.095 7.06 3.43 9.79
5/20/2022 8:15:00 AM 12.82 55.076 0.097 7.08 2.59 9.86
5/20/2022 8:30:00 AM 12.91 55.238 0.095 7.06 3.41 9.94
5/20/2022 8:45:00 AM 13.02 55.436 0.097 7.11 2.53 10.02
5/20/2022 9:00:00 AM 13.16 55.688 0.097 7.13 2.46 10.08
5/20/2022 9:15:00 AM 13.4 56.12 0.095 7.11 3.57 10.14
5/20/2022 9:30:00 AM 13.6 56.48 0.094 7.13 3.59 10.19
5/20/2022 9:45:00 AM 13.49 56.282 0.094 7.18 3.57 10.25
5/20/2022 10:00:00 AM 13.5 56.3 0.096 7.2 2.48 10.28
5/20/2022 10:15:00 AM 13.49 56.282 0.096 7.22 2.43 10.31
5/20/2022 10:30:00 AM 13.47 56.246 0.097 7.21 2.48 10.22
5/20/2022 10:45:00 AM 13.53 56.354 0.097 7.2 2.46 10.19
5/20/2022 11:00:00 AM 13.55 56.39 0.097 7.2 2.54 10.12
5/20/2022 11:15:00 AM 13.64 56.552 0.097 7.19 2.44 10.16
5/20/2022 11:30:00 AM 13.93 57.074 0.097 7.23 2.43 10.29
5/20/2022 11:45:00 AM 13.97 57.146 0.097 7.25 2.41 10.35
5/20/2022 12:00:00 PM 13.99 57.182 0.097 7.27 2.38 10.35
5/20/2022 12:15:00 PM 14.01 57.218 0.097 7.27 2.4 10.34
5/20/2022 12:30:00 PM 14.08 57.344 0.097 7.28 2.43 10.37
5/20/2022 12:45:00 PM 14.31 57.758 0.096 7.3 2.3 10.43
5/20/2022 1:00:00 PM 14.64 58.352 0.096 7.34 2.39 10.5
5/20/2022 1:15:00 PM 14.95 58.91 0.096 7.37 2.39 10.54
5/20/2022 1:30:00 PM 15.24 59.432 0.096 7.39 2.31 10.53
5/20/2022 1:45:00 PM 15.52 59.936 0.096 7.4 2.28 10.53
5/20/2022 2:00:00 PM 15.81 60.458 0.096 7.42 2.33 10.52
5/20/2022 2:15:00 PM 15.99 60.782 0.093 7.39 3.3 10.5
5/20/2022 2:30:00 PM 16.09 60.962 0.096 7.44 2.35 10.45
5/20/2022 2:45:00 PM 16.02 60.836 0.096 7.41 2.39 10.28
5/20/2022 3:00:00 PM 16.12 61.016 0.096 7.41 2.4 10.26
5/20/2022 3:15:00 PM 16.24 61.232 0.096 7.43 2.4 10.3
5/20/2022 3:30:00 PM 16.34 61.412 0.096 7.43 2.32 10.28
5/20/2022 3:45:00 PM 16.5 61.7 0.094 7.25 3.26 10.26
5/20/2022 4:00:00 PM 16.54 61.772 0.094 7.34 3.56 10.23
5/20/2022 4:15:00 PM 16.54 61.772 0.096 7.43 2.34 10.17
5/20/2022 4:30:00 PM 16.57 61.826 0.096 7.41 2.3 10.06
5/20/2022 4:45:00 PM 16.77 62.186 0.096 7.42 2.34 10.07
5/20/2022 5:00:00 PM 16.76 62.168 0.096 7.4 2.37 9.94
5/20/2022 5:15:00 PM 16.73 62.114 0.094 7.32 3.32 9.75
5/20/2022 5:30:00 PM 16.71 62.078 0.094 7.32 3.34 9.66
5/20/2022 5:45:00 PM 16.7 62.06 0.096 7.31 2.37 9.57
5/20/2022 6:00:00 PM 16.68 62.024 0.094 7.28 3.17 9.48
5/20/2022 6:15:00 PM 16.69 62.042 0.096 7.27 2.35 9.46
5/20/2022 6:30:00 PM 16.72 62.096 0.096 7.27 2.21 9.47
5/20/2022 6:45:00 PM 16.75 62.15 0.096 7.27 2.59 9.45
5/20/2022 7:00:00 PM 16.72 62.096 0.096 7.24 2.52 9.28
5/20/2022 7:15:00 PM 16.74 62.132 0.096 7.21 2.29 9.15
5/20/2022 7:30:00 PM 16.75 62.15 0.095 7.16 3.19 9.1
5/20/2022 7:45:00 PM 16.76 62.168 0.097 7.19 2.3 9.04
5/20/2022 8:00:00 PM 16.73 62.114 0.095 7.16 3.14 8.94
5/20/2022 8:15:00 PM 16.7 62.06 0.097 7.15 2.29 8.83
5/20/2022 8:30:00 PM 16.64 61.952 0.097 7.13 2.33 8.71
5/20/2022 8:45:00 PM 16.6 61.88 0.097 7.11 2.45 8.62
5/20/2022 9:00:00 PM 16.57 61.826 0.097 7.09 2.29 8.55
5/20/2022 9:15:00 PM 16.52 61.736 0.097 7.08 2.37 8.49
5/20/2022 9:30:00 PM 16.46 61.628 0.097 7.07 2.4 8.44
5/20/2022 9:45:00 PM 16.4 61.52 0.095 7.03 3.27 8.4
5/20/2022 10:00:00 PM 16.35 61.43 0.098 7.04 2.36 8.35
5/20/2022 10:15:00 PM 16.29 61.322 0.096 7 3.3 8.33
5/20/2022 10:30:00 PM 16.24 61.232 0.098 7.02 2.45 8.31
5/20/2022 10:45:00 PM 16.19 61.142 0.098 7.02 2.49 8.29
5/20/2022 11:00:00 PM 16.14 61.052 0.098 7.01 2.39 8.28
5/20/2022 11:15:00 PM 16.1 60.98 0.098 7 2.48 8.26
5/20/2022 11:30:00 PM 16.06 60.908 0.098 7 2.36 8.25
5/20/2022 11:45:00 PM 16.02 60.836 0.095 6.96 3.25 8.23
5/21/2022 12:00:00 AM 15.98 60.764 0.096 6.93 3.22 8.21
5/21/2022 12:15:00 AM 15.94 60.692 0.096 6.95 3.36 8.2
5/21/2022 12:30:00 AM 15.89 60.602 0.098 6.96 2.37 8.18
5/21/2022 12:45:00 AM 15.84 60.512 0.096 6.94 3.29 8.17
5/21/2022 1:00:00 AM 15.79 60.422 0.099 6.89 2.38 8.16
5/21/2022 1:15:00 AM 15.74 60.332 0.097 6.93 3.31 8.15
5/21/2022 1:30:00 AM 15.69 60.242 0.096 6.94 3.2 8.16
5/21/2022 1:45:00 AM 15.64 60.152 0.094 6.91 3.35 8.16
5/21/2022 2:00:00 AM 15.59 60.062 0.099 6.94 2.42 8.16
5/21/2022 2:15:00 AM 15.54 59.972 0.099 6.93 2.36 8.15
5/21/2022 2:30:00 AM 15.49 59.882 0.099 6.93 2.39 8.16
5/21/2022 2:45:00 AM 15.45 59.81 0.097 6.93 3.36 8.16
5/21/2022 3:00:00 AM 15.4 59.72 0.099 6.92 2.36 8.16
5/21/2022 3:15:00 AM 15.36 59.648 0.097 6.92 3.28 8.17
5/21/2022 3:30:00 AM 15.31 59.558 0.098 6.88 3.33 8.17
5/21/2022 3:45:00 AM 15.27 59.486 0.096 6.9 3.27 8.18
5/21/2022 4:00:00 AM 15.23 59.414 0.1 6.92 2.37 8.19
5/21/2022 4:15:00 AM 15.18 59.324 0.1 6.91 2.25 8.2
5/21/2022 4:30:00 AM 15.14 59.252 0.1 6.92 2.43 8.21
5/21/2022 4:45:00 AM 15.1 59.18 0.097 6.89 3.37 8.22
5/21/2022 5:00:00 AM 15.06 59.108 0.1 6.92 2.35 8.22
5/21/2022 5:15:00 AM 15.03 59.054 0.1 6.92 2.45 8.24
5/21/2022 5:30:00 AM 15 59 0.1 6.92 2.37 8.26
5/21/2022 5:45:00 AM 14.98 58.964 0.101 6.92 2.3 8.25
5/21/2022 6:00:00 AM 14.95 58.91 0.098 6.89 4.66 8.29
5/21/2022 6:15:00 AM 14.91 58.838 0.1 6.93 2.66 8.34
5/21/2022 6:30:00 AM 14.87 58.766 0.098 6.91 3.29 8.4
5/21/2022 6:45:00 AM 14.86 58.748 0.1 6.94 2.54 8.46
5/21/2022 7:00:00 AM 14.87 58.766 0.101 6.95 2.64 8.56
5/21/2022 7:15:00 AM 14.87 58.766 0.098 6.96 3.39 8.67
5/21/2022 7:30:00 AM 14.92 58.856 0.1 6.98 2.62 8.8
5/21/2022 7:45:00 AM 14.98 58.964 0.1 6.99 2.53 8.91
5/21/2022 8:00:00 AM 15 59 0.1 6.99 2.65 9.01
5/21/2022 8:15:00 AM 15.08 59.144 0.101 7.02 2.72 9.14
5/21/2022 8:30:00 AM 15.2 59.36 0.101 7.04 2.7 9.22
5/21/2022 8:45:00 AM 15.35 59.63 0.101 7.01 2.65 9.36
5/21/2022 9:00:00 AM 15.51 59.918 0.1 7.07 2.68 9.43
5/21/2022 9:15:00 AM 15.77 60.386 0.101 7.09 2.59 9.49
5/21/2022 9:30:00 AM 16.01 60.818 0.101 7.11 2.51 9.59
5/21/2022 9:45:00 AM 16.17 61.106 0.1 7.13 2.24 9.63
5/21/2022 10:00:00 AM 16.49 61.682 0.099 7.14 3.46 9.68
5/21/2022 10:15:00 AM 16.67 62.006 0.101 7.16 2.41 9.73
5/21/2022 10:30:00 AM 16.78 62.204 0.1 7.17 2.54 9.74
5/21/2022 10:45:00 AM 17.13 62.834 0.101 7.19 2.45 9.82
5/21/2022 11:00:00 AM 17.2 62.96 0.1 7.21 2.49 9.83
5/21/2022 11:15:00 AM 17.51 63.518 0.1 7.23 2.44 9.86
5/21/2022 11:30:00 AM 17.8 64.04 0.1 7.25 2.48 9.88
5/21/2022 11:45:00 AM 18.19 64.742 0.1 7.27 2.36 9.9
5/21/2022 12:00:00 PM 18.46 65.228 0.1 7.26 2.38 9.91
5/21/2022 12:15:00 PM 18.78 65.804 0.1 7.23 2.42 9.92
5/21/2022 12:30:00 PM 19.02 66.236 0.101 7.31 2.31 9.92
5/21/2022 12:45:00 PM 19.4 66.92 0.1 7.34 2.4 9.9
5/21/2022 1:00:00 PM 19.54 67.172 0.1 7.35 2.28 9.88
5/21/2022 1:15:00 PM 19.69 67.442 0.1 7.36 2.53 9.82
5/21/2022 1:30:00 PM 19.94 67.892 0.1 7.37 2.44 9.79
5/21/2022 1:45:00 PM 20.22 68.396 0.1 7.38 2.43 9.72
5/21/2022 2:00:00 PM 20.45 68.81 0.1 7.38 2.43 9.71
5/21/2022 2:15:00 PM 20.62 69.116 0.1 7.39 2.45 9.65
5/21/2022 2:30:00 PM 20.69 69.242 0.1 7.39 2.46 9.57
5/21/2022 2:45:00 PM 20.89 69.602 0.099 7.37 3.17 9.53
5/21/2022 3:00:00 PM 21.06 69.908 0.099 7.39 2.36 9.46
5/21/2022 3:15:00 PM 21.22 70.196 0.099 7.4 2.43 9.44
5/21/2022 3:30:00 PM 21.43 70.574 0.099 7.41 2.28 9.39
5/21/2022 3:45:00 PM 21.55 70.79 0.099 7.4 2.36 9.34
5/21/2022 4:00:00 PM 21.68 71.024 0.099 7.4 2.25 9.29
5/21/2022 4:15:00 PM 21.72 71.096 0.099 7.41 2.26 9.26
5/21/2022 4:30:00 PM 21.71 71.078 0.099 7.39 2.28 9.2
5/21/2022 4:45:00 PM 21.81 71.258 0.099 7.41 2.35 9.18
5/21/2022 5:00:00 PM 21.84 71.312 0.099 7.39 2.28 9.11
5/21/2022 5:15:00 PM 21.74 71.132 0.099 7.38 2.34 9.05
5/21/2022 5:30:00 PM 21.72 71.096 0.099 7.36 2.37 8.94
5/21/2022 5:45:00 PM 21.68 71.024 0.099 7.35 2.31 8.89
5/21/2022 6:00:00 PM 21.53 70.754 0.099 7.33 2.27 8.78
5/21/2022 6:15:00 PM 21.47 70.646 0.099 7.3 2.43 8.68
5/21/2022 6:30:00 PM 21.38 70.484 0.099 7.28 2.28 8.58
5/21/2022 6:45:00 PM 21.29 70.32201 0.099 7.26 2.42 8.47
5/21/2022 7:00:00 PM 21.21 70.17799 0.1 7.23 2.34 8.36
5/21/2022 7:15:00 PM 21.11 69.998 0.099 7.15 3.06 8.24
5/21/2022 7:30:00 PM 21.04 69.872 0.1 7.18 2.31 8.12
5/21/2022 7:45:00 PM 20.96 69.728 0.1 7.15 2.33 8
5/21/2022 8:00:00 PM 20.87 69.566 0.1 7.13 2.4 7.87
5/21/2022 8:15:00 PM 20.79 69.422 0.1 7.1 2.46 7.74
5/21/2022 8:30:00 PM 20.7 69.26 0.1 7.07 2.42 7.62
5/21/2022 8:45:00 PM 20.62 69.116 0.1 7.05 4.26 7.48
5/21/2022 9:00:00 PM 20.54 68.972 0.101 7.03 2.53 7.42
5/21/2022 9:15:00 PM 20.47 68.846 0.101 7.02 2.63 7.33
5/21/2022 9:30:00 PM 20.41 68.738 0.101 7 2.63 7.26
5/21/2022 9:45:00 PM 20.34 68.612 0.101 6.96 3.44 7.22
5/21/2022 10:00:00 PM 20.28 68.504 0.101 6.95 3.47 7.17
5/21/2022 10:15:00 PM 20.22 68.396 0.102 6.94 3.37 7.13
5/21/2022 10:30:00 PM 20.16 68.288 0.101 6.96 2.56 7.1
5/21/2022 10:45:00 PM 20.11 68.198 0.101 6.94 2.74 7.07
5/21/2022 11:00:00 PM 20.05 68.09 0.101 6.94 2.7 7.05
5/21/2022 11:15:00 PM 19.99 67.982 0.105 6.92 7.1 6.94
5/21/2022 11:30:00 PM 19.95 67.91 0.101 6.9 3.72 7.01
5/21/2022 11:45:00 PM 19.9 67.82 0.101 6.92 2.88 6.98
5/22/2022 12:00:00 AM 19.88 67.784 0.101 6.91 2.63 6.96
5/22/2022 12:15:00 AM 19.83 67.694 0.101 6.91 2.8 6.93
5/22/2022 12:30:00 AM 19.77 67.586 0.101 6.87 3.51 6.92
5/22/2022 12:45:00 AM 19.7 67.46 0.102 6.9 2.75 6.91
5/22/2022 1:00:00 AM 19.61 67.298 0.102 6.9 2.47 6.92
5/22/2022 1:15:00 AM 19.56 67.208 0.102 6.88 3.19 6.94
5/22/2022 1:30:00 AM 19.46 67.028 0.102 6.89 2.49 6.92
5/22/2022 1:45:00 AM 19.39 66.902 0.102 6.69 3.26 6.92
5/22/2022 2:00:00 AM 19.3 66.74 0.102 6.89 2.42 6.91
5/22/2022 2:15:00 AM 19.21 66.578 0.103 6.88 2.49 6.9
5/22/2022 2:30:00 AM 19.15 66.47 0.102 6.88 2.42 6.92
5/22/2022 2:45:00 AM 19.07 66.326 0.102 6.85 3.16 6.93
5/22/2022 3:00:00 AM 18.98 66.164 0.102 6.88 2.34 6.95
5/22/2022 3:15:00 AM 18.88 65.984 0.103 6.87 3.16 6.95
5/22/2022 3:30:00 AM 18.78 65.804 0.103 6.8 2.29 6.96
5/22/2022 3:45:00 AM 18.67 65.606 0.103 6.85 3.18 6.97
5/22/2022 4:00:00 AM 18.56 65.408 0.103 6.84 3.09 6.99
5/22/2022 4:15:00 AM 18.45 65.21 0.104 6.87 2.42 6.99
5/22/2022 4:30:00 AM 18.34 65.012 0.104 6.87 2.32 7.03
5/22/2022 4:45:00 AM 18.27 64.886 0.103 6.87 2.41 7.04
5/22/2022 5:00:00 AM 18.17 64.706 0.104 6.87 2.27 7.05
5/22/2022 5:15:00 AM 18.08 64.544 0.103 6.87 3.3 7.07
5/22/2022 5:30:00 AM 18 64.4 0.104 6.87 2.37 7.08
5/22/2022 5:45:00 AM 17.89 64.202 0.104 6.84 3.21 7.13
5/22/2022 6:00:00 AM 17.81 64.058 0.104 6.84 3.13 7.15
5/22/2022 6:15:00 AM 17.75 63.95 0.104 6.88 2.32 7.23
5/22/2022 6:30:00 AM 17.7 63.86 0.104 6.85 2.48 7.34
5/22/2022 6:45:00 AM 17.68 63.824 0.104 6.9 2.63 7.44
5/22/2022 7:00:00 AM 17.64 63.752 0.104 6.91 2.47 7.52
5/22/2022 7:15:00 AM 17.59 63.662 0.104 6.92 2.39 7.63
5/22/2022 7:30:00 AM 17.54 63.572 0.105 6.92 3.15 7.72
5/22/2022 7:45:00 AM 17.59 63.662 0.105 6.93 3.14 7.85
5/22/2022 8:00:00 AM 17.66 63.788 0.104 6.95 2.43 8.01
5/22/2022 8:15:00 AM 17.74 63.932 0.104 6.93 3.28 8.14
5/22/2022 8:30:00 AM 17.87 64.166 0.104 6.98 2.3 8.25
5/22/2022 8:45:00 AM 18.04 64.472 0.104 7 2.45 8.38
5/22/2022 9:00:00 AM 18.25 64.85 0.104 7.01 3.29 8.51
5/22/2022 9:15:00 AM 18.11 64.598 0.103 7.03 2.32 8.59
5/22/2022 9:30:00 AM 18.11 64.598 0.103 7.05 2.38 8.69
5/22/2022 9:45:00 AM 18.21 64.778 0.103 7.07 2.61 8.78
5/22/2022 10:00:00 AM 18.7 65.66 0.104 7.09 2.41 8.89
5/22/2022 10:15:00 AM 19.12 66.416 0.104 7.1 2.5 9
5/22/2022 10:30:00 AM 19.19 66.542 0.103 7.13 2.44 9.08
5/22/2022 10:45:00 AM 18.97 66.146 0.103 7.14 2.35 9.1
5/22/2022 11:00:00 AM 19.48 67.064 0.103 7.16 2.32 9.17
5/22/2022 11:15:00 AM 19.31 66.758 0.103 7.18 2.5 9.18
5/22/2022 11:30:00 AM 19.55 67.19 0.103 7.2 2.22 9.28
5/22/2022 11:45:00 AM 19.88 67.784 0.104 7.22 2.28 9.35
5/22/2022 12:00:00 PM 20.06 68.108 0.102 7.2 3.15 9.35
5/22/2022 12:15:00 PM 20.39 68.702 0.103 7.25 2.27 9.4
5/22/2022 12:30:00 PM 20.83 69.494 0.103 7.26 2.35 9.4
5/22/2022 12:45:00 PM 21.08 69.944 0.103 7.27 2.39 9.37
5/22/2022 1:00:00 PM 21.25 70.25 0.104 7.28 2.39 9.33
5/22/2022 1:15:00 PM 21.09 69.962 0.103 7.29 2.18 9.32
5/22/2022 1:30:00 PM 21.22 70.196 0.103 7.29 2.43 9.31
5/22/2022 1:45:00 PM 21.21 70.17799 0.103 7.3 2.19 9.29
5/22/2022 2:00:00 PM 21.51 70.718 0.103 7.31 2.19 9.28
5/22/2022 2:15:00 PM 21.49 70.682 0.102 7.3 3.05 9.24
5/22/2022 2:30:00 PM 21.51 70.718 0.103 7.31 2.24 9.13
5/22/2022 2:45:00 PM 21.66 70.988 0.103 7.31 2.05 9.09
5/22/2022 3:00:00 PM 21.65 70.97 0.103 7.3 2.14 9.03
5/22/2022 3:15:00 PM 21.46 70.628 0.103 7.26 2.28 8.75
5/22/2022 3:30:00 PM 21.35 70.43 0.106 7.19 5.99 8.41
5/22/2022 3:45:00 PM 21.48 70.664 0.11 7.18 5.54 8.45
5/22/2022 4:00:00 PM 21.25 70.25 0.11 7.17 3.95 8.36
5/22/2022 4:15:00 PM 21.14 70.052 0.111 7.14 3.15 8.18
5/22/2022 4:30:00 PM 21.09 69.962 0.112 7.13 2.48 8.14
5/22/2022 4:45:00 PM 21.35 70.43 0.115 7.14 2.59 8.26
5/22/2022 5:00:00 PM 21.23 70.214 0.111 7.15 2.49 8.31
5/22/2022 5:15:00 PM 21.19 70.142 0.111 7.15 2.26 8.33
5/22/2022 5:30:00 PM 21.2 70.16 0.109 7.15 2.22 8.3
5/22/2022 5:45:00 PM 20.82 69.476 0.12 7.08 41.08 8.17
5/22/2022 6:00:00 PM 20.62 69.116 0.274 6.9 94.8 7.79
5/22/2022 6:15:00 PM 20.57 69.026 0.203 6.92 94.91 7.63
5/22/2022 6:30:00 PM 20.58 69.044 0.155 6.95 40.21 7.84
5/22/2022 6:45:00 PM 20.48 68.864 0.141 7.01 14.58 7.9
5/22/2022 7:00:00 PM 20.4 68.72 0.129 7.04 9.86 7.87
5/22/2022 7:15:00 PM 20.28 68.504 0.125 7.06 19.2 7.9
5/22/2022 7:30:00 PM 20.13 68.234 0.121 7.09 21.39 7.91
5/22/2022 7:45:00 PM 19.99 67.982 0.119 7.1 14.32 7.94
5/22/2022 8:00:00 PM 19.84 67.712 0.118 7.11 12.45 7.97
5/22/2022 8:15:00 PM 19.58 67.244 0.119 7.09 11.3 8.04
5/22/2022 8:30:00 PM 19.24 66.632 0.121 7.12 9.74 8.09
5/22/2022 8:45:00 PM 18.97 66.146 0.122 7.1 10.51 8.12
5/22/2022 9:00:00 PM 18.8 65.84 0.121 7.07 11.04 8.13
5/22/2022 9:15:00 PM 18.72 65.696 0.118 7.08 11.14 8.12
5/22/2022 9:30:00 PM 18.69 65.642 0.115 7.04 11.32 8.1
5/22/2022 9:45:00 PM 18.61 65.498 0.113 7.02 11.65 8.09
5/22/2022 10:00:00 PM 18.52 65.336 0.112 7.04 11.49 8.07
5/22/2022 10:15:00 PM 18.43 65.174 0.11 7.03 13.13 8.06
5/22/2022 10:30:00 PM 18.31 64.958 0.11 7.02 16.16 8.05
5/22/2022 10:45:00 PM 18.18 64.724 0.109 6.99 16.71 8.05
5/22/2022 11:00:00 PM 18.07 64.526 0.11 7.01 16.14 8.04
5/22/2022 11:15:00 PM 18 64.4 0.11 7 14.53 8.04
5/22/2022 11:30:00 PM 17.92 64.256 0.11 7 12.37 8.05
5/22/2022 11:45:00 PM 17.84 64.112 0.109 7 10.42 8.07
5/23/2022 12:00:00 AM 17.77 63.986 0.107 6.97 10.07 8.08
5/23/2022 12:15:00 AM 17.66 63.788 0.106 7.01 8.23 8.11
5/23/2022 12:30:00 AM 17.53 63.554 0.106 6.98 8.33 8.14
5/23/2022 12:45:00 AM 17.41 63.338 0.106 7 7.34 8.17
5/23/2022 1:00:00 AM 17.29 63.122 0.106 7.01 7.25 8.19
5/23/2022 1:15:00 AM 17.17 62.906 0.107 7.01 7.78 8.21
5/23/2022 1:30:00 AM 17.03 62.654 0.107 7 8.28 8.23
5/23/2022 1:45:00 AM 16.91 62.438 0.107 6.98 8.77 8.26
5/23/2022 2:00:00 AM 16.8 62.24 0.106 7 8.67 8.29
5/23/2022 2:15:00 AM 16.69 62.042 0.105 6.98 9.15 8.32
5/23/2022 2:30:00 AM 16.55 61.79 0.105 7.01 7.97 8.33
5/23/2022 2:45:00 AM 16.41 61.538 0.104 7.01 7.36 8.36
5/23/2022 3:00:00 AM 16.28 61.304 0.101 6.97 7.85 8.39
5/23/2022 3:15:00 AM 16.18 61.124 0.104 7 6.48 8.41
5/23/2022 3:30:00 AM 16.08 60.944 0.103 6.98 7.02 8.44
5/23/2022 3:45:00 AM 15.96 60.728 0.103 7 6.04 8.46
5/23/2022 4:00:00 AM 15.86 60.548 0.102 7 5.68 8.48
5/23/2022 4:15:00 AM 15.76 60.368 0.101 7 5.46 8.5
5/23/2022 4:30:00 AM 15.66 60.188 0.101 7 5.29 8.52
5/23/2022 4:45:00 AM 15.58 60.044 0.101 7 5.16 8.54
5/23/2022 5:00:00 AM 15.48 59.864 0.101 7 5.19 8.56
5/23/2022 5:15:00 AM 15.37 59.666 0.101 7 4.88 8.59
5/23/2022 5:30:00 AM 15.3 59.54 0.101 6.93 4.94 8.6
5/23/2022 5:45:00 AM 15.22 59.396 0.101 6.99 4.88 8.61
5/23/2022 6:00:00 AM 15.16 59.288 0.102 6.99 4.78 8.63
5/23/2022 6:15:00 AM 15.09 59.162 0.102 7 4.85 8.66
5/23/2022 6:30:00 AM 15.03 59.054 0.102 7 4.73 8.68
5/23/2022 6:45:00 AM 14.97 58.946 0.102 6.97 4.77 8.74
5/23/2022 7:00:00 AM 14.89 58.802 0.102 7.01 4.75 8.79
5/23/2022 7:15:00 AM 14.81 58.658 0.102 7.02 4.65 8.86
5/23/2022 7:30:00 AM 14.75 58.55 0.102 7.02 4.73 8.92
5/23/2022 7:45:00 AM 14.71 58.478 0.102 7.04 4.64 9.02
5/23/2022 8:00:00 AM 14.65 58.37 0.102 7.04 4.7 9.09
5/23/2022 8:15:00 AM 14.64 58.352 0.102 7.06 4.42 9.2
5/23/2022 8:30:00 AM 14.61 58.298 0.102 7.07 4.47 9.27
5/23/2022 8:45:00 AM 14.63 58.334 0.102 7.08 4.23 9.36
5/23/2022 9:00:00 AM 14.66 58.388 0.102 7.1 4.21 9.47
5/23/2022 9:15:00 AM 14.68 58.424 0.102 7.01 4.16 9.54
5/23/2022 9:30:00 AM 14.72 58.496 0.102 7.13 3.98 9.6
5/23/2022 9:45:00 AM 14.85 58.73 0.102 7.14 3.84 9.66
5/23/2022 10:00:00 AM 15.05 59.09 0.102 7.16 3.78 9.72
5/23/2022 10:15:00 AM 15.06 59.108 0.101 7.17 3.78 9.79
5/23/2022 10:30:00 AM 15.39 59.702 0.102 7.19 3.56 9.84
5/23/2022 10:45:00 AM 15.42 59.756 0.101 7.1 3.65 9.87
5/23/2022 11:00:00 AM 15.52 59.936 0.101 7.22 3.52 9.91
5/23/2022 11:15:00 AM 15.72 60.296 0.099 7.2 4.35 9.93
5/23/2022 11:30:00 AM 15.67 60.206 0.101 7.24 3.42 9.95
5/23/2022 11:45:00 AM 15.79 60.422 0.101 7.25 3.72 9.95
5/23/2022 12:00:00 PM 16.05 60.89 0.101 7.2 3.31 9.98
5/23/2022 12:15:00 PM 16.4 61.52 0.101 7.29 3.45 10
5/23/2022 12:30:00 PM 16.36 61.448 0.098 7.27 4.58 10
5/23/2022 12:45:00 PM 16.74 62.132 0.101 7.32 3.18 10.04
5/23/2022 1:00:00 PM 16.78 62.204 0.101 7.31 3.92 10.04
5/23/2022 1:15:00 PM 16.85 62.33 0.099 7.34 4.12 10.04
5/23/2022 1:30:00 PM 17.04 62.672 0.101 7.36 3.19 10.04
5/23/2022 1:45:00 PM 17.12 62.816 0.099 7.34 4.02 10.02
5/23/2022 2:00:00 PM 17.31 63.158 0.102 7.39 3 10.03
5/23/2022 2:15:00 PM 17.4 63.32 0.101 7.31 3.1 10.01
5/23/2022 2:30:00 PM 17.51 63.518 0.101 7.4 4 10
5/23/2022 2:45:00 PM 17.56 63.608 0.101 7.41 3.04 9.96
5/23/2022 3:00:00 PM 17.68 63.824 0.098 7.39 3.88 9.97
5/23/2022 3:15:00 PM 17.75 63.95 0.101 7.42 2.97 9.92
5/23/2022 3:30:00 PM 17.83 64.094 0.1 7.42 3.02 9.91
5/23/2022 3:45:00 PM 17.88 64.184 0.1 7.4 3.99 9.88
5/23/2022 4:00:00 PM 17.89 64.202 0.1 7.42 3.21 9.85
5/23/2022 4:15:00 PM 17.86 64.148 0.1 7.42 3.11 9.79
5/23/2022 4:30:00 PM 17.86 64.148 0.1 7.41 3.07 9.78
5/23/2022 4:45:00 PM 17.83 64.094 0.1 7.41 3.05 9.75
5/23/2022 5:00:00 PM 17.79 64.022 0.1 7.38 3.86 9.7
5/23/2022 5:15:00 PM 17.72 63.896 0.1 7.36 3.98 9.66
5/23/2022 5:30:00 PM 17.68 63.824 0.1 7.39 2.98 9.63
5/23/2022 5:45:00 PM 17.66 63.788 0.1 7.39 2.92 9.62
5/23/2022 6:00:00 PM 17.63 63.734 0.101 7.35 2.9 9.58
5/23/2022 6:15:00 PM 17.58 63.644 0.1 7.33 4.55 9.49
5/23/2022 6:30:00 PM 17.52 63.536 0.1 7.34 2.82 9.41
5/23/2022 6:45:00 PM 17.49 63.482 0.1 7.28 2.89 9.31
5/23/2022 7:00:00 PM 17.45 63.41 0.1 7.24 2.81 9.21
5/23/2022 7:15:00 PM 17.4 63.32 0.101 7.2 2.72 9.12
5/23/2022 7:30:00 PM 17.35 63.23 0.101 7.24 2.76 9.01
5/23/2022 7:45:00 PM 17.3 63.14 0.101 7.12 2.82 8.9
5/23/2022 8:00:00 PM 17.24 63.032 0.101 7.17 2.78 8.8
5/23/2022 8:15:00 PM 17.17 62.906 0.101 7.16 2.8 8.7
5/23/2022 8:30:00 PM 17.09 62.762 0.101 7.14 2.71 8.6
5/23/2022 8:45:00 PM 17.02 62.636 0.101 7.09 3.64 8.53
5/23/2022 9:00:00 PM 16.95 62.51 0.102 7.07 3.65 8.46
5/23/2022 9:15:00 PM 16.87 62.366 0.102 7.06 3.69 8.41
5/23/2022 9:30:00 PM 16.79 62.222 0.102 7.06 2.73 8.37
5/23/2022 9:45:00 PM 16.72 62.096 0.099 7.04 3.66 8.34
5/23/2022 10:00:00 PM 16.64 61.952 0.102 7.02 3.73 8.31
5/23/2022 10:15:00 PM 16.56 61.808 0.102 7.04 2.69 8.28
5/23/2022 10:30:00 PM 16.48 61.664 0.102 6.96 2.79 8.26
5/23/2022 10:45:00 PM 16.4 61.52 0.103 7 2.9 8.24
5/23/2022 11:00:00 PM 16.3 61.34 0.103 6.96 2.89 8.23
5/23/2022 11:15:00 PM 16.22 61.196 0.102 6.95 2.92 8.23
5/23/2022 11:30:00 PM 16.15 61.07 0.103 7.01 2.78 8.22
5/23/2022 11:45:00 PM 16.07 60.926 0.103 7 2.97 8.21
5/24/2022 12:00:00 AM 15.99 60.782 0.103 7 2.8 8.19
5/24/2022 12:15:00 AM 15.89 60.602 0.103 6.99 2.76 8.18
5/24/2022 12:30:00 AM 15.82 60.476 0.103 6.95 2.8 8.17
5/24/2022 12:45:00 AM 15.73 60.314 0.103 6.98 2.66 8.18
5/24/2022 1:00:00 AM 15.67 60.206 0.104 6.97 2.71 8.18
5/24/2022 1:15:00 AM 15.58 60.044 0.104 6.97 2.7 8.18
5/24/2022 1:30:00 AM 15.51 59.918 0.104 6.97 2.79 8.18
5/24/2022 1:45:00 AM 15.44 59.792 0.104 6.96 2.79 8.19
5/24/2022 2:00:00 AM 15.35 59.63 0.104 6.86 2.63 8.2
5/24/2022 2:15:00 AM 15.27 59.486 0.104 6.95 2.69 8.2
5/24/2022 2:30:00 AM 15.19 59.342 0.104 6.95 2.77 8.2
5/24/2022 2:45:00 AM 15.11 59.198 0.104 6.95 2.75 8.21
5/24/2022 3:00:00 AM 15.03 59.054 0.105 6.95 2.63 8.23
5/24/2022 3:15:00 AM 14.96 58.928 0.105 6.85 2.71 8.24
5/24/2022 3:30:00 AM 14.87 58.766 0.105 6.94 2.73 8.26
5/24/2022 3:45:00 AM 14.79 58.622 0.105 6.94 2.55 8.28
5/24/2022 4:00:00 AM 14.71 58.478 0.103 6.93 3.49 8.29
5/24/2022 4:15:00 AM 14.63 58.334 0.102 6.94 3.45 8.3
5/24/2022 4:30:00 AM 14.56 58.208 0.103 6.9 3.58 8.31
5/24/2022 4:45:00 AM 14.49 58.082 0.105 6.94 2.72 8.32
5/24/2022 5:00:00 AM 14.42 57.956 0.105 6.94 2.7 8.33
5/24/2022 5:15:00 AM 14.36 57.848 0.106 6.94 2.6 8.34
5/24/2022 5:30:00 AM 14.28 57.704 0.106 6.94 2.5 8.36
5/24/2022 5:45:00 AM 14.21 57.578 0.106 6.94 2.73 8.38
5/24/2022 6:00:00 AM 14.14 57.452 0.106 6.94 2.68 8.41
5/24/2022 6:15:00 AM 14.09 57.362 0.106 6.94 2.64 8.44
5/24/2022 6:30:00 AM 14.05 57.29 0.106 6.95 2.63 8.51
5/24/2022 6:45:00 AM 14.02 57.236 0.106 6.96 2.72 8.58
5/24/2022 7:00:00 AM 13.98 57.164 0.106 6.97 2.58 8.66
5/24/2022 7:15:00 AM 13.95 57.11 0.106 6.98 2.54 8.76
5/24/2022 7:30:00 AM 13.93 57.074 0.105 6.99 2.7 8.87
5/24/2022 7:45:00 AM 13.95 57.11 0.105 7.01 2.58 8.98
5/24/2022 8:00:00 AM 13.97 57.146 0.105 7.02 2.53 9.1
5/24/2022 8:15:00 AM 14.03 57.254 0.106 7.04 2.67 9.24
5/24/2022 8:30:00 AM 14.1 57.38 0.106 7.05 2.74 9.34
5/24/2022 8:45:00 AM 14.24 57.632 0.106 7.07 2.62 9.45
5/24/2022 9:00:00 AM 14.43 57.974 0.106 7.08 2.57 9.54
5/24/2022 9:15:00 AM 14.42 57.956 0.103 7.07 3.41 9.62
5/24/2022 9:30:00 AM 14.48 58.064 0.106 7.12 2.51 9.72
5/24/2022 9:45:00 AM 14.61 58.298 0.106 7.14 2.44 9.82
5/24/2022 10:00:00 AM 14.76 58.568 0.106 7.16 2.49 9.93
5/24/2022 10:15:00 AM 15.04 59.072 0.105 7.18 2.45 9.99
5/24/2022 10:30:00 AM 14.99 58.982 0.105 7.2 2.47 10.02
5/24/2022 10:45:00 AM 15 59 0.106 7.18 3.43 10.07
5/24/2022 11:00:00 AM 14.99 58.982 0.106 7.22 2.47 10.09
5/24/2022 11:15:00 AM 15.03 59.054 0.106 7.24 2.38 10.11
5/24/2022 11:30:00 AM 15.12 59.216 0.107 7.16 2.44 10.15
5/24/2022 11:45:00 AM 15.18 59.324 0.107 7.22 2.4 10.17
5/24/2022 12:00:00 PM 15.26 59.468 0.107 7.25 3.29 10.2
5/24/2022 12:15:00 PM 15.31 59.558 0.108 7.28 2.37 10.23
5/24/2022 12:30:00 PM 15.39 59.702 0.108 7.29 2.38 10.26
5/24/2022 12:45:00 PM 15.41 59.738 0.108 7.27 3.37 10.26
5/24/2022 1:00:00 PM 15.43 59.774 0.108 7.28 3.32 10.27
5/24/2022 1:15:00 PM 15.54 59.972 0.108 7.32 2.58 10.28
5/24/2022 1:30:00 PM 15.76 60.368 0.109 7.34 2.39 10.32
5/24/2022 1:45:00 PM 16.02 60.836 0.108 7.35 2.31 10.36
5/24/2022 2:00:00 PM 16.32 61.376 0.108 7.35 3.35 10.37
5/24/2022 2:15:00 PM 16.35 61.43 0.107 7.35 3.27 10.39
5/24/2022 2:30:00 PM 16.42 61.556 0.108 7.4 2.56 10.37
5/24/2022 2:45:00 PM 16.32 61.376 0.107 7.39 3.41 10.34
5/24/2022 3:00:00 PM 16.36 61.448 0.107 7.4 2.47 10.3
5/24/2022 3:15:00 PM 16.63 61.934 0.107 7.41 2.63 10.32
5/24/2022 3:30:00 PM 16.81 62.258 0.107 7.43 2.58 10.32
5/24/2022 3:45:00 PM 16.85 62.33 0.108 7.39 3.44 10.27
5/24/2022 4:00:00 PM 16.84 62.312 0.108 7.43 2.65 10.25
5/24/2022 4:15:00 PM 16.75 62.15 0.108 7.34 2.65 10.17
5/24/2022 4:30:00 PM 16.63 61.934 0.108 7.38 2.8 9.98
5/24/2022 4:45:00 PM 16.54 61.772 0.108 7.34 2.65 9.83
5/24/2022 5:00:00 PM 16.45 61.61 0.108 7.3 2.67 9.69
5/24/2022 5:15:00 PM 16.52 61.736 0.109 7.28 3.37 9.69
5/24/2022 5:30:00 PM 16.53 61.754 0.109 7.32 2.62 9.73
5/24/2022 5:45:00 PM 16.49 61.682 0.109 7.32 2.57 9.75
5/24/2022 6:00:00 PM 16.44 61.592 0.108 7.32 2.64 9.73
5/24/2022 6:15:00 PM 16.39 61.502 0.108 7.28 3.31 9.7
5/24/2022 6:30:00 PM 16.33 61.394 0.108 7.27 3.28 9.66
5/24/2022 6:45:00 PM 16.3 61.34 0.108 7.29 2.59 9.63
5/24/2022 7:00:00 PM 16.27 61.286 0.107 7.28 2.54 9.56
5/24/2022 7:15:00 PM 16.23 61.214 0.107 7.23 2.59 9.46
5/24/2022 7:30:00 PM 16.22 61.196 0.107 7.21 2.61 9.34
5/24/2022 7:45:00 PM 16.2 61.16 0.109 7.18 3.4 9.19
5/24/2022 8:00:00 PM 16.16 61.088 0.109 7.17 2.54 9.02
5/24/2022 8:15:00 PM 16.14 61.052 0.108 7.11 3.33 8.87
5/24/2022 8:30:00 PM 16.09 60.962 0.109 7.1 3.45 8.73
5/24/2022 8:45:00 PM 16.04 60.872 0.109 7.11 2.7 8.59
5/24/2022 9:00:00 PM 15.97 60.746 0.109 7.05 3.36 8.47
5/24/2022 9:15:00 PM 15.9 60.62 0.109 7.06 2.8 8.36
5/24/2022 9:30:00 PM 15.83 60.494 0.109 7.05 2.66 8.3
5/24/2022 9:45:00 PM 15.73 60.314 0.11 7.02 2.62 8.22
5/24/2022 10:00:00 PM 15.64 60.152 0.109 7 3.51 8.23
5/24/2022 10:15:00 PM 15.58 60.044 0.109 7.02 2.65 8.18
5/24/2022 10:30:00 PM 15.57 60.026 0.109 7.01 2.54 8.16
5/24/2022 10:45:00 PM 15.53 59.954 0.109 7 2.64 8.11
5/24/2022 11:00:00 PM 15.45 59.81 0.109 6.99 2.64 8.1
5/24/2022 11:15:00 PM 15.39 59.702 0.109 6.99 2.76 8.07
5/24/2022 11:30:00 PM 15.27 59.486 0.109 6.98 2.72 8.08
5/24/2022 11:45:00 PM 15.18 59.324 0.109 6.98 2.67 8.11
5/25/2022 12:00:00 AM 15.19 59.342 0.109 6.95 2.69 8.05
5/25/2022 12:15:00 AM 15.17 59.306 0.109 6.96 2.71 8.03
5/25/2022 12:30:00 AM 15.14 59.252 0.108 6.96 2.77 8
5/25/2022 12:45:00 AM 15.11 59.198 0.109 6.93 3.51 7.99
5/25/2022 1:00:00 AM 15.07 59.126 0.109 6.95 2.82 7.97
5/25/2022 1:15:00 AM 15.01 59.018 0.109 6.95 2.69 7.96
5/25/2022 1:30:00 AM 14.96 58.928 0.109 6.9 3.47 7.96
5/25/2022 1:45:00 AM 14.91 58.838 0.109 6.94 2.75 7.96
5/25/2022 2:00:00 AM 14.9 58.82 0.109 6.93 2.67 7.93
5/25/2022 2:15:00 AM 14.88 58.784 0.11 6.9 3.55 7.91
5/25/2022 2:30:00 AM 14.84 58.712 0.109 6.93 2.6 7.93
5/25/2022 2:45:00 AM 14.79 58.622 0.11 6.92 2.66 7.9
5/25/2022 3:00:00 AM 14.77 58.586 0.109 6.92 2.67 7.89
5/25/2022 3:15:00 AM 14.74 58.532 0.109 6.92 2.81 7.89
5/25/2022 3:30:00 AM 14.69 58.442 0.109 6.92 2.91 7.89
5/25/2022 3:45:00 AM 14.66 58.388 0.11 6.91 2.76 7.89
5/25/2022 4:00:00 AM 14.64 58.352 0.11 6.91 2.68 7.88
5/25/2022 4:15:00 AM 14.6 58.28 0.11 6.9 2.64 7.88
5/25/2022 4:30:00 AM 14.56 58.208 0.111 6.91 2.65 7.89
5/25/2022 4:45:00 AM 14.54 58.172 0.111 6.9 2.59 7.88
5/25/2022 5:00:00 AM 14.51 58.118 0.112 6.9 2.67 7.88
5/25/2022 5:15:00 AM 14.48 58.064 0.111 6.9 2.73 7.9
5/25/2022 5:30:00 AM 14.44 57.992 0.111 6.89 2.82 7.9
5/25/2022 5:45:00 AM 14.41 57.938 0.111 6.9 2.79 7.92
5/25/2022 6:00:00 AM 14.39 57.902 0.111 6.86 3.59 7.93
5/25/2022 6:15:00 AM 14.36 57.848 0.111 6.85 3.46 7.95
5/25/2022 6:30:00 AM 14.33 57.794 0.111 6.9 2.78 8
5/25/2022 6:45:00 AM 14.32 57.776 0.111 6.9 2.74 8.06
5/25/2022 7:00:00 AM 14.32 57.776 0.111 6.91 2.69 8.15
5/25/2022 7:15:00 AM 14.33 57.794 0.111 6.92 2.71 8.24
5/25/2022 7:30:00 AM 14.34 57.812 0.111 6.93 2.63 8.37
5/25/2022 7:45:00 AM 14.35 57.83 0.111 6.94 2.65 8.48
5/25/2022 8:00:00 AM 14.39 57.902 0.111 6.95 2.7 8.64
5/25/2022 8:15:00 AM 14.52 58.136 0.112 6.95 3.6 8.84
5/25/2022 8:30:00 AM 14.63 58.334 0.112 7 2.68 9.08
5/25/2022 8:45:00 AM 14.7 58.46 0.113 7.03 2.91 9.25
5/25/2022 9:00:00 AM 14.83 58.694 0.113 7.05 2.85 9.4
5/25/2022 9:15:00 AM 14.93 58.874 0.113 7.07 2.72 9.54
5/25/2022 9:30:00 AM 15.04 59.072 0.112 7.05 3.56 9.63
5/25/2022 9:45:00 AM 15.22 59.396 0.111 7.12 2.79 9.78
5/25/2022 10:00:00 AM 15.42 59.756 0.112 7.1 2.79 9.86
5/25/2022 10:15:00 AM 15.76 60.368 0.112 7.16 2.71 9.96
5/25/2022 10:30:00 AM 16.15 61.07 0.113 7.17 2.76 10.04
5/25/2022 10:45:00 AM 16.62 61.916 0.113 7.19 2.66 10.1
5/25/2022 11:00:00 AM 16.85 62.33 0.113 7.2 2.74 10.11
5/25/2022 11:15:00 AM 17.03 62.654 0.116 7.19 3.35 10.16
5/25/2022 11:30:00 AM 17.21 62.978 0.114 7.22 3.4 10.18
5/25/2022 11:45:00 AM 17.31 63.158 0.113 7.23 3.7 10.2
5/25/2022 12:00:00 PM 17.59 63.662 0.113 7.25 2.52 10.23
5/25/2022 12:15:00 PM 17.57 63.626 0.113 7.25 3.34 10.21
5/25/2022 12:30:00 PM 18.22 64.796 0.115 7.29 2.42 10.22
5/25/2022 12:45:00 PM 18.48 65.264 0.113 7.28 3.34 10.29
5/25/2022 1:00:00 PM 18.34 65.012 0.11 7.32 2.38 10.26
5/25/2022 1:15:00 PM 18.29 64.922 0.114 7.35 2.35 10.19
5/25/2022 1:30:00 PM 18.24 64.832 0.111 7.34 2.43 10.2
5/25/2022 1:45:00 PM 18.55 65.39 0.113 7.37 2.34 10.24
5/25/2022 2:00:00 PM 18.6 65.48 0.112 7.33 3.19 10.24
5/25/2022 2:15:00 PM 18.47 65.246 0.111 7.33 3.36 10.1
5/25/2022 2:30:00 PM 18.38 65.084 0.113 7.38 2.35 10.09
5/25/2022 2:45:00 PM 18.12 64.616 0.111 7.35 2.31 9.96
5/25/2022 3:00:00 PM 17.96 64.328 0.111 7.31 3.05 9.85
5/25/2022 3:15:00 PM 17.9 64.22 0.112 7.25 3.18 9.62
5/25/2022 3:30:00 PM 18.03 64.454 0.11 7.25 3.48 9.61
5/25/2022 3:45:00 PM 18.29 64.922 0.111 7.29 2.43 9.58
5/25/2022 4:00:00 PM 18.64 65.552 0.111 7.27 2.49 9.59
5/25/2022 4:15:00 PM 18.86 65.948 0.111 7.28 3.45 9.51
5/25/2022 4:30:00 PM 18.89 66.002 0.111 7.3 2.49 9.45
5/25/2022 4:45:00 PM 19.08 66.344 0.112 7.32 2.48 9.45
5/25/2022 5:00:00 PM 19.08 66.344 0.111 7.3 2.39 9.34
5/25/2022 5:15:00 PM 18.93 66.074 0.111 7.3 2.52 9.28
5/25/2022 5:30:00 PM 18.94 66.092 0.11 7.21 2.4 9.23
5/25/2022 5:45:00 PM 18.87 65.966 0.11 7.28 3.26 9.23
5/25/2022 6:00:00 PM 18.71 65.67799 0.111 7.28 3.33 9.14
5/25/2022 6:15:00 PM 18.56 65.408 0.111 7.26 3.23 9.07
5/25/2022 6:30:00 PM 18.37 65.066 0.111 7.24 3.32 8.95
5/25/2022 6:45:00 PM 18.24 64.832 0.111 7.19 3.19 8.84
5/25/2022 7:00:00 PM 18.1 64.58 0.111 7.2 2.2 8.72
5/25/2022 7:15:00 PM 17.98 64.364 0.111 7.18 2.13 8.59
5/25/2022 7:30:00 PM 17.92 64.256 0.111 7.16 2.24 8.48
5/25/2022 7:45:00 PM 17.86 64.148 0.111 7.1 3.07 8.35
5/25/2022 8:00:00 PM 17.77 63.986 0.112 7.11 2.35 8.22
5/25/2022 8:15:00 PM 17.7 63.86 0.111 7.07 2.49 8.04
5/25/2022 8:30:00 PM 17.59 63.662 0.112 7.06 2.45 7.89
5/25/2022 8:45:00 PM 17.5 63.5 0.112 7 3.34 7.72
5/25/2022 9:00:00 PM 17.44 63.392 0.112 6.88 3.31 7.58
5/25/2022 9:15:00 PM 17.38 63.284 0.112 6.98 2.4 7.47
5/25/2022 9:30:00 PM 17.3 63.14 0.112 7 2.41 7.42
5/25/2022 9:45:00 PM 17.25 63.05 0.112 6.98 2.4 7.35
5/25/2022 10:00:00 PM 17.17 62.906 0.112 6.97 2.45 7.3
5/25/2022 10:15:00 PM 17.12 62.816 0.112 6.93 3.22 7.25
5/25/2022 10:30:00 PM 17.05 62.69 0.112 6.95 2.33 7.19
5/25/2022 10:45:00 PM 16.99 62.582 0.112 6.95 2.37 7.18
5/25/2022 11:00:00 PM 16.99 62.582 0.113 6.91 2.31 7.1
5/25/2022 11:15:00 PM 16.93 62.474 0.112 6.91 3.2 7.12
5/25/2022 11:30:00 PM 16.84 62.312 0.112 6.93 2.31 7.08
5/25/2022 11:45:00 PM 16.79 62.222 0.112 6.93 2.35 7.1
5/26/2022 12:00:00 AM 16.7 62.06 0.112 6.91 2.39 7.07
5/26/2022 12:15:00 AM 16.59 61.862 0.113 6.93 2.37 7.13
5/26/2022 12:30:00 AM 16.57 61.826 0.112 6.92 2.35 7.11
5/26/2022 12:45:00 AM 16.54 61.772 0.112 6.92 2.36 7.08
5/26/2022 1:00:00 AM 16.48 61.664 0.112 6.91 2.43 7.08
5/26/2022 1:15:00 AM 16.44 61.592 0.112 6.91 2.42 7.02
5/26/2022 1:30:00 AM 16.42 61.556 0.112 6.87 2.52 6.94
5/26/2022 1:45:00 AM 16.34 61.412 0.112 6.87 3.3 6.98
5/26/2022 2:00:00 AM 16.3 61.34 0.113 6.88 3.29 6.95
5/26/2022 2:15:00 AM 16.21 61.178 0.112 6.89 2.46 6.98
5/26/2022 2:30:00 AM 16.13 61.034 0.112 6.89 2.5 6.97
5/26/2022 2:45:00 AM 16.08 60.944 0.112 6.89 2.47 6.98
5/26/2022 3:00:00 AM 15.98 60.764 0.112 6.9 2.48 7.03
5/26/2022 3:15:00 AM 15.96 60.728 0.112 6.86 3.33 7.01
5/26/2022 3:30:00 AM 15.87 60.566 0.112 6.86 3.33 7
5/26/2022 3:45:00 AM 15.75 60.35 0.112 6.88 2.39 7.01
5/26/2022 4:00:00 AM 15.67 60.206 0.112 6.85 3.38 7.06
5/26/2022 4:15:00 AM 15.66 60.188 0.112 6.84 3.33 6.98
5/26/2022 4:30:00 AM 15.51 59.918 0.112 6.88 2.51 7.03
5/26/2022 4:45:00 AM 15.48 59.864 0.112 6.8 2.52 6.92
5/26/2022 5:00:00 AM 15.44 59.792 0.112 6.84 3.36 6.98
5/26/2022 5:15:00 AM 15.37 59.666 0.112 6.87 2.7 6.96
5/26/2022 5:30:00 AM 15.32 59.576 0.113 6.85 2.66 6.89
5/26/2022 5:45:00 AM 15.24 59.432 0.112 6.86 2.68 6.95
5/26/2022 6:00:00 AM 15.14 59.252 0.113 6.87 2.67 7.07
5/26/2022 6:15:00 AM 15.18 59.324 0.112 6.84 2.48 7.06
5/26/2022 6:30:00 AM 15.18 59.324 0.112 6.87 2.57 7.1
5/26/2022 6:45:00 AM 15.03 59.054 0.113 6.87 2.58 7.23
5/26/2022 7:00:00 AM 14.96 58.928 0.113 6.89 2.56 7.36
5/26/2022 7:15:00 AM 14.92 58.856 0.112 6.9 2.56 7.48
5/26/2022 7:30:00 AM 14.88 58.784 0.113 6.84 2.64 7.63
5/26/2022 7:45:00 AM 14.86 58.748 0.113 6.93 2.51 7.79
5/26/2022 8:00:00 AM 14.86 58.748 0.114 6.95 2.51 8.09
5/26/2022 8:15:00 AM 14.86 58.748 0.114 6.94 3.29 8.3
5/26/2022 8:30:00 AM 14.93 58.874 0.115 6.99 2.48 8.45
5/26/2022 8:45:00 AM 15.16 59.288 0.115 7 2.57 8.61
5/26/2022 9:00:00 AM 15.52 59.936 0.116 7.02 2.61 8.83
5/26/2022 9:15:00 AM 16.01 60.818 0.118 7.04 2.37 9
5/26/2022 9:30:00 AM 16.34 61.412 0.119 7.08 2.49 9.23
5/26/2022 9:45:00 AM 16.46 61.628 0.116 7.09 2.47 9.32
5/26/2022 10:00:00 AM 16.67 62.006 0.116 7.11 2.5 9.39
5/26/2022 10:15:00 AM 16.88 62.384 0.116 7.08 2.67 9.42
5/26/2022 10:30:00 AM 17.14 62.852 0.117 7.14 2.49 9.55
5/26/2022 10:45:00 AM 17.6 63.68 0.115 7.14 3.46 9.7
5/26/2022 11:00:00 AM 18.08 64.544 0.115 7.19 2.54 9.75
5/26/2022 11:15:00 AM 18.47 65.246 0.114 7.22 2.43 9.75
5/26/2022 11:30:00 AM 18.82 65.876 0.113 7.21 3.32 9.87
5/26/2022 11:45:00 AM 19.12 66.416 0.111 7.23 2.44 9.86
5/26/2022 12:00:00 PM 19.51 67.118 0.112 7.28 2.33 9.99
5/26/2022 12:15:00 PM 19.61 67.298 0.112 7.26 3.42 9.96
5/26/2022 12:30:00 PM 19.98 67.964 0.112 7.33 2.4 9.98
5/26/2022 12:45:00 PM 20.15 68.27 0.112 7.37 2.23 9.88
5/26/2022 1:00:00 PM 20.33 68.594 0.11 7.34 2.17 9.88
5/26/2022 1:15:00 PM 20.18 68.324 0.112 7.3 3.18 9.99
5/26/2022 1:30:00 PM 20.41 68.738 0.111 7.36 2.25 9.99
5/26/2022 1:45:00 PM 20.49 68.882 0.112 7.39 2.13 9.96
5/26/2022 2:00:00 PM 20.17 68.306 0.11 7.36 2.31 9.92
5/26/2022 2:15:00 PM 19.71 67.478 0.111 7.35 2.23 9.83
5/26/2022 2:30:00 PM 19.57 67.226 0.112 7.37 2.14 9.86
5/26/2022 2:45:00 PM 19.48 67.064 0.112 7.42 2.13 9.85
5/26/2022 3:00:00 PM 19.36 66.848 0.111 7.41 1.99 9.71
5/26/2022 3:15:00 PM 19.39 66.902 0.112 7.44 2.12 9.78
5/26/2022 3:30:00 PM 19.47 67.046 0.113 7.43 3.04 9.75
5/26/2022 3:45:00 PM 19.53 67.154 0.112 7.47 2.11 9.77
5/26/2022 4:00:00 PM 20.1 68.18 0.112 7.56 3.03 9.92
5/26/2022 4:15:00 PM 20.4 68.72 0.112 7.62 2.07 9.87
5/26/2022 4:30:00 PM 20.52 68.936 0.112 7.61 2.07 9.79
5/26/2022 4:45:00 PM 20.67 69.206 0.113 7.59 2 9.76
5/26/2022 5:00:00 PM 20.32 68.576 0.112 7.52 3.14 9.6
5/26/2022 5:15:00 PM 19.98 67.964 0.113 7.47 2.04 9.36
5/26/2022 5:30:00 PM 19.63 67.334 0.112 7.4 2.16 9.24
5/26/2022 5:45:00 PM 19.41 66.938 0.111 7.36 2.11 9.07
5/26/2022 6:00:00 PM 19.26 66.668 0.111 7.3 2.17 8.9
5/26/2022 6:15:00 PM 19.15 66.47 0.111 7.26 2.19 8.71
5/26/2022 6:30:00 PM 19.05 66.29 0.111 7.25 2.16 8.56
5/26/2022 6:45:00 PM 18.9 66.02 0.112 7.2 2.19 8.3
5/26/2022 7:00:00 PM 18.76 65.768 0.112 7.17 2.12 8.1
5/26/2022 7:15:00 PM 18.68 65.624 0.112 7.07 3.02 7.81
5/26/2022 7:30:00 PM 18.58 65.444 0.112 7.09 2.07 7.75
5/26/2022 7:45:00 PM 18.46 65.228 0.113 7.04 2.46 7.45
5/26/2022 8:00:00 PM 18.4 65.12 0.113 7.03 2.07 7.34
5/26/2022 8:15:00 PM 18.35 65.03 0.113 7.01 6.6 7.39
5/26/2022 8:30:00 PM 18.3 64.94 0.113 7.01 2.24 7.24
5/26/2022 8:45:00 PM 18.29 64.922 0.113 7.01 2.13 7.2
5/26/2022 9:00:00 PM 18.28 64.904 0.113 6.99 2.44 7.05
5/26/2022 9:15:00 PM 18.25 64.85 0.113 6.98 2.31 7.03
5/26/2022 9:30:00 PM 18.21 64.778 0.114 6.96 2.33 6.88
5/26/2022 9:45:00 PM 18.16 64.688 0.114 6.96 2.19 6.84
5/26/2022 10:00:00 PM 18.1 64.58 0.114 6.92 3.17 6.78
5/26/2022 10:15:00 PM 18.1 64.58 0.114 6.9 3.35 6.66
5/26/2022 10:30:00 PM 18.08 64.544 0.114 6.94 2.16 6.72
5/26/2022 10:45:00 PM 18.05 64.49 0.114 6.89 3.17 6.62
5/26/2022 11:00:00 PM 18.03 64.454 0.114 6.88 2.24 6.49
5/26/2022 11:15:00 PM 18.02 64.436 0.114 6.91 2.22 6.53
5/26/2022 11:30:00 PM 18 64.4 0.115 6.87 3.08 6.52
5/26/2022 11:45:00 PM 17.98 64.364 0.114 6.87 3.19 6.57
5/27/2022 12:00:00 AM 17.93 64.274 0.115 6.9 2.23 6.48
5/27/2022 12:15:00 AM 17.89 64.202 0.115 6.84 3.5 6.34
5/27/2022 12:30:00 AM 17.83 64.094 0.115 6.89 2.3 6.47
5/27/2022 12:45:00 AM 17.82 64.076 0.116 6.89 3.13 6.47
5/27/2022 1:00:00 AM 17.77 63.986 0.117 6.85 2.29 6.16
5/27/2022 1:15:00 AM 17.67 63.806 0.116 6.88 2.24 6.4
5/27/2022 1:30:00 AM 17.6 63.68 0.116 6.87 2.37 6.32
5/27/2022 1:45:00 AM 17.53 63.554 0.116 6.84 2.36 6.13
5/27/2022 2:00:00 AM 17.51 63.518 0.116 6.84 2.42 6.08
5/27/2022 2:15:00 AM 17.5 63.5 0.117 6.84 2.38 6.05
5/27/2022 2:30:00 AM 17.5 63.5 0.117 6.81 3.27 6.21
5/27/2022 2:45:00 AM 17.48 63.464 0.116 6.86 2.4 6.34
5/27/2022 3:00:00 AM 17.45 63.41 0.116 6.82 2.38 6.21
5/27/2022 3:15:00 AM 17.44 63.392 0.116 6.83 2.72 6.07
5/27/2022 3:30:00 AM 17.43 63.374 0.116 6.69 3.27 6.03
5/27/2022 3:45:00 AM 17.41 63.338 0.117 6.8 3.27 6.06
5/27/2022 4:00:00 AM 17.4 63.32 0.117 6.8 3.19 6.06
5/27/2022 4:15:00 AM 17.42 63.356 0.116 6.8 3.2 6.17
5/27/2022 4:30:00 AM 17.41 63.338 0.116 6.8 3.07 6.15
5/27/2022 4:45:00 AM 17.38 63.284 0.117 6.82 2.42 6.1
5/27/2022 5:00:00 AM 17.33 63.194 0.117 6.82 2.33 6.06
5/27/2022 5:15:00 AM 17.28 63.104 0.117 6.8 3.34 6.16
5/27/2022 5:30:00 AM 17.25 63.05 0.117 6.81 2.53 5.97
5/27/2022 5:45:00 AM 17.24 63.032 0.117 6.78 2.48 5.77
5/27/2022 6:00:00 AM 17.23 63.014 0.117 6.75 3.41 5.73
5/27/2022 6:15:00 AM 17.22 62.996 0.117 6.77 3.38 5.92
5/27/2022 6:30:00 AM 17.21 62.978 0.117 6.78 3.41 5.97
5/27/2022 6:45:00 AM 17.23 63.014 0.117 6.78 3.37 6.06
5/27/2022 7:00:00 AM 17.26 63.068 0.117 6.81 2.41 6.06
5/27/2022 7:15:00 AM 17.26 63.068 0.117 6.78 3.28 6.1
5/27/2022 7:30:00 AM 17.28 63.104 0.118 6.83 2.36 6.28
5/27/2022 7:45:00 AM 17.34 63.212 0.119 6.84 2.42 6.42
5/27/2022 8:00:00 AM 17.39 63.302 0.12 6.79 2.48 6.58
5/27/2022 8:15:00 AM 17.4 63.32 0.119 6.84 3.21 6.69
5/27/2022 8:30:00 AM 17.49 63.482 0.119 6.89 2.41 6.95
5/27/2022 8:45:00 AM 17.62 63.716 0.118 6.89 3.23 7.28
5/27/2022 9:00:00 AM 17.69 63.842 0.119 6.93 2.37 7.41
5/27/2022 9:15:00 AM 17.66 63.788 0.119 6.9 3.24 7.57
5/27/2022 9:30:00 AM 17.67 63.806 0.12 6.93 2.42 7.55
5/27/2022 9:45:00 AM 17.65 63.77 0.119 6.93 2.52 7.54
5/27/2022 10:00:00 AM 17.63 63.734 0.119 6.91 2.52 7.49
5/27/2022 10:15:00 AM 17.66 63.788 0.119 6.93 2.54 7.63
5/27/2022 10:30:00 AM 17.78 64.004 0.119 6.93 3.3 7.83
5/27/2022 10:45:00 AM 17.85 64.13 0.12 6.94 2.67 7.8
5/27/2022 11:00:00 AM 17.93 64.274 0.121 6.98 2.65 8.13
5/27/2022 11:15:00 AM 17.92 64.256 0.122 6.96 3.4 8.21
5/27/2022 11:30:00 AM 17.99 64.382 0.122 7.01 2.65 8.31
5/27/2022 11:45:00 AM 18.05 64.49 0.122 7.03 2.59 8.38
5/27/2022 12:00:00 PM 18.19 64.742 0.123 7.04 2.48 8.51
5/27/2022 12:15:00 PM 18.18 64.724 0.123 7.01 3.39 8.55
5/27/2022 12:30:00 PM 18.24 64.832 0.121 7.07 2.48 8.69
5/27/2022 12:45:00 PM 18.53 65.354 0.122 7.09 2.46 8.85
5/27/2022 1:00:00 PM 18.99 66.182 0.125 7.16 3.2 9.22
5/27/2022 1:15:00 PM 19.04 66.272 0.124 7.16 2.45 9.24
5/27/2022 1:30:00 PM 18.72 65.696 0.12 7.13 2.38 9.07
5/27/2022 1:45:00 PM 18.49 65.282 0.12 7.12 2.41 8.96
5/27/2022 2:00:00 PM 18.67 65.606 0.12 7.15 2.45 9.06
5/27/2022 2:15:00 PM 19.01 66.218 0.123 7.17 2.21 9
5/27/2022 2:30:00 PM 19.03 66.254 0.122 7.18 2.27 9.15
5/27/2022 2:45:00 PM 18.89 66.002 0.122 7.19 2.32 9.17
5/27/2022 3:00:00 PM 18.69 65.642 0.123 7.17 2.33 9.06
5/27/2022 3:15:00 PM 18.61 65.498 0.122 7.15 3.14 9
5/27/2022 3:30:00 PM 18.49 65.282 0.12 7.14 2.66 8.92
5/27/2022 3:45:00 PM 18.39 65.102 0.12 7.19 3.39 8.85
5/27/2022 4:00:00 PM 18.31 64.958 0.127 7.13 4.05 8.57
5/27/2022 4:15:00 PM 18.34 65.012 0.128 7.1 3.44 8.42
5/27/2022 4:30:00 PM 18.42 65.156 0.129 7.07 3.05 8.27
5/27/2022 4:45:00 PM 18.51 65.318 0.129 7.06 2.5 8.25
5/27/2022 5:00:00 PM 18.6 65.48 0.131 7.08 2.2 8.42
5/27/2022 5:15:00 PM 18.69 65.642 0.131 7.09 2.27 8.57
5/27/2022 5:30:00 PM 18.75 65.75 0.13 7.12 2.31 8.72
5/27/2022 5:45:00 PM 18.78 65.804 0.129 7.15 2.23 8.85
5/27/2022 6:00:00 PM 18.76 65.768 0.129 7.14 2.1 8.86
5/27/2022 6:15:00 PM 18.76 65.768 0.128 7.15 2.14 8.81
5/27/2022 6:30:00 PM 18.73 65.714 0.128 7.15 2.16 8.82
5/27/2022 6:45:00 PM 18.58 65.444 0.127 7.13 2.18 8.64
5/27/2022 7:00:00 PM 18.41 65.138 0.122 7.11 2.19 8.65
5/27/2022 7:15:00 PM 18.3 64.94 0.123 7.11 2.29 8.61
5/27/2022 7:30:00 PM 18.22 64.796 0.131 7.07 2.19 8.47
5/27/2022 7:45:00 PM 18.12 64.616 0.127 7.05 2.11 8.27
5/27/2022 8:00:00 PM 17.99 64.382 0.125 7.03 2.2 8.11
5/27/2022 8:15:00 PM 17.89 64.202 0.124 7 2.2 7.9
5/27/2022 8:30:00 PM 17.76 63.968 0.126 6.99 2.27 7.7
5/27/2022 8:45:00 PM 17.65 63.77 0.128 6.93 3.18 7.51
5/27/2022 9:00:00 PM 17.57 63.626 0.13 6.94 2.65 7.26
5/27/2022 9:15:00 PM 17.46 63.428 0.131 6.88 3.59 7.06
5/27/2022 9:30:00 PM 17.36 63.248 0.132 6.87 3.21 6.84
5/27/2022 9:45:00 PM 17.22 62.996 0.131 6.88 2.41 6.64
5/27/2022 10:00:00 PM 17.11 62.798 0.128 6.88 2.59 6.58
5/27/2022 10:15:00 PM 17.01 62.618 0.124 6.84 3.49 6.53
5/27/2022 10:30:00 PM 16.95 62.51 0.123 6.87 2.5 6.47
5/27/2022 10:45:00 PM 16.89 62.402 0.123 6.86 2.55 6.39
5/27/2022 11:00:00 PM 16.79 62.222 0.123 6.86 2.81 6.38
5/27/2022 11:15:00 PM 16.77 62.186 0.123 6.85 2.54 6.38
5/27/2022 11:30:00 PM 16.75 62.15 0.123 6.84 2.49 6.29
5/27/2022 11:45:00 PM 16.7 62.06 0.123 6.84 2.42 6.25
5/28/2022 12:00:00 AM 16.71 62.078 0.121 6.84 2.47 6.31
5/28/2022 12:15:00 AM 16.7 62.06 0.122 6.83 2.44 6.26
5/28/2022 12:30:00 AM 16.7 62.06 0.123 6.82 2.42 6.19
5/28/2022 12:45:00 AM 16.69 62.042 0.125 6.74 2.53 6.12
5/28/2022 1:00:00 AM 16.65 61.97 0.125 6.8 2.43 6.06
5/28/2022 1:15:00 AM 16.62 61.916 0.124 6.77 3.18 6.07
5/28/2022 1:30:00 AM 16.55 61.79 0.124 6.81 2.38 6.09
5/28/2022 1:45:00 AM 16.5 61.7 0.122 6.81 2.33 6.2
5/28/2022 2:00:00 AM 16.49 61.682 0.122 6.81 2.3 6.2
5/28/2022 2:15:00 AM 16.42 61.556 0.123 6.81 2.32 6.15
5/28/2022 2:30:00 AM 16.32 61.376 0.123 6.81 2.32 6.18
5/28/2022 2:45:00 AM 16.25 61.25 0.122 6.78 3.1 6.23
5/28/2022 3:00:00 AM 16.16 61.088 0.122 6.81 2.33 6.21
5/28/2022 3:15:00 AM 16.16 61.088 0.122 6.81 2.38 6.24
5/28/2022 3:30:00 AM 16.16 61.088 0.122 6.81 2.34 6.32
5/28/2022 3:45:00 AM 16.17 61.106 0.123 6.8 2.64 6.19
5/28/2022 4:00:00 AM 16.18 61.124 0.123 6.79 2.59 6.13
5/28/2022 4:15:00 AM 16.14 61.052 0.122 6.8 2.42 6.22
5/28/2022 4:30:00 AM 16.1 60.98 0.123 6.76 3.82 6.13
5/28/2022 4:45:00 AM 16.07 60.926 0.123 6.79 2.58 6.05
5/28/2022 5:00:00 AM 16.06 60.908 0.123 6.78 2.96 6.02
5/28/2022 5:15:00 AM 16.03 60.854 0.123 6.79 2.84 6.09
5/28/2022 5:30:00 AM 16 60.8 0.124 6.75 3.34 6.03
5/28/2022 5:45:00 AM 15.94 60.692 0.129 6.77 2.56 6
5/28/2022 6:00:00 AM 15.92 60.656 0.128 6.77 3.35 6.02
5/28/2022 6:15:00 AM 15.89 60.602 0.126 6.78 2.59 6.05
5/28/2022 6:30:00 AM 15.9 60.62 0.124 6.75 3.34 6.13
5/28/2022 6:45:00 AM 15.93 60.674 0.125 6.78 2.59 6.2
5/28/2022 7:00:00 AM 15.96 60.728 0.129 6.79 2.55 6.4
5/28/2022 7:15:00 AM 16.01 60.818 0.129 6.81 2.69 6.62
5/28/2022 7:30:00 AM 16.06 60.908 0.129 6.82 2.46 6.8
5/28/2022 7:45:00 AM 16.15 61.07 0.129 6.84 2.51 7
5/28/2022 8:00:00 AM 16.23 61.214 0.127 6.86 2.57 7.24
5/28/2022 8:15:00 AM 16.28 61.304 0.126 6.88 2.57 7.5
5/28/2022 8:30:00 AM 16.34 61.412 0.125 6.87 3.34 7.78
5/28/2022 8:45:00 AM 16.47 61.646 0.127 6.92 2.58 7.98
5/28/2022 9:00:00 AM 16.63 61.934 0.127 6.92 3.3 8.2
5/28/2022 9:15:00 AM 16.8 62.24 0.132 6.95 2.56 8.4
5/28/2022 9:30:00 AM 16.9 62.42 0.132 6.93 3.41 8.56
5/28/2022 9:45:00 AM 17.09 62.762 0.133 6.96 3.37 8.81
5/28/2022 10:00:00 AM 17.38 63.284 0.133 7 3.37 9.1
5/28/2022 10:15:00 AM 17.63 63.734 0.137 7 2.47 9.23
5/28/2022 10:30:00 AM 17.77 63.986 0.136 7.04 2.53 9.32
5/28/2022 10:45:00 AM 17.97 64.346 0.132 7.07 2.67 9.46
5/28/2022 11:00:00 AM 18.16 64.688 0.129 7.09 2.63 9.53
5/28/2022 11:15:00 AM 18.08 64.544 0.127 7.08 2.66 9.41
5/28/2022 11:30:00 AM 17.81 64.058 0.122 7.07 2.62 9.3
5/28/2022 11:45:00 AM 17.99 64.382 0.124 7.11 2.67 9.34
5/28/2022 12:00:00 PM 18.03 64.454 0.124 7.13 2.6 9.31
5/28/2022 12:15:00 PM 18.22 64.796 0.126 7.15 2.59 9.53
5/28/2022 12:30:00 PM 18.16 64.688 0.126 7.17 2.41 9.49
5/28/2022 12:45:00 PM 18.28 64.904 0.122 7.18 2.39 9.69
5/28/2022 1:00:00 PM 18.5 65.3 0.123 7.18 2.45 9.6
5/28/2022 1:15:00 PM 18.72 65.696 0.125 7.17 3.24 9.66
5/28/2022 1:30:00 PM 18.84 65.912 0.128 7.21 3.31 9.72
5/28/2022 1:45:00 PM 18.79 65.82201 0.125 7.2 2.44 9.68
5/28/2022 2:00:00 PM 18.69 65.642 0.122 7.21 2.55 9.69
5/28/2022 2:15:00 PM 18.5 65.3 0.124 7.16 3.16 9.57
5/28/2022 2:30:00 PM 18.55 65.39 0.123 7.24 2.28 9.65
5/28/2022 2:45:00 PM 18.45 65.21 0.123 7.22 2.36 9.62
5/28/2022 3:00:00 PM 18.39 65.102 0.121 7.23 2.25 9.6
5/28/2022 3:15:00 PM 18.37 65.066 0.122 7.2 3.03 9.55
5/28/2022 3:30:00 PM 18.17 64.706 0.12 7.21 2.33 9.42
5/28/2022 3:45:00 PM 18.13 64.634 0.12 7.21 2.26 9.34
5/28/2022 4:00:00 PM 18.08 64.544 0.121 7.17 2.28 9.14
5/28/2022 4:15:00 PM 18.28 64.904 0.122 7.3 2.18 9.29
5/28/2022 4:30:00 PM 18.42 65.156 0.125 7.2 2.2 9.32
5/28/2022 4:45:00 PM 18.43 65.174 0.123 7.31 3.12 9.44
5/28/2022 5:00:00 PM 18.45 65.21 0.124 7.26 2.23 9.41
5/28/2022 5:15:00 PM 18.41 65.138 0.123 7.22 2.75 9.36
5/28/2022 5:30:00 PM 18.26 64.868 0.121 7.21 2.26 9.27
5/28/2022 5:45:00 PM 18.1 64.58 0.121 7.19 2.35 9.19
5/28/2022 6:00:00 PM 17.97 64.346 0.12 7.18 2.4 9.05
5/28/2022 6:15:00 PM 17.9 64.22 0.119 7.18 2.22 8.96
5/28/2022 6:30:00 PM 17.8 64.04 0.12 7.17 2.19 8.9
5/28/2022 6:45:00 PM 17.65 63.77 0.12 7.12 3.15 8.84
5/28/2022 7:00:00 PM 17.51 63.518 0.121 7.08 2.28 8.71
5/28/2022 7:15:00 PM 17.37 63.266 0.12 7.11 2.23 8.54
5/28/2022 7:30:00 PM 17.26 63.068 0.121 7.09 2.23 8.41
5/28/2022 7:45:00 PM 17.15 62.87 0.122 7.07 2.24 8.22
5/28/2022 8:00:00 PM 17.04 62.672 0.121 7.04 2.27 8.01
5/28/2022 8:15:00 PM 16.91 62.438 0.12 7.01 2.2 7.83
5/28/2022 8:30:00 PM 16.8 62.24 0.119 6.98 3.01 7.67
5/28/2022 8:45:00 PM 16.66 61.988 0.118 6.95 4.82 7.5
5/28/2022 9:00:00 PM 16.53 61.754 0.118 6.97 2.31 7.36
5/28/2022 9:15:00 PM 16.43 61.574 0.118 6.93 3.01 7.24
5/28/2022 9:30:00 PM 16.33 61.394 0.119 6.95 2.26 7.16
5/28/2022 9:45:00 PM 16.3 61.34 0.138 6.92 4.6 6.94
5/28/2022 10:00:00 PM 16.19 61.142 0.121 6.92 3.53 7.13
5/28/2022 10:15:00 PM 16.03 60.854 0.119 6.93 2.26 7.06
5/28/2022 10:30:00 PM 15.97 60.746 0.118 6.9 3.12 7.05
5/28/2022 10:45:00 PM 15.83 60.494 0.118 6.91 2.09 6.98
5/28/2022 11:00:00 PM 15.74 60.332 0.118 6.93 2.06 7.08
5/28/2022 11:15:00 PM 15.65 60.17 0.118 6.89 2.98 7
5/28/2022 11:30:00 PM 15.55 59.99 0.119 6.91 2.1 7.03
5/28/2022 11:45:00 PM 15.49 59.882 0.118 6.91 2.24 7
5/29/2022 12:00:00 AM 15.36 59.648 0.118 6.9 2.1 7.01
5/29/2022 12:15:00 AM 15.29 59.522 0.118 6.89 2.11 6.97
5/29/2022 12:30:00 AM 15.27 59.486 0.117 6.88 2.19 6.95
5/29/2022 12:45:00 AM 15.16 59.288 0.118 6.88 2.1 6.95
5/29/2022 1:00:00 AM 15.06 59.108 0.118 6.89 2.25 7.02
5/29/2022 1:15:00 AM 14.97 58.946 0.118 6.89 2.2 6.97
5/29/2022 1:30:00 AM 14.9 58.82 0.118 6.83 2.23 7.11
5/29/2022 1:45:00 AM 14.86 58.748 0.117 6.88 2.2 6.99
5/29/2022 2:00:00 AM 14.76 58.568 0.118 6.88 2.19 6.97
5/29/2022 2:15:00 AM 14.66 58.388 0.118 6.89 2.13 7.04
5/29/2022 2:30:00 AM 14.53 58.154 0.118 6.9 2.23 7.19
5/29/2022 2:45:00 AM 14.54 58.172 0.118 6.89 2.32 7.12
5/29/2022 3:00:00 AM 14.51 58.118 0.117 6.87 2.29 7.02
5/29/2022 3:15:00 AM 14.46 58.028 0.117 6.86 2.33 6.95
5/29/2022 3:30:00 AM 14.4 57.92 0.117 6.87 2.42 7
5/29/2022 3:45:00 AM 14.31 57.758 0.117 6.84 2.32 7.08
5/29/2022 4:00:00 AM 14.25 57.65 0.117 6.86 2.3 7.01
5/29/2022 4:15:00 AM 14.17 57.506 0.118 6.86 2.31 7.04
5/29/2022 4:30:00 AM 14.1 57.38 0.117 6.87 2.3 7.11
5/29/2022 4:45:00 AM 14.08 57.344 0.118 6.86 2.27 7.05
5/29/2022 5:00:00 AM 14.04 57.272 0.117 6.86 2.37 7.05
5/29/2022 5:15:00 AM 13.97 57.146 0.117 6.86 2.37 7.03
5/29/2022 5:30:00 AM 13.89 57.002 0.118 6.86 2.35 7.15
5/29/2022 5:45:00 AM 13.84 56.912 0.118 6.86 2.4 7.1
5/29/2022 6:00:00 AM 13.79 56.822 0.118 6.86 2.33 7.07
5/29/2022 6:15:00 AM 13.75 56.75 0.117 6.86 2.45 7.11
5/29/2022 6:30:00 AM 13.67 56.606 0.118 6.84 2.58 7.12
5/29/2022 6:45:00 AM 13.71 56.678 0.117 6.84 3.22 7.31
5/29/2022 7:00:00 AM 13.74 56.732 0.117 6.88 2.26 7.47
5/29/2022 7:15:00 AM 13.76 56.768 0.117 6.83 2.27 7.5
5/29/2022 7:30:00 AM 13.78 56.804 0.118 6.88 2.25 7.54
5/29/2022 7:45:00 AM 13.82 56.876 0.118 6.88 2.33 7.62
5/29/2022 8:00:00 AM 13.95 57.11 0.118 6.89 2.31 7.75
5/29/2022 8:15:00 AM 14.08 57.344 0.118 6.91 2.37 7.91
5/29/2022 8:30:00 AM 14.3 57.74 0.12 6.92 2.26 8.13
5/29/2022 8:45:00 AM 14.47 58.046 0.12 6.95 2.33 8.37
5/29/2022 9:00:00 AM 14.87 58.766 0.121 6.99 2.28 8.76
5/29/2022 9:15:00 AM 15.24 59.432 0.122 7.02 2.41 9.17
5/29/2022 9:30:00 AM 15.46 59.828 0.123 7.05 2.39 9.36
5/29/2022 9:45:00 AM 15.84 60.512 0.124 7.06 3.29 9.6
5/29/2022 10:00:00 AM 16.56 61.808 0.128 7.06 3.44 9.79
5/29/2022 10:15:00 AM 17.46 63.428 0.129 7.1 3.22 9.99
5/29/2022 10:30:00 AM 18.12 64.616 0.128 7.11 3.29 10.06
5/29/2022 10:45:00 AM 18.67 65.606 0.122 7.15 2.29 10.08
5/29/2022 11:00:00 AM 19.11 66.398 0.117 7.19 2.2 10.1
5/29/2022 11:15:00 AM 19.7 67.46 0.116 7.24 2.12 10.11
5/29/2022 11:30:00 AM 19.86 67.748 0.115 7.32 2.18 10.12
5/29/2022 11:45:00 AM 20.68 69.224 0.114 7.32 2.12 10.22
5/29/2022 12:00:00 PM 20.88 69.584 0.113 7.37 2.2 10.35
5/29/2022 12:15:00 PM 20.7 69.26 0.112 7.44 2.15 10.23
5/29/2022 12:30:00 PM 20.14 68.252 0.115 7.28 3.11 10.01
5/29/2022 12:45:00 PM 20.32 68.576 0.114 7.36 2.98 9.98
5/29/2022 1:00:00 PM 20.73 69.314 0.113 7.4 2.11 10.11
5/29/2022 1:15:00 PM 21.07 69.926 0.116 7.49 2.01 10.29
5/29/2022 1:30:00 PM 20.88 69.584 0.114 7.57 2.1 10.2
5/29/2022 1:45:00 PM 20.72 69.296 0.114 7.5 2 10.07
5/29/2022 2:00:00 PM 20.53 68.954 0.116 7.37 2.13 9.88
5/29/2022 2:15:00 PM 20.23 68.414 0.117 7.28 3.07 9.79
5/29/2022 2:30:00 PM 19.76 67.568 0.117 7.28 2.27 9.7
5/29/2022 2:45:00 PM 19.63 67.334 0.118 7.31 2.05 9.74
5/29/2022 3:00:00 PM 19.59 67.262 0.118 7.35 2.21 9.81
5/29/2022 3:15:00 PM 19.45 67.01 0.118 7.37 1.93 9.77
5/29/2022 3:30:00 PM 19.33 66.794 0.119 7.41 2.12 9.84
5/29/2022 3:45:00 PM 19.46 67.028 0.12 7.51 2.94 9.87
5/29/2022 4:00:00 PM 20.14 68.252 0.119 7.87 2.02 9.93
5/29/2022 4:15:00 PM 20.68 69.224 0.12 7.67 1.98 10.01
5/29/2022 4:30:00 PM 20.73 69.314 0.121 7.77 2.91 10.03
5/29/2022 4:45:00 PM 20.84 69.512 0.122 7.82 1.92 10.02
5/29/2022 5:00:00 PM 20.85 69.53 0.123 7.57 2.03 9.91
5/29/2022 5:15:00 PM 20.81 69.458 0.123 7.73 1.93 9.9
5/29/2022 5:30:00 PM 20.55 68.99 0.122 7.52 1.95 9.75
5/29/2022 5:45:00 PM 20.3 68.54 0.121 7.48 2 9.71
5/29/2022 6:00:00 PM 20.01 68.018 0.119 7.41 1.93 9.46
5/29/2022 6:15:00 PM 19.81 67.658 0.12 7.38 1.98 9.28
5/29/2022 6:30:00 PM 19.69 67.442 0.119 7.34 1.95 9.15
5/29/2022 6:45:00 PM 19.55 67.19 0.118 7.29 1.98 8.94
5/29/2022 7:00:00 PM 19.34 66.812 0.119 7.27 1.96 8.83
5/29/2022 7:15:00 PM 19.2 66.56 0.119 7.23 1.92 8.67
5/29/2022 7:30:00 PM 19.03 66.254 0.119 7.21 1.86 8.49
5/29/2022 7:45:00 PM 18.86 65.948 0.12 7.18 1.94 8.31
5/29/2022 8:00:00 PM 18.66 65.588 0.12 7.16 1.9 8.17
5/29/2022 8:15:00 PM 18.43 65.174 0.121 7.14 1.85 7.99
5/29/2022 8:30:00 PM 18.2 64.76 0.122 7.08 2.86 7.82
5/29/2022 8:45:00 PM 17.96 64.328 0.122 7.04 3.97 7.53
5/29/2022 9:00:00 PM 17.74 63.932 0.122 7 2.8 7.28
5/29/2022 9:15:00 PM 17.57 63.626 0.121 6.97 2.87 7.14
5/29/2022 9:30:00 PM 17.47 63.446 0.121 6.96 2.95 7
5/29/2022 9:45:00 PM 17.4 63.32 0.12 6.97 2.12 6.94
5/29/2022 10:00:00 PM 17.32 63.176 0.12 6.94 2.81 6.94
5/29/2022 10:15:00 PM 17.27 63.086 0.12 6.92 2.09 6.85
5/29/2022 10:30:00 PM 17.24 63.032 0.119 6.92 2.94 6.81
5/29/2022 10:45:00 PM 17.14 62.852 0.119 6.94 2.08 6.78
5/29/2022 11:00:00 PM 17.07 62.726 0.119 6.94 2.11 6.77
5/29/2022 11:15:00 PM 17 62.6 0.12 6.9 2.17 6.73
5/29/2022 11:30:00 PM 16.94 62.492 0.119 6.92 2.09 6.71
5/29/2022 11:45:00 PM 16.87 62.366 0.12 6.92 2.04 6.7
5/30/2022 12:00:00 AM 16.8 62.24 0.119 6.92 1.99 6.7
5/30/2022 12:15:00 AM 16.72 62.096 0.12 6.91 2.11 6.66
5/30/2022 12:30:00 AM 16.66 61.988 0.12 6.9 2.21 6.6
5/30/2022 12:45:00 AM 16.57 61.826 0.12 6.91 2.22 6.67
5/30/2022 1:00:00 AM 16.52 61.736 0.12 6.87 3.13 6.68
5/30/2022 1:15:00 AM 16.44 61.592 0.12 6.9 2.35 6.7
5/30/2022 1:30:00 AM 16.39 61.502 0.121 6.87 3.2 6.62
5/30/2022 1:45:00 AM 16.28 61.304 0.12 6.84 2.24 6.63
5/30/2022 2:00:00 AM 16.24 61.232 0.12 6.89 2.18 6.57
5/30/2022 2:15:00 AM 16.13 61.034 0.12 6.89 2.17 6.6
5/30/2022 2:30:00 AM 16.11 60.998 0.12 6.88 3.16 6.56
5/30/2022 2:45:00 AM 16.03 60.854 0.12 6.87 2.26 6.53
5/30/2022 3:00:00 AM 15.96 60.728 0.12 6.82 2.27 6.56
5/30/2022 3:15:00 AM 15.88 60.584 0.12 6.87 2.27 6.57
5/30/2022 3:30:00 AM 15.83 60.494 0.12 6.85 2.21 6.57
5/30/2022 3:45:00 AM 15.78 60.404 0.12 6.87 2.31 6.54
5/30/2022 4:00:00 AM 15.72 60.296 0.12 6.86 2.31 6.52
5/30/2022 4:15:00 AM 15.6 60.08 0.12 6.86 3.12 6.57
5/30/2022 4:30:00 AM 15.56 60.008 0.12 6.86 2.29 6.62
5/30/2022 4:45:00 AM 15.48 59.864 0.121 6.86 2.3 6.59
5/30/2022 5:00:00 AM 15.39 59.702 0.121 6.86 2.35 6.65
5/30/2022 5:15:00 AM 15.28 59.504 0.121 6.86 2.31 6.76
5/30/2022 5:30:00 AM 15.2 59.36 0.121 6.81 2.27 6.79
5/30/2022 5:45:00 AM 15.22 59.396 0.121 6.87 2.39 6.8
5/30/2022 6:00:00 AM 15.17 59.306 0.121 6.86 2.35 6.73
5/30/2022 6:15:00 AM 15.14 59.252 0.121 6.86 2.29 6.73
5/30/2022 6:30:00 AM 15.13 59.234 0.121 6.8 2.35 6.75
5/30/2022 6:45:00 AM 15.12 59.216 0.121 6.86 2.37 6.81
5/30/2022 7:00:00 AM 15.13 59.234 0.12 6.88 2.41 6.99
5/30/2022 7:15:00 AM 15.18 59.324 0.12 6.89 2.42 7.1
5/30/2022 7:30:00 AM 15.29 59.522 0.12 6.89 2.33 7.16
5/30/2022 7:45:00 AM 15.44 59.792 0.12 6.92 2.38 7.39
5/30/2022 8:00:00 AM 15.67 60.206 0.12 6.89 3.32 7.5
5/30/2022 8:15:00 AM 15.87 60.566 0.121 6.93 2.28 7.55
5/30/2022 8:30:00 AM 16.24 61.232 0.121 6.97 2.16 7.95
5/30/2022 8:45:00 AM 16.73 62.114 0.123 6.97 3.13 8.08
5/30/2022 9:00:00 AM 16.95 62.51 0.124 6.98 3.17 8.45
5/30/2022 9:15:00 AM 17.1 62.78 0.124 7.03 2.25 8.77
5/30/2022 9:30:00 AM 17.16 62.888 0.123 7.05 2.32 8.99
5/30/2022 9:45:00 AM 17.12 62.816 0.12 7.06 2.41 9.06
5/30/2022 10:00:00 AM 17.12 62.816 0.12 7.04 3.25 9.11
5/30/2022 10:15:00 AM 17.18 62.924 0.12 7.1 2.48 9.2
5/30/2022 10:30:00 AM 17.6 63.68 0.121 7.26 2.27 9.61
5/30/2022 10:45:00 AM 18.08 64.544 0.124 7.33 2.42 9.81
5/30/2022 11:00:00 AM 18.03 64.454 0.124 7.15 3.36 9.62
5/30/2022 11:15:00 AM 18.22 64.796 0.125 7.27 3.23 9.95
5/30/2022 11:30:00 AM 19.69 67.442 0.127 7.52 3.16 10.44
5/30/2022 11:45:00 AM 20.69 69.242 0.123 7.52 2.09 10.48
5/30/2022 12:00:00 PM 21.1 69.98 0.117 7.63 2.24 10.15
5/30/2022 12:15:00 PM 21.53 70.754 0.117 7.7 2.13 10.17
5/30/2022 12:30:00 PM 21.98 71.564 0.115 7.91 2.16 10.37
5/30/2022 12:45:00 PM 22.5 72.5 0.116 7.95 2.08 10.52
5/30/2022 1:00:00 PM 22.74 72.932 0.115 7.9 2.06 10.59
5/30/2022 1:15:00 PM 22.99 73.382 0.117 7.75 2.15 10.62
5/30/2022 1:30:00 PM 23.11 73.598 0.117 7.79 2.08 10.44
5/30/2022 1:45:00 PM 23.22 73.796 0.117 7.76 2.3 10.46
5/30/2022 2:00:00 PM 22.99 73.382 0.117 7.53 2.22 10.14
5/30/2022 2:15:00 PM 22.39 72.302 0.116 7.5 2.04 9.84
5/30/2022 2:30:00 PM 22.06 71.708 0.119 7.51 2.05 9.82
5/30/2022 2:45:00 PM 21.85 71.33 0.121 7.38 2.87 9.57
5/30/2022 3:00:00 PM 21.83 71.294 0.122 7.58 1.99 9.71
5/30/2022 3:15:00 PM 21.64 70.952 0.121 7.48 2.06 9.67
5/30/2022 3:30:00 PM 21.64 70.952 0.12 7.64 1.94 9.73
5/30/2022 3:45:00 PM 21.96 71.528 0.12 7.81 1.99 9.8
5/30/2022 4:00:00 PM 22.4 72.32 0.119 7.93 2.02 9.93
5/30/2022 4:15:00 PM 22.8 73.04 0.119 7.84 1.94 9.96
5/30/2022 4:30:00 PM 22.96 73.328 0.12 8.02 1.9 9.92
5/30/2022 4:45:00 PM 23.12 73.616 0.121 7.76 1.8 9.88
5/30/2022 5:00:00 PM 22.98 73.364 0.123 7.94 1.91 9.84
5/30/2022 5:15:00 PM 23.06 73.508 0.123 7.88 1.8 9.83
5/30/2022 5:30:00 PM 22.89 73.202 0.124 7.7 1.82 9.52
5/30/2022 5:45:00 PM 22.63 72.734 0.124 7.55 1.83 9.44
5/30/2022 6:00:00 PM 22.4 72.32 0.123 7.45 1.81 9.23
5/30/2022 6:15:00 PM 22.23 72.014 0.121 7.46 1.81 8.96
5/30/2022 6:30:00 PM 22.11 71.798 0.12 7.35 1.84 8.77
5/30/2022 6:45:00 PM 21.96 71.528 0.12 7.32 1.81 8.55
5/30/2022 7:00:00 PM 21.75 71.15 0.12 7.28 2 8.38
5/30/2022 7:15:00 PM 21.63 70.934 0.12 7.29 1.9 8.3
5/30/2022 7:30:00 PM 21.48 70.664 0.12 7.25 1.87 8.15
5/30/2022 7:45:00 PM 21.27 70.286 0.12 7.19 2 7.97
5/30/2022 8:00:00 PM 21.08 69.944 0.121 7.15 1.89 7.73
5/30/2022 8:15:00 PM 20.88 69.584 0.122 7.11 1.88 7.48
5/30/2022 8:30:00 PM 20.66 69.188 0.122 7.09 1.9 7.37
5/30/2022 8:45:00 PM 20.47 68.846 0.123 7.08 1.9 7.18
5/30/2022 9:00:00 PM 20.26 68.468 0.124 7.03 3.06 6.98
5/30/2022 9:15:00 PM 20.07 68.126 0.123 7.03 1.96 6.96
5/30/2022 9:30:00 PM 19.91 67.838 0.125 6.99 2.98 6.64
5/30/2022 9:45:00 PM 19.8 67.64 0.123 6.91 2.19 6.44
5/30/2022 10:00:00 PM 19.71 67.478 0.122 6.96 1.92 6.41
5/30/2022 10:15:00 PM 19.61 67.298 0.123 6.92 2.91 6.29
5/30/2022 10:30:00 PM 19.52 67.136 0.123 6.9 11.28 6.11
5/30/2022 10:45:00 PM 19.44 66.992 0.123 6.92 3.05 6.16
5/30/2022 11:00:00 PM 19.38 66.884 0.123 6.89 3.37 6.11
5/30/2022 11:15:00 PM 19.32 66.776 0.123 6.89 3.04 6.14
5/30/2022 11:30:00 PM 19.28 66.704 0.123 6.88 3.2 6.13
5/30/2022 11:45:00 PM 19.22 66.596 0.122 6.91 1.96 6.15
5/31/2022 12:00:00 AM 19.16 66.488 0.122 6.92 1.97 6.15
5/31/2022 12:15:00 AM 19.11 66.398 0.122 6.9 1.96 6.05
5/31/2022 12:30:00 AM 19.04 66.272 0.132 6.89 5.56 5.7
5/31/2022 12:45:00 AM 18.96 66.128 0.126 6.87 2.28 5.76
5/31/2022 1:00:00 AM 18.88 65.984 0.123 6.87 2.11 5.89
5/31/2022 1:15:00 AM 18.8 65.84 0.123 6.87 2.04 5.9
5/31/2022 1:30:00 AM 18.77 65.786 0.123 6.83 3.32 5.9
5/31/2022 1:45:00 AM 18.71 65.67799 0.123 6.85 3.18 5.85
5/31/2022 2:00:00 AM 18.64 65.552 0.122 6.82 3.17 5.86
5/31/2022 2:15:00 AM 18.58 65.444 0.122 6.82 3.5 5.91
5/31/2022 2:30:00 AM 18.54 65.372 0.123 6.82 3.39 5.88
5/31/2022 2:45:00 AM 18.46 65.228 0.122 6.82 3.19 5.93
5/31/2022 3:00:00 AM 18.38 65.084 0.122 6.79 2.24 5.92
5/31/2022 3:15:00 AM 18.32 64.976 0.123 6.84 2.25 5.85
5/31/2022 3:30:00 AM 18.27 64.886 0.123 6.84 2.27 5.83
5/31/2022 3:45:00 AM 18.22 64.796 0.123 6.81 3.24 5.87
5/31/2022 4:00:00 AM 18.15 64.67 0.123 6.81 3.21 5.91
5/31/2022 4:15:00 AM 18.11 64.598 0.123 6.83 2.25 5.84
5/31/2022 4:30:00 AM 18.05 64.49 0.125 6.83 2.35 5.87
5/31/2022 4:45:00 AM 17.95 64.31 0.124 6.83 2.23 5.81
5/31/2022 5:00:00 AM 17.85 64.13 0.124 6.83 2.35 5.82
5/31/2022 5:15:00 AM 17.78 64.004 0.124 6.8 3.31 5.86
5/31/2022 5:30:00 AM 17.71 63.878 0.124 6.82 2.34 5.78
5/31/2022 5:45:00 AM 17.65 63.77 0.124 6.82 2.31 5.8
5/31/2022 6:00:00 AM 17.57 63.626 0.125 6.79 3.51 5.85
5/31/2022 6:15:00 AM 17.54 63.572 0.124 6.82 2.35 5.88
5/31/2022 6:30:00 AM 17.52 63.536 0.124 6.83 2.37 5.9
5/31/2022 6:45:00 AM 17.51 63.518 0.124 6.8 3.27 6.02
5/31/2022 7:00:00 AM 17.54 63.572 0.124 6.84 2.33 6.12
5/31/2022 7:15:00 AM 17.61 63.698 0.123 6.82 3.37 6.25
5/31/2022 7:30:00 AM 17.65 63.77 0.123 6.86 2.34 6.39
5/31/2022 7:45:00 AM 17.73 63.914 0.124 6.86 2.21 6.41
5/31/2022 8:00:00 AM 17.85 64.13 0.124 6.84 3.83 6.48
5/31/2022 8:15:00 AM 17.99 64.382 0.124 6.85 3.32 6.74
5/31/2022 8:30:00 AM 18.16 64.688 0.125 6.89 2.27 6.82
5/31/2022 8:45:00 AM 18.39 65.102 0.127 6.87 3.27 7.07
5/31/2022 9:00:00 AM 18.7 65.66 0.131 6.92 2.43 7.4
5/31/2022 9:15:00 AM 19.07 66.326 0.13 6.94 2.4 7.72
5/31/2022 9:30:00 AM 19.64 67.352 0.133 6.96 3.45 8.21
5/31/2022 9:45:00 AM 20.72 69.296 0.133 7.05 3.14 8.66
5/31/2022 10:00:00 AM 21.33 70.394 0.13 7.09 2.14 8.98
5/31/2022 10:15:00 AM 22.07 71.726 0.126 7.13 2.26 9.3
5/31/2022 10:30:00 AM 22.7 72.86 0.123 7.17 2.18 9.26
5/31/2022 10:45:00 AM 23.29 73.922 0.123 7.22 2.16 9.42
5/31/2022 11:00:00 AM 23.56 74.408 0.122 7.26 2.11 9.56
5/31/2022 11:15:00 AM 23.76 74.768 0.122 7.26 2.09 9.48
5/31/2022 11:30:00 AM 24.39 75.902 0.122 7.25 2.19 9.61
5/31/2022 11:45:00 AM 24.35 75.83 0.122 7.3 2.15 9.5
5/31/2022 12:00:00 PM 24.38 75.884 0.121 7.36 2.1 9.65
5/31/2022 12:15:00 PM 24.53 76.154 0.121 7.41 2.1 9.72
5/31/2022 12:30:00 PM 24.27 75.686 0.121 7.37 2.09 9.55
5/31/2022 12:45:00 PM 24.34 75.812 0.121 7.36 2.03 9.59
5/31/2022 1:00:00 PM 24.96 76.92799 0.12 7.53 2.01 9.82
5/31/2022 1:15:00 PM 25.61 78.098 0.122 7.57 1.97 9.81
5/31/2022 1:30:00 PM 25.94 78.692 0.122 7.84 2.07 10.11
5/31/2022 1:45:00 PM 25.9 78.62 0.12 7.88 2.1 10.06
5/31/2022 2:00:00 PM 25.7 78.26 0.12 7.68 1.99 9.73
5/31/2022 2:15:00 PM 25.3 77.54 0.12 7.57 2 9.61
5/31/2022 2:30:00 PM 24.75 76.55 0.12 7.55 2.04 9.6
5/31/2022 2:45:00 PM 24.47 76.046 0.121 7.62 2.03 9.64
5/31/2022 3:00:00 PM 24.24 75.632 0.12 7.57 1.95 9.36
5/31/2022 3:15:00 PM 24.18 75.524 0.12 7.6 2.07 9.5
5/31/2022 3:30:00 PM 24.13 75.434 0.122 7.66 2.07 9.49
5/31/2022 3:45:00 PM 24.38 75.884 0.123 7.93 1.93 9.62
5/31/2022 4:00:00 PM 24.62 76.316 0.121 7.87 1.96 9.53
5/31/2022 4:15:00 PM 24.78 76.604 0.12 7.89 1.91 9.44
5/31/2022 4:30:00 PM 25.1 77.18 0.123 7.93 1.87 9.44
5/31/2022 4:45:00 PM 25.04 77.07201 0.122 7.86 1.9 9.54
5/31/2022 5:00:00 PM 25.02 77.036 0.123 7.76 1.88 9.34
5/31/2022 5:15:00 PM 25.12 77.216 0.123 7.82 1.88 9.44
5/31/2022 5:30:00 PM 25.02 77.036 0.123 7.71 1.88 9.46
5/31/2022 5:45:00 PM 24.84 76.712 0.124 7.56 1.91 9.33
5/31/2022 6:00:00 PM 24.64 76.352 0.125 7.51 1.86 9.25
5/31/2022 6:15:00 PM 24.4 75.92 0.125 7.51 1.93 9.13
5/31/2022 6:30:00 PM 24.19 75.542 0.125 7.47 1.91 8.91
5/31/2022 6:45:00 PM 24.02 75.236 0.124 7.4 1.91 8.69
5/31/2022 7:00:00 PM 23.85 74.93 0.122 7.33 1.89 8.34
5/31/2022 7:15:00 PM 23.64 74.552 0.122 7.28 1.86 7.97
5/31/2022 7:30:00 PM 23.4 74.12 0.122 7.2 1.89 7.6
5/31/2022 7:45:00 PM 23.17 73.706 0.123 7.13 3 7.34
5/31/2022 8:00:00 PM 22.96 73.328 0.123 7.15 2.05 7.2
5/31/2022 8:15:00 PM 22.76 72.968 0.124 7.15 1.99 7.15
5/31/2022 8:30:00 PM 22.54 72.57201 0.125 7.14 1.98 7.07
5/31/2022 8:45:00 PM 22.34 72.212 0.125 7.1 2.01 6.94
5/31/2022 9:00:00 PM 22.12 71.816 0.126 7.11 2.18 6.79
5/31/2022 9:15:00 PM 21.95 71.51 0.126 7.06 2.03 6.45
5/31/2022 9:30:00 PM 21.8 71.24 0.126 7.03 2.08 6.24
5/31/2022 9:45:00 PM 21.65 70.97 0.127 7.01 2.23 5.95
5/31/2022 10:00:00 PM 21.53 70.754 0.127 6.97 2.21 5.74
5/31/2022 10:15:00 PM 21.4 70.52 0.127 6.93 3.38 5.62
5/31/2022 10:30:00 PM 21.36 70.448 0.126 6.93 2.25 5.57
5/31/2022 10:45:00 PM 21.3 70.34 0.126 6.92 2.28 5.52
5/31/2022 11:00:00 PM 21.23 70.214 0.126 6.97 7.09 5.76
5/31/2022 11:15:00 PM 21.18 70.124 0.13 6.95 5.39 5.83
5/31/2022 11:30:00 PM 21.16 70.088 0.128 6.92 3.84 5.66
5/31/2022 11:45:00 PM 21.14 70.052 0.127 6.86 4.28 5.54
6/1/2022 12:00:00 AM 21.04 69.872 0.129 6.88 2.86 5.39
6/1/2022 12:15:00 AM 20.89 69.602 0.128 6.87 2.64 5.24
6/1/2022 12:30:00 AM 20.71 69.278 0.128 6.83 3.29 5.1
6/1/2022 12:45:00 AM 20.59 69.062 0.128 6.82 3.33 5.08
6/1/2022 1:00:00 AM 20.51 68.918 0.127 6.85 2.08 5.28
6/1/2022 1:15:00 AM 20.43 68.774 0.127 6.84 2.06 5.2
6/1/2022 1:30:00 AM 20.33 68.594 0.128 6.84 2.17 5.22
6/1/2022 1:45:00 AM 20.3 68.54 0.127 6.84 2.18 5.14
6/1/2022 2:00:00 AM 20.3 68.54 0.126 6.84 2.21 5.27
6/1/2022 2:15:00 AM 20.26 68.468 0.127 6.84 2.23 5.21
6/1/2022 2:30:00 AM 20.19 68.342 0.127 6.83 2.33 5.26
6/1/2022 2:45:00 AM 20.05 68.09 0.127 6.81 3.27 5.28
6/1/2022 3:00:00 AM 19.96 67.92799 0.127 6.8 3.21 5.3
6/1/2022 3:15:00 AM 19.87 67.766 0.127 6.83 2.18 5.31
6/1/2022 3:30:00 AM 19.86 67.748 0.144 6.77 5.37 5.07
6/1/2022 3:45:00 AM 19.76 67.568 0.134 6.79 4 5.23
6/1/2022 4:00:00 AM 19.7 67.46 0.128 6.83 2.3 5.4
6/1/2022 4:15:00 AM 19.66 67.388 0.127 6.83 2.32 5.42
6/1/2022 4:30:00 AM 19.56 67.208 0.127 6.8 3.24 5.42
6/1/2022 4:45:00 AM 19.48 67.064 0.127 6.82 2.22 5.4
6/1/2022 5:00:00 AM 19.4 66.92 0.127 6.81 3.3 5.38
6/1/2022 5:15:00 AM 19.33 66.794 0.127 6.82 2.24 5.39
6/1/2022 5:30:00 AM 19.28 66.704 0.127 6.82 2.27 5.38
6/1/2022 5:45:00 AM 19.19 66.542 0.127 6.82 2.23 5.4
6/1/2022 6:00:00 AM 19.2 66.56 0.128 6.79 3.63 5.3
6/1/2022 6:15:00 AM 19.25 66.65 0.127 6.81 3.22 5.61
6/1/2022 6:30:00 AM 19.21 66.578 0.128 6.81 3.26 5.59
6/1/2022 6:45:00 AM 19.15 66.47 0.128 6.83 2.34 5.6
6/1/2022 7:00:00 AM 19.15 66.47 0.127 6.82 3.52 5.73
6/1/2022 7:15:00 AM 19.23 66.614 0.127 6.84 2.21 5.78
6/1/2022 7:30:00 AM 19.37 66.866 0.127 6.86 2.27 5.99
6/1/2022 7:45:00 AM 19.5 67.1 0.127 6.86 2.31 6.14
6/1/2022 8:00:00 AM 19.67 67.406 0.128 6.85 3.31 6.33
6/1/2022 8:15:00 AM 19.79 67.622 0.13 6.86 3.26 6.48
6/1/2022 8:30:00 AM 19.89 67.802 0.13 6.9 2.26 6.62
6/1/2022 8:45:00 AM 19.98 67.964 0.13 6.94 2.33 6.92
6/1/2022 9:00:00 AM 20.42 68.756 0.136 6.96 2.33 7.34
6/1/2022 9:15:00 AM 20.56 69.008 0.136 6.95 2.5 7.39
6/1/2022 9:30:00 AM 20.51 68.918 0.134 6.96 2.37 7.48
6/1/2022 9:45:00 AM 20.48 68.864 0.132 6.95 3.3 7.56
6/1/2022 10:00:00 AM 20.77 69.386 0.131 7 2.46 7.76
6/1/2022 10:15:00 AM 22.21 71.978 0.135 7.11 2.12 8.06
6/1/2022 10:30:00 AM 22.92 73.256 0.129 7.14 2.35 8.67
6/1/2022 10:45:00 AM 23.41 74.138 0.128 7.16 2.48 8.72
6/1/2022 11:00:00 AM 24.02 75.236 0.125 7.19 2.46 9.01
6/1/2022 11:15:00 AM 24.37 75.866 0.124 7.24 2.84 9
6/1/2022 11:30:00 AM 24.52 76.136 0.123 7.29 2.37 9.12
6/1/2022 11:45:00 AM 24.93 76.874 0.122 7.25 2.22 9.3
6/1/2022 12:00:00 PM 25.06 77.108 0.123 7.3 2.14 9.22
6/1/2022 12:15:00 PM 25.23 77.414 0.123 7.36 2.12 9.35
6/1/2022 12:30:00 PM 25.06 77.108 0.122 7.31 2.14 9.18
6/1/2022 12:45:00 PM 24.73 76.514 0.122 7.3 2.23 9.06
6/1/2022 1:00:00 PM 24.17 75.506 0.123 7.27 2.32 9.11
6/1/2022 1:15:00 PM 24.57 76.226 0.123 7.44 2.03 9.52
6/1/2022 1:30:00 PM 25 77 0.123 7.53 2.08 9.8
6/1/2022 1:45:00 PM 25.2 77.36 0.124 7.61 2.23 9.82
6/1/2022 2:00:00 PM 24.98 76.964 0.123 7.49 2.19 9.62
6/1/2022 2:15:00 PM 24.95 76.91 0.123 7.53 2.07 9.67
6/1/2022 2:30:00 PM 24.82 76.676 0.123 7.49 2.19 9.64
6/1/2022 2:45:00 PM 24.44 75.992 0.122 7.51 2.15 9.31
6/1/2022 3:00:00 PM 24.3 75.74 0.123 7.39 2.52 9.13
6/1/2022 3:15:00 PM 23.93 75.074 0.119 7.52 5.72 8.94
6/1/2022 3:30:00 PM 23.55 74.39 0.16 7.3 20 8.29
6/1/2022 3:45:00 PM 23.49 74.282 0.194 7.19 16.94 8.11
6/1/2022 4:00:00 PM 23.16 73.688 0.233 6.99 14.3 7.34
6/1/2022 4:15:00 PM 22.73 72.914 0.26 6.89 11.63 6.88
6/1/2022 4:30:00 PM 22.79 73.022 0.205 7.02 7.89 7.15
6/1/2022 4:45:00 PM 23.2 73.76 0.196 7.03 6.71 7.32
6/1/2022 5:00:00 PM 23.35 74.03 0.212 6.97 6.33 7.27
6/1/2022 5:15:00 PM 23.44 74.192 0.205 6.99 5.33 7.31
6/1/2022 5:30:00 PM 23.31 73.958 0.199 6.99 4.45 7.55
6/1/2022 5:45:00 PM 23.18 73.724 0.202 7.07 3.61 7.78
6/1/2022 6:00:00 PM 23.09 73.562 0.204 7.02 3.4 7.8
6/1/2022 6:15:00 PM 22.92 73.256 0.194 7.06 2.81 7.79
6/1/2022 6:30:00 PM 22.76 72.968 0.192 7.03 2.56 7.77
6/1/2022 6:45:00 PM 22.6 72.68 0.191 7.04 2.33 7.59
6/1/2022 7:00:00 PM 22.42 72.356 0.184 6.97 3.57 7.38
6/1/2022 7:15:00 PM 22.2 71.96 0.194 7 2.33 7.17
6/1/2022 7:30:00 PM 21.96 71.528 0.197 6.93 3.1 6.93
6/1/2022 7:45:00 PM 21.56 70.808 0.228 6.83 30.99 6.83
6/1/2022 8:00:00 PM 21.36 70.448 0.25 6.79 14.03 6.51
6/1/2022 8:15:00 PM 21.26 70.268 0.197 6.78 24.73 6.23
6/1/2022 8:30:00 PM 21.19 70.142 0.179 6.81 21.39 5.83
6/1/2022 8:45:00 PM 21.16 70.088 0.158 6.84 12.37 5.76
6/1/2022 9:00:00 PM 21.09 69.962 0.164 6.8 7.84 5.59
6/1/2022 9:15:00 PM 21.01 69.818 0.153 6.82 5.33 5.67
6/1/2022 9:30:00 PM 20.88 69.584 0.16 6.76 4.83 5.54
6/1/2022 9:45:00 PM 20.78 69.404 0.148 6.83 4.12 5.45
6/1/2022 10:00:00 PM 20.7 69.26 0.148 6.78 6.44 5.3
6/1/2022 10:15:00 PM 20.63 69.134 0.149 6.78 8.19 5.19
6/1/2022 10:30:00 PM 20.6 69.08 0.145 6.81 12.47 5.45
6/1/2022 10:45:00 PM 20.57 69.026 0.141 6.86 14.17 5.88
6/1/2022 11:00:00 PM 20.52 68.936 0.138 6.9 12.36 6.3
6/1/2022 11:15:00 PM 20.45 68.81 0.137 6.85 9.76 6.5
6/1/2022 11:30:00 PM 20.37 68.666 0.136 6.92 9.72 6.57
6/1/2022 11:45:00 PM 20.27 68.486 0.138 6.91 8.1 6.57
6/2/2022 12:00:00 AM 20.17 68.306 0.136 6.91 7.39 6.58
6/2/2022 12:15:00 AM 20.04 68.07201 0.138 6.9 7.09 6.56
6/2/2022 12:30:00 AM 19.91 67.838 0.138 6.9 6.53 6.54
6/2/2022 12:45:00 AM 19.8 67.64 0.138 6.89 6.34 6.56
6/2/2022 1:00:00 AM 19.71 67.478 0.137 6.88 6.4 6.55
6/2/2022 1:15:00 AM 19.61 67.298 0.134 6.86 6.94 6.57
6/2/2022 1:30:00 AM 19.52 67.136 0.135 6.86 6.9 6.56
6/2/2022 1:45:00 AM 19.45 67.01 0.136 6.87 5.48 6.52
6/2/2022 2:00:00 AM 19.4 66.92 0.133 6.83 5.05 6.54
6/2/2022 2:15:00 AM 19.36 66.848 0.132 6.88 4.44 6.58
6/2/2022 2:30:00 AM 19.3 66.74 0.133 6.88 4.46 6.66
6/2/2022 2:45:00 AM 19.25 66.65 0.132 6.9 4.76 6.82
6/2/2022 3:00:00 AM 19.22 66.596 0.127 6.92 5 6.96
6/2/2022 3:15:00 AM 19.2 66.56 0.124 6.93 4.84 7.05
6/2/2022 3:30:00 AM 19.2 66.56 0.123 6.86 5.4 7.09
6/2/2022 3:45:00 AM 19.2 66.56 0.12 6.85 5.26 7.13
6/2/2022 4:00:00 AM 19.2 66.56 0.12 6.94 5.36 7.14
6/2/2022 4:15:00 AM 19.2 66.56 0.119 6.95 5.62 7.14
6/2/2022 4:30:00 AM 19.2 66.56 0.118 6.95 5.9 7.15
6/2/2022 4:45:00 AM 19.2 66.56 0.119 6.92 7.67 7.13
6/2/2022 5:00:00 AM 19.18 66.524 0.118 6.94 6.02 7.14
6/2/2022 5:15:00 AM 19.16 66.488 0.118 6.95 6.17 7.15
6/2/2022 5:30:00 AM 19.15 66.47 0.118 6.94 4.78 7.12
6/2/2022 5:45:00 AM 19.13 66.434 0.118 6.91 5.98 7.13
6/2/2022 6:00:00 AM 19.1 66.38 0.119 6.94 4.5 7.09
6/2/2022 6:15:00 AM 19.07 66.326 0.118 6.94 4.36 7.1
6/2/2022 6:30:00 AM 19.05 66.29 0.118 6.94 4.08 7.13
6/2/2022 6:45:00 AM 19.03 66.254 0.118 6.95 3.9 7.17
6/2/2022 7:00:00 AM 19.01 66.218 0.119 6.93 4.39 7.21
6/2/2022 7:15:00 AM 18.98 66.164 0.119 6.97 3.73 7.27
6/2/2022 7:30:00 AM 18.94 66.092 0.12 6.97 3.46 7.28
6/2/2022 7:45:00 AM 18.88 65.984 0.12 6.97 3.46 7.28
6/2/2022 8:00:00 AM 18.84 65.912 0.12 6.97 3.47 7.25
6/2/2022 8:15:00 AM 18.81 65.858 0.121 6.98 3.15 7.31
6/2/2022 8:30:00 AM 18.81 65.858 0.121 6.96 4.11 7.4
6/2/2022 8:45:00 AM 18.88 65.984 0.122 7.01 3.16 7.59
6/2/2022 9:00:00 AM 18.95 66.11 0.122 7.03 4.04 7.83
6/2/2022 9:15:00 AM 19.04 66.272 0.123 7.05 2.91 8.01
6/2/2022 9:30:00 AM 19.13 66.434 0.123 7.07 2.98 8.16
6/2/2022 9:45:00 AM 19.25 66.65 0.124 7.09 3.02 8.29
6/2/2022 10:00:00 AM 19.38 66.884 0.124 7.06 2.95 8.41
6/2/2022 10:15:00 AM 19.65 67.37 0.124 7.12 2.95 8.53
6/2/2022 10:30:00 AM 19.79 67.622 0.124 7.13 2.86 8.55
6/2/2022 10:45:00 AM 19.97 67.946 0.123 7.15 2.89 8.63
6/2/2022 11:00:00 AM 19.97 67.946 0.123 7.16 2.86 8.67
6/2/2022 11:15:00 AM 19.96 67.92799 0.123 7.17 3.14 8.71
6/2/2022 11:30:00 AM 20.04 68.07201 0.122 7.18 2.94 8.77
6/2/2022 11:45:00 AM 20.14 68.252 0.122 7.19 2.91 8.83
6/2/2022 12:00:00 PM 20.4 68.72 0.123 7.21 2.78 8.92
6/2/2022 12:15:00 PM 20.28 68.504 0.122 7.21 2.66 8.9
6/2/2022 12:30:00 PM 20.27 68.486 0.123 7.22 2.74 8.93
6/2/2022 12:45:00 PM 20.27 68.486 0.122 7.23 2.56 8.91
6/2/2022 1:00:00 PM 20.25 68.45 0.122 7.24 2.61 8.94
6/2/2022 1:15:00 PM 20.27 68.486 0.122 7.24 2.61 8.9
6/2/2022 1:30:00 PM 20.42 68.756 0.124 7.25 2.55 8.96
6/2/2022 1:45:00 PM 20.58 69.044 0.122 7.19 2.38 9.08
6/2/2022 2:00:00 PM 20.77 69.386 0.124 7.28 2.51 9.1
6/2/2022 2:15:00 PM 20.94 69.692 0.123 7.3 2.28 9.19
6/2/2022 2:30:00 PM 21.14 70.052 0.124 7.3 3.29 9.3
6/2/2022 2:45:00 PM 21.08 69.944 0.124 7.29 3.37 9.22
6/2/2022 3:00:00 PM 21.08 69.944 0.123 7.31 2.48 9.19
6/2/2022 3:15:00 PM 21.12 70.016 0.123 7.31 2.46 9.19
6/2/2022 3:30:00 PM 21.12 70.016 0.123 7.32 2.38 9.19
6/2/2022 3:45:00 PM 21.34 70.412 0.123 7.33 2.34 9.21
6/2/2022 4:00:00 PM 21.32 70.376 0.123 7.32 2.31 9.17
6/2/2022 4:15:00 PM 21.35 70.43 0.124 7.33 2.28 9.15
6/2/2022 4:30:00 PM 21.32 70.376 0.124 7.33 2.41 9.05
6/2/2022 4:45:00 PM 21.34 70.412 0.125 7.3 2.36 8.94
6/2/2022 5:00:00 PM 21.32 70.376 0.125 7.29 2.35 8.79
6/2/2022 5:15:00 PM 21.37 70.466 0.124 7.27 2.23 8.89
6/2/2022 5:30:00 PM 21.36 70.448 0.123 7.28 2.34 8.82
6/2/2022 5:45:00 PM 21.33 70.394 0.125 7.28 2.33 8.72
6/2/2022 6:00:00 PM 21.31 70.358 0.124 7.31 2.34 8.76
6/2/2022 6:15:00 PM 21.21 70.17799 0.123 7.27 2.27 8.58
6/2/2022 6:30:00 PM 21.06 69.908 0.124 7.24 2.35 8.42
6/2/2022 6:45:00 PM 20.91 69.638 0.124 7.21 2.34 8.3
6/2/2022 7:00:00 PM 20.78 69.404 0.124 7.19 2.39 8.11
6/2/2022 7:15:00 PM 20.67 69.206 0.124 7.16 2.39 7.78
6/2/2022 7:30:00 PM 20.56 69.008 0.126 7.14 2.42 7.69
6/2/2022 7:45:00 PM 20.45 68.81 0.126 7.12 2.35 7.55
6/2/2022 8:00:00 PM 20.31 68.558 0.126 7.09 3.34 7.43
6/2/2022 8:15:00 PM 20.18 68.324 0.126 7.07 2.21 7.2
6/2/2022 8:30:00 PM 20.02 68.036 0.127 7.02 3.34 6.99
6/2/2022 8:45:00 PM 19.83 67.694 0.128 7 3.38 6.83
6/2/2022 9:00:00 PM 19.65 67.37 0.128 6.98 3.31 6.73
6/2/2022 9:15:00 PM 19.5 67.1 0.126 6.97 2.26 6.37
6/2/2022 9:30:00 PM 19.39 66.902 0.126 6.94 2.48 6.2
6/2/2022 9:45:00 PM 19.32 66.776 0.126 6.91 4.3 6.19
6/2/2022 10:00:00 PM 19.26 66.668 0.124 6.92 2.96 6.17
6/2/2022 10:15:00 PM 19.19 66.542 0.124 6.91 2.91 6.16
6/2/2022 10:30:00 PM 19.14 66.452 0.129 6.9 2.88 6.09
6/2/2022 10:45:00 PM 19.09 66.362 0.124 6.87 3.97 6.04
6/2/2022 11:00:00 PM 19.05 66.29 0.125 6.89 3.56 6.07
6/2/2022 11:15:00 PM 19 66.2 0.124 6.86 3.83 5.98
6/2/2022 11:30:00 PM 18.95 66.11 0.123 6.88 2.89 5.94
6/2/2022 11:45:00 PM 18.89 66.002 0.125 6.86 2.79 5.81
6/3/2022 12:00:00 AM 18.83 65.894 0.125 6.84 3.82 5.84
6/3/2022 12:15:00 AM 18.77 65.786 0.126 6.86 2.93 5.77
6/3/2022 12:30:00 AM 18.75 65.75 0.125 6.85 2.69 5.81
6/3/2022 12:45:00 AM 18.72 65.696 0.125 6.85 2.51 5.78
6/3/2022 1:00:00 AM 18.69 65.642 0.125 6.85 2.38 5.75
6/3/2022 1:15:00 AM 18.67 65.606 0.124 6.83 3.51 5.82
6/3/2022 1:30:00 AM 18.61 65.498 0.125 6.83 3.41 5.83
6/3/2022 1:45:00 AM 18.58 65.444 0.125 6.84 2.49 5.75
6/3/2022 2:00:00 AM 18.55 65.39 0.125 6.81 3.55 5.74
6/3/2022 2:15:00 AM 18.49 65.282 0.125 6.84 2.46 5.74
6/3/2022 2:30:00 AM 18.47 65.246 0.125 6.83 2.29 5.75
6/3/2022 2:45:00 AM 18.41 65.138 0.127 6.81 3.57 5.74
6/3/2022 3:00:00 AM 18.36 65.048 0.125 6.82 3.24 5.84
6/3/2022 3:15:00 AM 18.3 64.94 0.125 6.83 2.31 5.76
6/3/2022 3:30:00 AM 18.26 64.868 0.125 6.81 3.74 5.73
6/3/2022 3:45:00 AM 18.21 64.778 0.125 6.8 3.29 5.74
6/3/2022 4:00:00 AM 18.16 64.688 0.125 6.82 2.22 5.67
6/3/2022 4:15:00 AM 18.1 64.58 0.126 6.82 2.37 5.7
6/3/2022 4:30:00 AM 18.07 64.526 0.126 6.79 3.41 5.7
6/3/2022 4:45:00 AM 18.02 64.436 0.126 6.82 2.32 5.71
6/3/2022 5:00:00 AM 17.97 64.346 0.126 6.78 3.49 5.71
6/3/2022 5:15:00 AM 17.92 64.256 0.127 6.81 2.43 5.66
6/3/2022 5:30:00 AM 17.81 64.058 0.128 6.8 2.35 5.6
6/3/2022 5:45:00 AM 17.69 63.842 0.129 6.81 2.38 5.62
6/3/2022 6:00:00 AM 17.58 63.644 0.127 6.81 2.21 5.66
6/3/2022 6:15:00 AM 17.51 63.518 0.127 6.81 3.26 5.79
6/3/2022 6:30:00 AM 17.48 63.464 0.128 6.8 3.44 5.88
6/3/2022 6:45:00 AM 17.44 63.392 0.127 6.84 2.33 5.95
6/3/2022 7:00:00 AM 17.35 63.23 0.128 6.81 3.51 6.07
6/3/2022 7:15:00 AM 17.28 63.104 0.129 6.82 3.42 6.12
6/3/2022 7:30:00 AM 17.22 62.996 0.129 6.85 2.28 6.21
6/3/2022 7:45:00 AM 17.1 62.78 0.128 6.86 2.27 6.37
6/3/2022 8:00:00 AM 17.06 62.708 0.129 6.86 3.36 6.61
6/3/2022 8:15:00 AM 17.11 62.798 0.128 6.88 3.16 6.81
6/3/2022 8:30:00 AM 17.16 62.888 0.127 6.9 2.15 6.88
6/3/2022 8:45:00 AM 17.2 62.96 0.129 6.89 3.23 7.04
6/3/2022 9:00:00 AM 17.33 63.194 0.129 6.93 2.06 7.24
6/3/2022 9:15:00 AM 17.61 63.698 0.131 6.95 2.12 7.51
6/3/2022 9:30:00 AM 18.14 64.652 0.132 6.97 3.37 7.91
6/3/2022 9:45:00 AM 19.17 66.506 0.135 7.03 3.83 8.52
6/3/2022 10:00:00 AM 20.11 68.198 0.137 7.13 2.51 9.23
6/3/2022 10:15:00 AM 20.74 69.332 0.134 7.46 2.2 9.39
6/3/2022 10:30:00 AM 20.95 69.71 0.124 7.67 2.19 9.47
6/3/2022 10:45:00 AM 21.47 70.646 0.124 7.47 2.05 9.47
6/3/2022 11:00:00 AM 22.05 71.69 0.125 7.39 2.34 9.51
6/3/2022 11:15:00 AM 22 71.6 0.122 7.4 2.24 9.33
6/3/2022 11:30:00 AM 22.33 72.194 0.122 7.4 2.1 9.32
6/3/2022 11:45:00 AM 22.41 72.338 0.122 7.35 2.27 9.34
6/3/2022 12:00:00 PM 22.82 73.076 0.12 7.51 2.19 9.51
6/3/2022 12:15:00 PM 22.91 73.238 0.121 7.47 2.03 9.43
6/3/2022 12:30:00 PM 23.36 74.048 0.121 7.51 2.18 9.53
6/3/2022 12:45:00 PM 23.65 74.57 0.12 7.58 2.72 9.63
6/3/2022 1:00:00 PM 24.05 75.29 0.121 7.63 2.12 9.75
6/3/2022 1:15:00 PM 24.21 75.578 0.121 7.7 2.03 9.8
6/3/2022 1:30:00 PM 23.87 74.966 0.122 7.71 2.14 9.72
6/3/2022 1:45:00 PM 23.66 74.588 0.122 7.67 2.06 9.65
6/3/2022 2:00:00 PM 23.42 74.156 0.122 7.59 2.18 9.48
6/3/2022 2:15:00 PM 22.95 73.31 0.124 7.54 2.34 9.4
6/3/2022 2:30:00 PM 22.63 72.734 0.125 7.49 2.31 9.36
6/3/2022 2:45:00 PM 22.25 72.05 0.124 7.43 2.3 9.31
6/3/2022 3:00:00 PM 22.06 71.708 0.125 7.49 3.13 9.4
6/3/2022 3:15:00 PM 21.91 71.438 0.125 7.59 2.18 9.41
6/3/2022 3:30:00 PM 21.86 71.348 0.125 7.69 2.08 9.47
6/3/2022 3:45:00 PM 21.85 71.33 0.125 7.9 2.07 9.38
6/3/2022 4:00:00 PM 21.9 71.42 0.125 7.93 2.09 9.39
6/3/2022 4:15:00 PM 22.25 72.05 0.125 8.05 2.09 9.41
6/3/2022 4:30:00 PM 22.65 72.77 0.125 8.11 2.01 9.47
6/3/2022 4:45:00 PM 22.65 72.77 0.126 8.07 1.99 9.69
6/3/2022 5:00:00 PM 22.73 72.914 0.126 7.93 2.03 9.53
6/3/2022 5:15:00 PM 22.38 72.284 0.126 7.64 2.07 9.19
6/3/2022 5:30:00 PM 21.98 71.564 0.126 7.53 3.21 9.08
6/3/2022 5:45:00 PM 21.76 71.168 0.125 7.45 2.11 8.87
6/3/2022 6:00:00 PM 21.68 71.024 0.125 7.42 1.94 8.74
6/3/2022 6:15:00 PM 21.54 70.772 0.126 7.41 2.01 8.67
6/3/2022 6:30:00 PM 21.36 70.448 0.126 7.38 2.32 8.49
6/3/2022 6:45:00 PM 21.17 70.106 0.127 7.36 2.15 8.37
6/3/2022 7:00:00 PM 20.94 69.692 0.128 7.32 2.27 8.19
6/3/2022 7:15:00 PM 20.74 69.332 0.128 7.31 2.16 7.98
6/3/2022 7:30:00 PM 20.51 68.918 0.128 7.28 2.05 7.74
6/3/2022 7:45:00 PM 20.25 68.45 0.128 7.23 2.17 7.54
6/3/2022 8:00:00 PM 20.05 68.09 0.129 7.19 2.06 7.17
6/3/2022 8:15:00 PM 19.84 67.712 0.129 7.14 2.04 6.96
6/3/2022 8:30:00 PM 19.64 67.352 0.129 7.09 3.04 6.85
6/3/2022 8:45:00 PM 19.42 66.956 0.129 7.09 1.95 6.56
6/3/2022 9:00:00 PM 19.19 66.542 0.129 7.07 2.05 6.42
6/3/2022 9:15:00 PM 18.99 66.182 0.129 7.02 2.93 6.29
6/3/2022 9:30:00 PM 18.73 65.714 0.13 7.01 1.91 6.07
6/3/2022 9:45:00 PM 18.54 65.372 0.13 6.97 2 5.86
6/3/2022 10:00:00 PM 18.3 64.94 0.131 6.98 2.01 5.86
6/3/2022 10:15:00 PM 18.17 64.706 0.131 6.95 2.1 5.77
6/3/2022 10:30:00 PM 18.01 64.418 0.13 6.92 3.2 5.98
6/3/2022 10:45:00 PM 17.85 64.13 0.129 6.94 2.09 5.88
6/3/2022 11:00:00 PM 17.81 64.058 0.129 6.92 3 6
6/3/2022 11:15:00 PM 17.68 63.824 0.129 6.92 1.96 5.97
6/3/2022 11:30:00 PM 17.65 63.77 0.129 6.91 1.95 5.97
6/3/2022 11:45:00 PM 17.5 63.5 0.128 6.91 1.87 5.97
6/4/2022 12:00:00 AM 17.47 63.446 0.129 6.88 3.03 5.97
6/4/2022 12:15:00 AM 17.3 63.14 0.129 6.88 1.94 5.98
6/4/2022 12:30:00 AM 17.24 63.032 0.129 6.88 3.07 6.01
6/4/2022 12:45:00 AM 17.1 62.78 0.129 6.89 2.12 5.93
6/4/2022 1:00:00 AM 17.04 62.672 0.129 6.86 3.1 5.98
6/4/2022 1:15:00 AM 16.92 62.456 0.129 6.85 3.09 5.94
6/4/2022 1:30:00 AM 16.74 62.132 0.129 6.86 3.07 6.02
6/4/2022 1:45:00 AM 16.64 61.952 0.129 6.85 3.05 5.98
6/4/2022 2:00:00 AM 16.46 61.628 0.129 6.88 2.01 5.98
6/4/2022 2:15:00 AM 16.29 61.322 0.129 6.88 2.08 6.06
6/4/2022 2:30:00 AM 16.19 61.142 0.13 6.87 3.09 6.12
6/4/2022 2:45:00 AM 15.99 60.782 0.13 6.89 2.25 6.15
6/4/2022 3:00:00 AM 15.86 60.548 0.13 6.9 2.23 6.26
6/4/2022 3:15:00 AM 15.73 60.314 0.13 6.9 2.45 6.31
6/4/2022 3:30:00 AM 15.73 60.314 0.13 6.89 2.22 6.3
6/4/2022 3:45:00 AM 15.62 60.116 0.131 6.89 2.28 6.27
6/4/2022 4:00:00 AM 15.55 59.99 0.131 6.89 2.13 6.31
6/4/2022 4:15:00 AM 15.62 60.116 0.13 6.89 3.21 6.39
6/4/2022 4:30:00 AM 15.53 59.954 0.13 6.89 2.07 6.37
6/4/2022 4:45:00 AM 15.47 59.846 0.13 6.89 2.24 6.35
6/4/2022 5:00:00 AM 15.46 59.828 0.131 6.86 3.29 6.3
6/4/2022 5:15:00 AM 15.33 59.594 0.13 6.88 2.22 6.35
6/4/2022 5:30:00 AM 15.32 59.576 0.13 6.89 3.31 6.42
6/4/2022 5:45:00 AM 15.23 59.414 0.13 6.88 2.26 6.38
6/4/2022 6:00:00 AM 15.18 59.324 0.131 6.86 3.19 6.45
6/4/2022 6:15:00 AM 15.09 59.162 0.13 6.88 2.26 6.47
6/4/2022 6:30:00 AM 15.07 59.126 0.13 6.89 2.31 6.53
6/4/2022 6:45:00 AM 15.08 59.144 0.13 6.87 3.32 6.65
6/4/2022 7:00:00 AM 15.06 59.108 0.13 6.9 2.2 6.7
6/4/2022 7:15:00 AM 15.1 59.18 0.13 6.88 3.08 6.89
6/4/2022 7:30:00 AM 15.15 59.27 0.13 6.92 2.14 6.96
6/4/2022 7:45:00 AM 15.22 59.396 0.13 6.93 2.19 7.11
6/4/2022 8:00:00 AM 15.29 59.522 0.13 6.89 2.19 7.17
6/4/2022 8:15:00 AM 15.44 59.792 0.129 6.94 2.31 7.31
6/4/2022 8:30:00 AM 15.61 60.098 0.129 6.95 3.1 7.6
6/4/2022 8:45:00 AM 15.78 60.404 0.129 6.97 2.23 7.69
6/4/2022 9:00:00 AM 16.05 60.89 0.13 6.97 6.24 7.72
6/4/2022 9:15:00 AM 16.33 61.394 0.129 7.02 3.2 8.21
6/4/2022 9:30:00 AM 16.81 62.258 0.129 7.05 3.2 8.6
6/4/2022 9:45:00 AM 18.06 64.508 0.131 7.14 3.25 9.12
6/4/2022 10:00:00 AM 19.06 66.308 0.129 7.29 2.14 9.64
6/4/2022 10:15:00 AM 19.97 67.946 0.125 7.46 2.11 10.19
6/4/2022 10:30:00 AM 20.61 69.098 0.127 7.44 3.22 10.01
6/4/2022 10:45:00 AM 20.99 69.782 0.124 7.5 2.18 9.88
6/4/2022 11:00:00 AM 21.66 70.988 0.123 7.64 2.17 10.09
6/4/2022 11:15:00 AM 22.17 71.906 0.123 7.74 2.58 10.25
6/4/2022 11:30:00 AM 22.42 72.356 0.124 7.66 2.19 10.15
6/4/2022 11:45:00 AM 22.82 73.076 0.124 7.78 2.18 10.15
6/4/2022 12:00:00 PM 23.13 73.634 0.124 7.84 2.12 10.17
6/4/2022 12:15:00 PM 23.52 74.336 0.124 7.77 3.31 10.17
6/4/2022 12:30:00 PM 23.68 74.624 0.124 8 2.24 10.45
6/4/2022 12:45:00 PM 24.02 75.236 0.125 8 2.18 10.59
6/4/2022 1:00:00 PM 24.4 75.92 0.124 8.06 2.21 10.56
6/4/2022 1:15:00 PM 24.48 76.064 0.125 8.12 2.18 10.53
6/4/2022 1:30:00 PM 24.44 75.992 0.125 8.28 2.14 10.79
6/4/2022 1:45:00 PM 24.42 75.956 0.124 8.3 2.17 10.73
6/4/2022 2:00:00 PM 24.15 75.47 0.124 8.46 2.1 10.51
6/4/2022 2:15:00 PM 23.43 74.174 0.125 7.92 2.36 10.26
6/4/2022 2:30:00 PM 22.76 72.968 0.126 7.78 2.28 10.09
6/4/2022 2:45:00 PM 21.92 71.456 0.127 7.64 2.08 9.69
6/4/2022 3:00:00 PM 21.5 70.7 0.127 7.75 2.27 9.57
6/4/2022 3:15:00 PM 21.1 69.98 0.126 7.82 2.12 9.6
6/4/2022 3:30:00 PM 21.17 70.106 0.126 7.99 2 9.64
6/4/2022 3:45:00 PM 21.48 70.664 0.125 8.28 2.02 9.89
6/4/2022 4:00:00 PM 21.86 71.348 0.125 8.42 2.05 9.9
6/4/2022 4:15:00 PM 22.16 71.888 0.125 8.3 2.06 9.99
6/4/2022 4:30:00 PM 22.36 72.248 0.125 8.35 2 10.05
6/4/2022 4:45:00 PM 22.46 72.42799 0.125 8.55 2 10.14
6/4/2022 5:00:00 PM 22.39 72.302 0.125 8.46 2.03 10.01
6/4/2022 5:15:00 PM 22.31 72.158 0.125 8.31 1.93 9.75
6/4/2022 5:30:00 PM 21.98 71.564 0.125 8 1.94 9.46
6/4/2022 5:45:00 PM 21.5 70.7 0.125 7.83 1.99 9.29
6/4/2022 6:00:00 PM 21.21 70.17799 0.125 7.7 1.97 9.13
6/4/2022 6:15:00 PM 20.92 69.656 0.125 7.6 2.11 8.87
6/4/2022 6:30:00 PM 20.57 69.026 0.126 7.56 2.01 8.78
6/4/2022 6:45:00 PM 20.35 68.63 0.126 7.52 1.98 8.62
6/4/2022 7:00:00 PM 20.03 68.054 0.126 7.42 1.93 8.42
6/4/2022 7:15:00 PM 19.77 67.586 0.126 7.43 2.1 8.22
6/4/2022 7:30:00 PM 19.52 67.136 0.126 7.35 2.11 7.95
6/4/2022 7:45:00 PM 19.29 66.722 0.127 7.3 2.1 7.65
6/4/2022 8:00:00 PM 19.08 66.344 0.127 7.23 2.09 7.48
6/4/2022 8:15:00 PM 18.86 65.948 0.127 7.21 2.06 7.31
6/4/2022 8:30:00 PM 18.65 65.57 0.127 7.16 2.1 7.16
6/4/2022 8:45:00 PM 18.39 65.102 0.128 7.16 2.47 6.94
6/4/2022 9:00:00 PM 18.12 64.616 0.128 7.12 2.02 6.74
6/4/2022 9:15:00 PM 17.92 64.256 0.128 7.06 3.27 6.6
6/4/2022 9:30:00 PM 17.75 63.95 0.128 7.05 3.23 6.51
6/4/2022 9:45:00 PM 17.51 63.518 0.129 7.05 2.03 6.42
6/4/2022 10:00:00 PM 17.31 63.158 0.129 7.04 2.03 6.42
6/4/2022 10:15:00 PM 17.04 62.672 0.129 7.04 2.05 6.41
6/4/2022 10:30:00 PM 16.77 62.186 0.129 7.02 2.16 6.34
6/4/2022 10:45:00 PM 16.6 61.88 0.129 7 2.12 6.27
6/4/2022 11:00:00 PM 16.41 61.538 0.13 6.99 2.12 6.3
6/4/2022 11:15:00 PM 16.29 61.322 0.129 6.95 3.07 6.34
6/4/2022 11:30:00 PM 16.09 60.962 0.13 6.91 2.01 6.35
6/4/2022 11:45:00 PM 15.95 60.71 0.13 6.91 2.41 6.29
6/5/2022 12:00:00 AM 15.77 60.386 0.13 6.95 2.17 6.35
6/5/2022 12:15:00 AM 15.53 59.954 0.13 6.96 2.5 6.37
6/5/2022 12:30:00 AM 15.46 59.828 0.131 6.96 2.28 6.44
6/5/2022 12:45:00 AM 15.31 59.558 0.131 6.96 2.2 6.46
6/5/2022 1:00:00 AM 15.19 59.342 0.131 6.96 2.13 6.51
6/5/2022 1:15:00 AM 15.01 59.018 0.131 6.96 2.09 6.52
6/5/2022 1:30:00 AM 14.92 58.856 0.131 6.94 2.01 6.52
6/5/2022 1:45:00 AM 14.78 58.604 0.131 6.92 2.18 6.56
6/5/2022 2:00:00 AM 14.69 58.442 0.131 6.95 2.22 6.62
6/5/2022 2:15:00 AM 14.59 58.262 0.131 6.95 2.03 6.64
6/5/2022 2:30:00 AM 14.51 58.118 0.131 6.95 2.2 6.67
6/5/2022 2:45:00 AM 14.43 57.974 0.131 6.95 2.13 6.69
6/5/2022 3:00:00 AM 14.34 57.812 0.131 6.88 2.17 6.71
6/5/2022 3:15:00 AM 14.23 57.614 0.131 6.95 2.15 6.73
6/5/2022 3:30:00 AM 14.16 57.488 0.131 6.94 2.35 6.74
6/5/2022 3:45:00 AM 14.09 57.362 0.131 6.95 2.45 6.78
6/5/2022 4:00:00 AM 14.05 57.29 0.131 6.95 2.41 6.81
6/5/2022 4:15:00 AM 13.93 57.074 0.131 6.95 2.17 6.8
6/5/2022 4:30:00 AM 13.85 56.93 0.131 6.95 2.25 6.81
6/5/2022 4:45:00 AM 13.85 56.93 0.132 6.9 4.3 6.45
6/5/2022 5:00:00 AM 13.72 56.696 0.132 6.89 3.06 6.45
6/5/2022 5:15:00 AM 13.57 56.426 0.131 6.89 2.74 6.42
6/5/2022 5:30:00 AM 13.45 56.21 0.131 6.89 2.41 6.42
6/5/2022 5:45:00 AM 13.33 55.994 0.132 6.9 2.45 6.43
6/5/2022 6:00:00 AM 13.27 55.886 0.132 6.9 2.48 6.45
6/5/2022 6:15:00 AM 13.22 55.796 0.132 6.89 2.85 6.48
6/5/2022 6:30:00 AM 13.2 55.76 0.132 6.91 2.51 6.72
6/5/2022 6:45:00 AM 13.16 55.688 0.132 6.93 2.35 6.9
6/5/2022 7:00:00 AM 13.07 55.526 0.132 6.94 2.43 7.07
6/5/2022 7:15:00 AM 13.09 55.562 0.132 6.94 2.67 7.25
6/5/2022 7:30:00 AM 13.16 55.688 0.131 7 2.37 7.55
6/5/2022 7:45:00 AM 13.36 56.048 0.131 7.02 2.38 7.86
6/5/2022 8:00:00 AM 13.52 56.336 0.131 7.04 2.25 7.92
6/5/2022 8:15:00 AM 13.69 56.642 0.13 7.04 2.44 8.15
6/5/2022 8:30:00 AM 13.89 57.002 0.13 7.07 2.2 8.54
6/5/2022 8:45:00 AM 14.22 57.596 0.13 7.09 2.24 8.67
6/5/2022 9:00:00 AM 14.49 58.082 0.129 7.08 2.31 8.95
6/5/2022 9:15:00 AM 14.81 58.658 0.129 7.16 2.23 9.26
6/5/2022 9:30:00 AM 15.18 59.324 0.129 7.18 2.21 9.46
6/5/2022 9:45:00 AM 15.73 60.314 0.13 7.33 2.19 10.01
6/5/2022 10:00:00 AM 16.52 61.736 0.13 7.65 2.32 10.69
6/5/2022 10:15:00 AM 17.37 63.266 0.129 7.75 2.12 11.24
6/5/2022 10:30:00 AM 18.66 65.588 0.127 8.17 2.12 11.6
6/5/2022 10:45:00 AM 19.79 67.622 0.126 8.43 2.17 11.75
6/5/2022 11:00:00 AM 20.58 69.044 0.127 8.65 2.26 11.93
6/5/2022 11:15:00 AM 21.26 70.268 0.127 8.74 2.25 11.92
6/5/2022 11:30:00 AM 21.71 71.078 0.126 8.74 2.24 11.9
6/5/2022 11:45:00 AM 22.12 71.816 0.126 8.85 2.35 11.99
6/5/2022 12:00:00 PM 22.57 72.626 0.126 8.85 2.27 11.94
6/5/2022 12:15:00 PM 23.03 73.454 0.127 8.83 2.17 11.72
6/5/2022 12:30:00 PM 23.44 74.192 0.127 9.04 2.2 11.81
6/5/2022 12:45:00 PM 23.94 75.092 0.127 8.98 2.17 11.84
6/5/2022 1:00:00 PM 24.52 76.136 0.127 8.94 2.28 11.86
6/5/2022 1:15:00 PM 24.7 76.46 0.127 9 2.16 12.03
6/5/2022 1:30:00 PM 24.87 76.766 0.128 8.95 2.07 11.79
6/5/2022 1:45:00 PM 25.03 77.054 0.127 9.02 2.19 11.61
6/5/2022 2:00:00 PM 24.6 76.28 0.128 8.96 2.13 11.39
6/5/2022 2:15:00 PM 23.88 74.984 0.128 8.76 2.11 11.3
6/5/2022 2:30:00 PM 23.08 73.544 0.128 8.51 2.12 11.17
6/5/2022 2:45:00 PM 22.54 72.57201 0.129 8.45 2.1 10.95
6/5/2022 3:00:00 PM 22.27 72.086 0.129 8.24 2.14 10.32
6/5/2022 3:15:00 PM 21.91 71.438 0.129 8.06 2.2 9.92
6/5/2022 3:30:00 PM 21.88 71.384 0.129 8.37 2.15 10.2
6/5/2022 3:45:00 PM 22.07 71.726 0.129 8.47 2.18 10
6/5/2022 4:00:00 PM 22.17 71.906 0.129 8.58 2.18 10.28
6/5/2022 4:15:00 PM 22.31 72.158 0.129 8.77 2.19 10.25
6/5/2022 4:30:00 PM 22.49 72.482 0.129 8.75 2.28 10.36
6/5/2022 4:45:00 PM 22.53 72.554 0.13 8.75 2.28 10.56
6/5/2022 5:00:00 PM 22.51 72.518 0.13 8.74 2.13 10.66
6/5/2022 5:15:00 PM 22.33 72.194 0.13 8.69 2.2 10.74
6/5/2022 5:30:00 PM 21.86 71.348 0.13 8.55 2.13 10.4
6/5/2022 5:45:00 PM 21.65 70.97 0.13 8.41 2.05 10.18
6/5/2022 6:00:00 PM 21.28 70.304 0.131 8.42 2.16 10.19
6/5/2022 6:15:00 PM 20.96 69.728 0.131 8.39 3.17 10.08
6/5/2022 6:30:00 PM 20.79 69.422 0.131 8.32 2.43 9.97
6/5/2022 6:45:00 PM 20.6 69.08 0.131 8.35 2.13 9.92
6/5/2022 7:00:00 PM 20.42 68.756 0.131 8.42 2.16 9.86
6/5/2022 7:15:00 PM 20.24 68.432 0.131 8.39 2.15 9.74
6/5/2022 7:30:00 PM 20.07 68.126 0.132 8.31 3.17 9.48
6/5/2022 7:45:00 PM 19.87 67.766 0.132 8.08 2.04 9.07
6/5/2022 8:00:00 PM 19.65 67.37 0.132 7.89 2.07 9.01
6/5/2022 8:15:00 PM 19.39 66.902 0.133 7.8 2.09 8.73
6/5/2022 8:30:00 PM 19.08 66.344 0.133 7.66 3.23 8.42
6/5/2022 8:45:00 PM 18.72 65.696 0.133 7.49 2.09 8.05
6/5/2022 9:00:00 PM 18.42 65.156 0.134 7.44 2.49 7.75
6/5/2022 9:15:00 PM 18.13 64.634 0.135 7.38 3.25 7.45
6/5/2022 9:30:00 PM 17.81 64.058 0.136 7.33 2.18 7.11
6/5/2022 9:45:00 PM 17.62 63.716 0.136 7.22 2.15 6.69
6/5/2022 10:00:00 PM 17.39 63.302 0.135 7.09 4.1 6.38
6/5/2022 10:15:00 PM 17.24 63.032 0.135 7.06 3.55 6.34
6/5/2022 10:30:00 PM 17.07 62.726 0.134 7.04 2.12 6.21
6/5/2022 10:45:00 PM 17 62.6 0.134 7.02 3.37 6.09
6/5/2022 11:00:00 PM 16.96 62.528 0.133 6.97 3.32 6.04
6/5/2022 11:15:00 PM 16.89 62.402 0.133 6.96 3.1 6.09
6/5/2022 11:30:00 PM 16.81 62.258 0.133 6.95 3.25 6.05
6/5/2022 11:45:00 PM 16.71 62.078 0.133 6.97 2.09 6
6/6/2022 12:00:00 AM 16.63 61.934 0.133 6.96 2.12 6
6/6/2022 12:15:00 AM 16.51 61.718 0.133 6.95 2.06 5.9
6/6/2022 12:30:00 AM 16.57 61.826 0.134 6.92 4.8 5.69
6/6/2022 12:45:00 AM 16.53 61.754 0.133 6.88 4.16 5.72
6/6/2022 1:00:00 AM 16.38 61.484 0.134 6.89 3.88 5.68
6/6/2022 1:15:00 AM 16.31 61.358 0.133 6.91 2.42 5.71
6/6/2022 1:30:00 AM 16.21 61.178 0.134 6.9 2.34 5.68
6/6/2022 1:45:00 AM 16.2 61.16 0.133 6.9 2.18 5.72
6/6/2022 2:00:00 AM 16.18 61.124 0.133 6.89 2.14 5.66
6/6/2022 2:15:00 AM 16.13 61.034 0.134 6.88 2.17 5.66
6/6/2022 2:30:00 AM 16.12 61.016 0.134 6.89 2.14 5.66
6/6/2022 2:45:00 AM 16.05 60.89 0.134 6.82 2.33 5.68
6/6/2022 3:00:00 AM 15.97 60.746 0.134 6.88 2.76 5.65
6/6/2022 3:15:00 AM 15.88 60.584 0.134 6.88 2.3 5.7
6/6/2022 3:30:00 AM 15.84 60.512 0.134 6.88 2.17 5.72
6/6/2022 3:45:00 AM 15.77 60.386 0.135 6.87 2.16 5.7
6/6/2022 4:00:00 AM 15.7 60.26 0.134 6.85 3.37 5.76
6/6/2022 4:15:00 AM 15.59 60.062 0.135 6.88 2.4 5.8
6/6/2022 4:30:00 AM 15.46 59.828 0.135 6.84 3.81 5.79
6/6/2022 4:45:00 AM 15.29 59.522 0.135 6.88 2.67 5.86
6/6/2022 5:00:00 AM 15.12 59.216 0.135 6.87 2.44 5.96
6/6/2022 5:15:00 AM 15.04 59.072 0.136 6.88 2.53 5.96
6/6/2022 5:30:00 AM 14.93 58.874 0.136 6.88 2.4 5.96
6/6/2022 5:45:00 AM 14.91 58.838 0.136 6.88 2.53 6.02
6/6/2022 6:00:00 AM 14.92 58.856 0.135 6.89 2.38 6.08
6/6/2022 6:15:00 AM 14.83 58.694 0.135 6.89 2.49 6.16
6/6/2022 6:30:00 AM 14.73 58.514 0.135 6.9 2.33 6.32
6/6/2022 6:45:00 AM 14.66 58.388 0.135 6.92 3.52 6.51
6/6/2022 7:00:00 AM 14.64 58.352 0.135 6.87 2.44 6.62
6/6/2022 7:15:00 AM 14.7 58.46 0.135 6.93 3.89 6.91
6/6/2022 7:30:00 AM 14.67 58.406 0.135 6.97 2.33 7.12
6/6/2022 7:45:00 AM 14.81 58.658 0.135 6.94 2.41 7.43
6/6/2022 8:00:00 AM 15.05 59.09 0.135 7.02 2.99 7.93
6/6/2022 8:15:00 AM 15.25 59.45 0.135 7.05 2.77 8.13
6/6/2022 8:30:00 AM 15.41 59.738 0.134 7.05 3.75 8.31
6/6/2022 8:45:00 AM 15.58 60.044 0.134 7.07 3.73 8.75
6/6/2022 9:00:00 AM 15.74 60.332 0.134 7.09 2.52 8.91
6/6/2022 9:15:00 AM 16.08 60.944 0.134 7.14 2.53 9.01
6/6/2022 9:30:00 AM 16.6 61.88 0.135 7.17 2.83 9.3
6/6/2022 9:45:00 AM 17.8 64.04 0.136 7.29 2.3 9.51
6/6/2022 10:00:00 AM 19.12 66.416 0.135 7.64 3.51 10.32
6/6/2022 10:15:00 AM 20.19 68.342 0.134 8.12 3.58 11.18
6/6/2022 10:30:00 AM 21.08 69.944 0.133 8.14 2.31 11.36
6/6/2022 10:45:00 AM 21.9 71.42 0.132 8.46 2.3 11.66
6/6/2022 11:00:00 AM 22.63 72.734 0.131 8.67 2.72 12.05
6/6/2022 11:15:00 AM 23.2 73.76 0.13 8.85 2.4 12.23
6/6/2022 11:30:00 AM 23.76 74.768 0.129 9 2.31 12.19
6/6/2022 11:45:00 AM 24.07 75.326 0.129 8.86 2.19 11.81
6/6/2022 12:00:00 PM 24.61 76.298 0.128 8.93 2.41 12.17
6/6/2022 12:15:00 PM 25.07 77.126 0.128 8.92 2.23 11.8
6/6/2022 12:30:00 PM 25.36 77.648 0.129 8.94 2.14 11.66
6/6/2022 12:45:00 PM 25.72 78.296 0.129 9 2.28 11.73
6/6/2022 1:00:00 PM 25.78 78.404 0.129 9 2.15 11.5
6/6/2022 1:15:00 PM 26.01 78.818 0.129 8.99 2.2 11.45
6/6/2022 1:30:00 PM 25.95 78.71 0.129 8.98 2.22 11.23
6/6/2022 1:45:00 PM 25.8 78.44 0.129 8.81 2.23 11.05
6/6/2022 2:00:00 PM 25.36 77.648 0.129 8.74 3.76 10.88
6/6/2022 2:15:00 PM 24.83 76.694 0.13 8.58 2.16 10.57
6/6/2022 2:30:00 PM 24.19 75.542 0.13 8.51 2.36 10.46
6/6/2022 2:45:00 PM 23.69 74.642 0.13 8.43 2.22 10.32
6/6/2022 3:00:00 PM 23.22 73.796 0.13 8.44 2.39 10.14
6/6/2022 3:15:00 PM 22.99 73.382 0.13 8.54 2.25 10.22
6/6/2022 3:30:00 PM 23.01 73.418 0.13 8.7 2.24 10.28
6/6/2022 3:45:00 PM 23.08 73.544 0.13 8.77 2.53 10.33
6/6/2022 4:00:00 PM 23.09 73.562 0.13 8.8 2.32 10.53
6/6/2022 4:15:00 PM -99999.99 -179968 -99999.99 -99999.99 -99999.99 -99999.99
6/6/2022 4:30:00 PM -99999.99 -179968 -99999.99 -99999.99 -99999.99 -99999.99
6/6/2022 4:45:00 PM -99999.99 -179968 -99999.99 -99999.99 -99999.99 -99999.99
6/6/2022 5:00:00 PM -99999.99 -179968 -99999.99 -99999.99 -99999.99 -99999.99
6/6/2022 5:15:00 PM -99999.99 -179968 -99999.99 -99999.99 -99999.99 -99999.99
6/6/2022 5:30:00 PM -99999.99 -179968 -99999.99 -99999.99 -99999.99 -99999.99
6/6/2022 5:45:00 PM -99999.99 -179968 -99999.99 -99999.99 -99999.99 -99999.99
6/6/2022 6:00:00 PM -99999.99 -179968 -99999.99 -99999.99 -99999.99 -99999.99
6/6/2022 6:15:00 PM -99999.99 -179968 -99999.99 -99999.99 -99999.99 -99999.99
6/6/2022 6:30:00 PM -99999.99 -179968 -99999.99 -99999.99 -99999.99 -99999.99
6/6/2022 6:45:00 PM -99999.99 -179968 -99999.99 -99999.99 -99999.99 -99999.99
6/6/2022 7:00:00 PM -99999.99 -179968 -99999.99 -99999.99 -99999.99 -99999.99
6/6/2022 7:15:00 PM -99999.99 -179968 -99999.99 -99999.99 -99999.99 -99999.99
6/6/2022 7:30:00 PM -99999.99 -179968 -99999.99 -99999.99 -99999.99 -99999.99
6/6/2022 7:45:00 PM -99999.99 -179968 -99999.99 -99999.99 -99999.99 -99999.99
6/6/2022 8:00:00 PM -99999.99 -179968 -99999.99 -99999.99 -99999.99 -99999.99
6/6/2022 8:15:00 PM -99999.99 -179968 -99999.99 -99999.99 -99999.99 -99999.99
6/6/2022 8:30:00 PM -99999.99 -179968 -99999.99 -99999.99 -99999.99 -99999.99
6/6/2022 8:45:00 PM -99999.99 -179968 -99999.99 -99999.99 -99999.99 -99999.99
6/6/2022 9:00:00 PM -99999.99 -179968 -99999.99 -99999.99 -99999.99 -99999.99
6/6/2022 9:15:00 PM -99999.99 -179968 -99999.99 -99999.99 -99999.99 -99999.99
6/6/2022 9:30:00 PM -99999.99 -179968 -99999.99 -99999.99 -99999.99 -99999.99
6/6/2022 9:45:00 PM -99999.99 -179968 -99999.99 -99999.99 -99999.99 -99999.99
6/6/2022 10:00:00 PM -99999.99 -179968 -99999.99 -99999.99 -99999.99 -99999.99
6/6/2022 10:15:00 PM -99999.99 -179968 -99999.99 -99999.99 -99999.99 -99999.99
6/6/2022 10:30:00 PM -99999.99 -179968 -99999.99 -99999.99 -99999.99 -99999.99
6/6/2022 10:45:00 PM -99999.99 -179968 -99999.99 -99999.99 -99999.99 -99999.99
6/6/2022 11:00:00 PM -99999.99 -179968 -99999.99 -99999.99 -99999.99 -99999.99
6/6/2022 11:15:00 PM -99999.99 -179968 -99999.99 -99999.99 -99999.99 -99999.99
6/6/2022 11:30:00 PM -99999.99 -179968 -99999.99 -99999.99 -99999.99 -99999.99
6/6/2022 11:45:00 PM -99999.99 -179968 -99999.99 -99999.99 -99999.99 -99999.99
6/7/2022 12:00:00 AM -99999.99 -179968 -99999.99 -99999.99 -99999.99 -99999.99
6/7/2022 12:15:00 AM -99999.99 -179968 -99999.99 -99999.99 -99999.99 -99999.99
6/7/2022 12:30:00 AM -99999.99 -179968 -99999.99 -99999.99 -99999.99 -99999.99
6/7/2022 12:45:00 AM -99999.99 -179968 -99999.99 -99999.99 -99999.99 -99999.99
6/7/2022 1:00:00 AM -99999.99 -179968 -99999.99 -99999.99 -99999.99 -99999.99
6/7/2022 1:15:00 AM -99999.99 -179968 -99999.99 -99999.99 -99999.99 -99999.99
6/7/2022 1:30:00 AM -99999.99 -179968 -99999.99 -99999.99 -99999.99 -99999.99
6/7/2022 1:45:00 AM -99999.99 -179968 -99999.99 -99999.99 -99999.99 -99999.99
6/7/2022 2:00:00 AM -99999.99 -179968 -99999.99 -99999.99 -99999.99 -99999.99
6/7/2022 2:15:00 AM -99999.99 -179968 -99999.99 -99999.99 -99999.99 -99999.99
6/7/2022 2:30:00 AM -99999.99 -179968 -99999.99 -99999.99 -99999.99 -99999.99
6/7/2022 2:45:00 AM -99999.99 -179968 -99999.99 -99999.99 -99999.99 -99999.99
6/7/2022 3:00:00 AM -99999.99 -179968 -99999.99 -99999.99 -99999.99 -99999.99
6/7/2022 3:15:00 AM -99999.99 -179968 -99999.99 -99999.99 -99999.99 -99999.99
6/7/2022 3:30:00 AM -99999.99 -179968 -99999.99 -99999.99 -99999.99 -99999.99
6/7/2022 3:45:00 AM -99999.99 -179968 -99999.99 -99999.99 -99999.99 -99999.99
6/7/2022 4:00:00 AM -99999.99 -179968 -99999.99 -99999.99 -99999.99 -99999.99
6/7/2022 4:15:00 AM -99999.99 -179968 -99999.99 -99999.99 -99999.99 -99999.99
6/7/2022 4:30:00 AM -99999.99 -179968 -99999.99 -99999.99 -99999.99 -99999.99
6/7/2022 4:45:00 AM -99999.99 -179968 -99999.99 -99999.99 -99999.99 -99999.99
6/7/2022 5:00:00 AM -99999.99 -179968 -99999.99 -99999.99 -99999.99 -99999.99
6/7/2022 5:15:00 AM -99999.99 -179968 -99999.99 -99999.99 -99999.99 -99999.99
6/7/2022 5:30:00 AM -99999.99 -179968 -99999.99 -99999.99 -99999.99 -99999.99
6/7/2022 5:45:00 AM -99999.99 -179968 -99999.99 -99999.99 -99999.99 -99999.99
6/7/2022 6:00:00 AM -99999.99 -179968 -99999.99 -99999.99 -99999.99 -99999.99
6/7/2022 6:15:00 AM -99999.99 -179968 -99999.99 -99999.99 -99999.99 -99999.99
6/7/2022 6:30:00 AM -99999.99 -179968 -99999.99 -99999.99 -99999.99 -99999.99
6/7/2022 6:45:00 AM -99999.99 -179968 -99999.99 -99999.99 -99999.99 -99999.99
6/7/2022 7:00:00 AM -99999.99 -179968 -99999.99 -99999.99 -99999.99 -99999.99
6/7/2022 7:15:00 AM -99999.99 -179968 -99999.99 -99999.99 -99999.99 -99999.99
6/7/2022 7:30:00 AM -99999.99 -179968 -99999.99 -99999.99 -99999.99 -99999.99
6/7/2022 7:45:00 AM -99999.99 -179968 -99999.99 -99999.99 -99999.99 -99999.99
6/7/2022 8:00:00 AM -99999.99 -179968 -99999.99 -99999.99 -99999.99 -99999.99
6/7/2022 8:15:00 AM -99999.99 -179968 -99999.99 -99999.99 -99999.99 -99999.99
6/7/2022 8:30:00 AM -99999.99 -179968 -99999.99 -99999.99 -99999.99 -99999.99
6/7/2022 8:45:00 AM -99999.99 -179968 -99999.99 -99999.99 -99999.99 -99999.99
6/7/2022 9:00:00 AM -99999.99 -179968 -99999.99 -99999.99 -99999.99 -99999.99
6/7/2022 9:15:00 AM -99999.99 -179968 -99999.99 -99999.99 -99999.99 -99999.99
6/7/2022 9:30:00 AM -99999.99 -179968 -99999.99 -99999.99 -99999.99 -99999.99
6/7/2022 9:45:00 AM -99999.99 -179968 -99999.99 -99999.99 -99999.99 -99999.99
6/7/2022 10:00:00 AM -99999.99 -179968 -99999.99 -99999.99 -99999.99 -99999.99
6/7/2022 10:15:00 AM -99999.99 -179968 -99999.99 -99999.99 -99999.99 -99999.99
6/7/2022 10:30:00 AM -99999.99 -179968 -99999.99 -99999.99 -99999.99 -99999.99
6/7/2022 10:45:00 AM -99999.99 -179968 -99999.99 -99999.99 -99999.99 -99999.99
6/7/2022 11:00:00 AM -99999.99 -179968 -99999.99 -99999.99 -99999.99 -99999.99
6/7/2022 11:15:00 AM -99999.99 -179968 -99999.99 -99999.99 -99999.99 -99999.99
6/7/2022 11:30:00 AM -99999.99 -179968 -99999.99 -99999.99 -99999.99 -99999.99
6/7/2022 11:45:00 AM -99999.99 -179968 -99999.99 -99999.99 -99999.99 -99999.99
6/7/2022 12:00:00 PM -99999.99 -179968 -99999.99 -99999.99 -99999.99 -99999.99
6/7/2022 12:15:00 PM -99999.99 -179968 -99999.99 -99999.99 -99999.99 -99999.99
6/7/2022 12:30:00 PM -99999.99 -179968 -99999.99 -99999.99 -99999.99 -99999.99
6/7/2022 12:45:00 PM -99999.99 -179968 -99999.99 -99999.99 -99999.99 -99999.99
6/7/2022 1:00:00 PM -99999.99 -179968 -99999.99 -99999.99 -99999.99 -99999.99
6/7/2022 1:15:00 PM -99999.99 -179968 -99999.99 -99999.99 -99999.99 -99999.99
6/7/2022 1:30:00 PM -99999.99 -179968 -99999.99 -99999.99 -99999.99 -99999.99
6/7/2022 1:45:00 PM -99999.99 -179968 -99999.99 -99999.99 -99999.99 -99999.99
6/7/2022 2:00:00 PM -99999.99 -179968 -99999.99 -99999.99 -99999.99 -99999.99
6/7/2022 2:15:00 PM -99999.99 -179968 -99999.99 -99999.99 -99999.99 -99999.99
6/7/2022 2:30:00 PM -99999.99 -179968 -99999.99 -99999.99 -99999.99 -99999.99
6/7/2022 2:45:00 PM -99999.99 -179968 -99999.99 -99999.99 -99999.99 -99999.99
6/7/2022 3:00:00 PM -99999.99 -179968 -99999.99 -99999.99 -99999.99 -99999.99
6/7/2022 3:15:00 PM -99999.99 -179968 -99999.99 -99999.99 -99999.99 -99999.99
6/7/2022 3:30:00 PM -99999.99 -179968 -99999.99 -99999.99 -99999.99 -99999.99
6/7/2022 3:45:00 PM -99999.99 -179968 -99999.99 -99999.99 -99999.99 -99999.99
6/7/2022 4:00:00 PM -99999.99 -179968 -99999.99 -99999.99 -99999.99 -99999.99
6/7/2022 4:15:00 PM -99999.99 -179968 -99999.99 -99999.99 -99999.99 -99999.99
6/7/2022 4:30:00 PM -99999.99 -179968 -99999.99 -99999.99 -99999.99 -99999.99
6/7/2022 4:45:00 PM -99999.99 -179968 -99999.99 -99999.99 -99999.99 -99999.99
6/7/2022 5:00:00 PM -99999.99 -179968 -99999.99 -99999.99 -99999.99 -99999.99
6/7/2022 5:15:00 PM -99999.99 -179968 -99999.99 -99999.99 -99999.99 -99999.99
6/7/2022 5:30:00 PM -99999.99 -179968 -99999.99 -99999.99 -99999.99 -99999.99
6/7/2022 5:45:00 PM -99999.99 -179968 -99999.99 -99999.99 -99999.99 -99999.99
6/7/2022 6:00:00 PM -99999.99 -179968 -99999.99 -99999.99 -99999.99 -99999.99
6/7/2022 6:15:00 PM -99999.99 -179968 -99999.99 -99999.99 -99999.99 -99999.99
6/7/2022 6:30:00 PM -99999.99 -179968 -99999.99 -99999.99 -99999.99 -99999.99
6/7/2022 6:45:00 PM -99999.99 -179968 -99999.99 -99999.99 -99999.99 -99999.99
6/7/2022 7:00:00 PM -99999.99 -179968 -99999.99 -99999.99 -99999.99 -99999.99
6/7/2022 7:15:00 PM -99999.99 -179968 -99999.99 -99999.99 -99999.99 -99999.99
6/7/2022 7:30:00 PM -99999.99 -179968 -99999.99 -99999.99 -99999.99 -99999.99
6/7/2022 7:45:00 PM -99999.99 -179968 -99999.99 -99999.99 -99999.99 -99999.99
6/7/2022 8:00:00 PM -99999.99 -179968 -99999.99 -99999.99 -99999.99 -99999.99
6/7/2022 8:15:00 PM -99999.99 -179968 -99999.99 -99999.99 -99999.99 -99999.99
6/7/2022 8:30:00 PM -99999.99 -179968 -99999.99 -99999.99 -99999.99 -99999.99
6/7/2022 8:45:00 PM -99999.99 -179968 -99999.99 -99999.99 -99999.99 -99999.99
6/7/2022 9:00:00 PM -99999.99 -179968 -99999.99 -99999.99 -99999.99 -99999.99
6/7/2022 9:15:00 PM -99999.99 -179968 -99999.99 -99999.99 -99999.99 -99999.99
6/7/2022 9:30:00 PM -99999.99 -179968 -99999.99 -99999.99 -99999.99 -99999.99
6/7/2022 9:45:00 PM -99999.99 -179968 -99999.99 -99999.99 -99999.99 -99999.99
6/7/2022 10:00:00 PM -99999.99 -179968 -99999.99 -99999.99 -99999.99 -99999.99
6/7/2022 10:15:00 PM -99999.99 -179968 -99999.99 -99999.99 -99999.99 -99999.99
6/7/2022 10:30:00 PM -99999.99 -179968 -99999.99 -99999.99 -99999.99 -99999.99
6/7/2022 10:45:00 PM -99999.99 -179968 -99999.99 -99999.99 -99999.99 -99999.99
6/7/2022 11:00:00 PM -99999.99 -179968 -99999.99 -99999.99 -99999.99 -99999.99
6/7/2022 11:15:00 PM -99999.99 -179968 -99999.99 -99999.99 -99999.99 -99999.99
6/7/2022 11:30:00 PM -99999.99 -179968 -99999.99 -99999.99 -99999.99 -99999.99
6/7/2022 11:45:00 PM -99999.99 -179968 -99999.99 -99999.99 -99999.99 -99999.99
6/8/2022 12:00:00 AM -99999.99 -179968 -99999.99 -99999.99 -99999.99 -99999.99
6/8/2022 12:15:00 AM -99999.99 -179968 -99999.99 -99999.99 -99999.99 -99999.99
6/8/2022 12:30:00 AM -99999.99 -179968 -99999.99 -99999.99 -99999.99 -99999.99
6/8/2022 12:45:00 AM -99999.99 -179968 -99999.99 -99999.99 -99999.99 -99999.99
6/8/2022 1:00:00 AM -99999.99 -179968 -99999.99 -99999.99 -99999.99 -99999.99
6/8/2022 1:15:00 AM -99999.99 -179968 -99999.99 -99999.99 -99999.99 -99999.99
6/8/2022 1:30:00 AM -99999.99 -179968 -99999.99 -99999.99 -99999.99 -99999.99
6/8/2022 1:45:00 AM -99999.99 -179968 -99999.99 -99999.99 -99999.99 -99999.99
6/8/2022 2:00:00 AM -99999.99 -179968 -99999.99 -99999.99 -99999.99 -99999.99
6/8/2022 2:15:00 AM -99999.99 -179968 -99999.99 -99999.99 -99999.99 -99999.99
6/8/2022 2:30:00 AM -99999.99 -179968 -99999.99 -99999.99 -99999.99 -99999.99
6/8/2022 2:45:00 AM -99999.99 -179968 -99999.99 -99999.99 -99999.99 -99999.99
6/8/2022 3:00:00 AM -99999.99 -179968 -99999.99 -99999.99 -99999.99 -99999.99
6/8/2022 3:15:00 AM -99999.99 -179968 -99999.99 -99999.99 -99999.99 -99999.99
6/8/2022 3:30:00 AM -99999.99 -179968 -99999.99 -99999.99 -99999.99 -99999.99
6/8/2022 3:45:00 AM -99999.99 -179968 -99999.99 -99999.99 -99999.99 -99999.99
6/8/2022 4:00:00 AM -99999.99 -179968 -99999.99 -99999.99 -99999.99 -99999.99
6/8/2022 4:15:00 AM -99999.99 -179968 -99999.99 -99999.99 -99999.99 -99999.99
6/8/2022 4:30:00 AM -99999.99 -179968 -99999.99 -99999.99 -99999.99 -99999.99
6/8/2022 4:45:00 AM -99999.99 -179968 -99999.99 -99999.99 -99999.99 -99999.99
6/8/2022 5:00:00 AM -99999.99 -179968 -99999.99 -99999.99 -99999.99 -99999.99
6/8/2022 5:15:00 AM -99999.99 -179968 -99999.99 -99999.99 -99999.99 -99999.99
6/8/2022 5:30:00 AM -99999.99 -179968 -99999.99 -99999.99 -99999.99 -99999.99
6/8/2022 5:45:00 AM -99999.99 -179968 -99999.99 -99999.99 -99999.99 -99999.99
6/8/2022 6:00:00 AM -99999.99 -179968 -99999.99 -99999.99 -99999.99 -99999.99
6/8/2022 6:15:00 AM -99999.99 -179968 -99999.99 -99999.99 -99999.99 -99999.99
6/8/2022 6:30:00 AM -99999.99 -179968 -99999.99 -99999.99 -99999.99 -99999.99
6/8/2022 6:45:00 AM -99999.99 -179968 -99999.99 -99999.99 -99999.99 -99999.99
6/8/2022 7:00:00 AM -99999.99 -179968 -99999.99 -99999.99 -99999.99 -99999.99
6/8/2022 7:15:00 AM -99999.99 -179968 -99999.99 -99999.99 -99999.99 -99999.99
6/8/2022 7:30:00 AM -99999.99 -179968 -99999.99 -99999.99 -99999.99 -99999.99
6/8/2022 7:45:00 AM -99999.99 -179968 -99999.99 -99999.99 -99999.99 -99999.99
6/8/2022 8:00:00 AM -99999.99 -179968 -99999.99 -99999.99 -99999.99 -99999.99
6/8/2022 8:15:00 AM -99999.99 -179968 -99999.99 -99999.99 -99999.99 -99999.99
6/8/2022 8:30:00 AM -99999.99 -179968 -99999.99 -99999.99 -99999.99 -99999.99
6/8/2022 8:45:00 AM -99999.99 -179968 -99999.99 -99999.99 -99999.99 -99999.99
6/8/2022 9:00:00 AM -99999.99 -179968 -99999.99 -99999.99 -99999.99 -99999.99
6/8/2022 9:15:00 AM -99999.99 -179968 -99999.99 -99999.99 -99999.99 -99999.99
6/8/2022 9:30:00 AM -99999.99 -179968 -99999.99 -99999.99 -99999.99 -99999.99
6/8/2022 9:45:00 AM -99999.99 -179968 -99999.99 -99999.99 -99999.99 -99999.99
6/8/2022 10:00:00 AM -99999.99 -179968 -99999.99 -99999.99 -99999.99 -99999.99
6/8/2022 10:15:00 AM -99999.99 -179968 -99999.99 -99999.99 -99999.99 -99999.99
6/8/2022 10:30:00 AM -99999.99 -179968 -99999.99 -99999.99 -99999.99 -99999.99
6/8/2022 10:45:00 AM -99999.99 -179968 -99999.99 -99999.99 -99999.99 -99999.99
6/8/2022 11:00:00 AM -99999.99 -179968 -99999.99 -99999.99 -99999.99 -99999.99
6/8/2022 11:15:00 AM -99999.99 -179968 -99999.99 -99999.99 -99999.99 -99999.99
6/8/2022 11:30:00 AM -99999.99 -179968 -99999.99 -99999.99 -99999.99 -99999.99
6/8/2022 11:45:00 AM -99999.99 -179968 -99999.99 -99999.99 -99999.99 -99999.99
6/8/2022 12:00:00 PM -99999.99 -179968 -99999.99 -99999.99 -99999.99 -99999.99
6/8/2022 12:15:00 PM -99999.99 -179968 -99999.99 -99999.99 -99999.99 -99999.99
6/8/2022 12:30:00 PM -99999.99 -179968 -99999.99 -99999.99 -99999.99 -99999.99
6/8/2022 12:45:00 PM -99999.99 -179968 -99999.99 -99999.99 -99999.99 -99999.99
6/8/2022 1:00:00 PM -99999.99 -179968 -99999.99 -99999.99 -99999.99 -99999.99
6/8/2022 1:15:00 PM -99999.99 -179968 -99999.99 -99999.99 -99999.99 -99999.99
6/8/2022 1:30:00 PM -99999.99 -179968 -99999.99 -99999.99 -99999.99 -99999.99
6/8/2022 1:45:00 PM -99999.99 -179968 -99999.99 -99999.99 -99999.99 -99999.99
6/8/2022 2:00:00 PM -99999.99 -179968 -99999.99 -99999.99 -99999.99 -99999.99
6/8/2022 2:15:00 PM -99999.99 -179968 -99999.99 -99999.99 -99999.99 -99999.99
6/8/2022 2:30:00 PM -99999.99 -179968 -99999.99 -99999.99 -99999.99 -99999.99
6/8/2022 2:45:00 PM -99999.99 -179968 -99999.99 -99999.99 -99999.99 -99999.99
6/8/2022 3:00:00 PM -99999.99 -179968 -99999.99 -99999.99 -99999.99 -99999.99
6/8/2022 3:15:00 PM -99999.99 -179968 -99999.99 -99999.99 -99999.99 -99999.99
6/8/2022 3:30:00 PM -99999.99 -179968 -99999.99 -99999.99 -99999.99 -99999.99
6/8/2022 3:45:00 PM -99999.99 -179968 -99999.99 -99999.99 -99999.99 -99999.99
6/8/2022 4:00:00 PM -99999.99 -179968 -99999.99 -99999.99 -99999.99 -99999.99
6/8/2022 4:15:00 PM -99999.99 -179968 -99999.99 -99999.99 -99999.99 -99999.99
6/8/2022 4:30:00 PM -99999.99 -179968 -99999.99 -99999.99 -99999.99 -99999.99
6/8/2022 4:45:00 PM -99999.99 -179968 -99999.99 -99999.99 -99999.99 -99999.99
6/8/2022 5:00:00 PM -99999.99 -179968 -99999.99 -99999.99 -99999.99 -99999.99
6/8/2022 5:15:00 PM -99999.99 -179968 -99999.99 -99999.99 -99999.99 -99999.99
6/8/2022 5:30:00 PM -99999.99 -179968 -99999.99 -99999.99 -99999.99 -99999.99
6/8/2022 5:45:00 PM -99999.99 -179968 -99999.99 -99999.99 -99999.99 -99999.99
6/8/2022 6:00:00 PM -99999.99 -179968 -99999.99 -99999.99 -99999.99 -99999.99
6/8/2022 6:15:00 PM -99999.99 -179968 -99999.99 -99999.99 -99999.99 -99999.99
6/8/2022 6:30:00 PM -99999.99 -179968 -99999.99 -99999.99 -99999.99 -99999.99
6/8/2022 6:45:00 PM -99999.99 -179968 -99999.99 -99999.99 -99999.99 -99999.99
6/8/2022 7:00:00 PM -99999.99 -179968 -99999.99 -99999.99 -99999.99 -99999.99
6/8/2022 7:15:00 PM -99999.99 -179968 -99999.99 -99999.99 -99999.99 -99999.99
6/8/2022 7:30:00 PM -99999.99 -179968 -99999.99 -99999.99 -99999.99 -99999.99
6/8/2022 7:45:00 PM -99999.99 -179968 -99999.99 -99999.99 -99999.99 -99999.99
6/8/2022 8:00:00 PM -99999.99 -179968 -99999.99 -99999.99 -99999.99 -99999.99
6/8/2022 8:15:00 PM -99999.99 -179968 -99999.99 -99999.99 -99999.99 -99999.99
6/8/2022 8:30:00 PM -99999.99 -179968 -99999.99 -99999.99 -99999.99 -99999.99
6/8/2022 8:45:00 PM -99999.99 -179968 -99999.99 -99999.99 -99999.99 -99999.99
6/8/2022 9:00:00 PM -99999.99 -179968 -99999.99 -99999.99 -99999.99 -99999.99
6/8/2022 9:15:00 PM -99999.99 -179968 -99999.99 -99999.99 -99999.99 -99999.99
6/8/2022 9:30:00 PM -99999.99 -179968 -99999.99 -99999.99 -99999.99 -99999.99
6/8/2022 9:45:00 PM -99999.99 -179968 -99999.99 -99999.99 -99999.99 -99999.99
6/8/2022 10:00:00 PM -99999.99 -179968 -99999.99 -99999.99 -99999.99 -99999.99
6/8/2022 10:15:00 PM -99999.99 -179968 -99999.99 -99999.99 -99999.99 -99999.99
6/8/2022 10:30:00 PM -99999.99 -179968 -99999.99 -99999.99 -99999.99 -99999.99
6/8/2022 10:45:00 PM -99999.99 -179968 -99999.99 -99999.99 -99999.99 -99999.99
6/8/2022 11:00:00 PM -99999.99 -179968 -99999.99 -99999.99 -99999.99 -99999.99
6/8/2022 11:15:00 PM -99999.99 -179968 -99999.99 -99999.99 -99999.99 -99999.99
6/8/2022 11:30:00 PM -99999.99 -179968 -99999.99 -99999.99 -99999.99 -99999.99
6/8/2022 11:45:00 PM -99999.99 -179968 -99999.99 -99999.99 -99999.99 -99999.99
6/9/2022 12:00:00 AM -99999.99 -179968 -99999.99 -99999.99 -99999.99 -99999.99
6/9/2022 12:15:00 AM -99999.99 -179968 -99999.99 -99999.99 -99999.99 -99999.99
6/9/2022 12:30:00 AM -99999.99 -179968 -99999.99 -99999.99 -99999.99 -99999.99
6/9/2022 12:45:00 AM -99999.99 -179968 -99999.99 -99999.99 -99999.99 -99999.99
6/9/2022 1:00:00 AM -99999.99 -179968 -99999.99 -99999.99 -99999.99 -99999.99
6/9/2022 1:15:00 AM -99999.99 -179968 -99999.99 -99999.99 -99999.99 -99999.99
6/9/2022 1:30:00 AM -99999.99 -179968 -99999.99 -99999.99 -99999.99 -99999.99
6/9/2022 1:45:00 AM -99999.99 -179968 -99999.99 -99999.99 -99999.99 -99999.99
6/9/2022 2:00:00 AM -99999.99 -179968 -99999.99 -99999.99 -99999.99 -99999.99
6/9/2022 2:15:00 AM -99999.99 -179968 -99999.99 -99999.99 -99999.99 -99999.99
6/9/2022 2:30:00 AM -99999.99 -179968 -99999.99 -99999.99 -99999.99 -99999.99
6/9/2022 2:45:00 AM -99999.99 -179968 -99999.99 -99999.99 -99999.99 -99999.99
6/9/2022 3:00:00 AM -99999.99 -179968 -99999.99 -99999.99 -99999.99 -99999.99
6/9/2022 3:15:00 AM -99999.99 -179968 -99999.99 -99999.99 -99999.99 -99999.99
6/9/2022 3:30:00 AM -99999.99 -179968 -99999.99 -99999.99 -99999.99 -99999.99
6/9/2022 3:45:00 AM -99999.99 -179968 -99999.99 -99999.99 -99999.99 -99999.99
6/9/2022 4:00:00 AM -99999.99 -179968 -99999.99 -99999.99 -99999.99 -99999.99
6/9/2022 4:15:00 AM -99999.99 -179968 -99999.99 -99999.99 -99999.99 -99999.99
6/9/2022 4:30:00 AM -99999.99 -179968 -99999.99 -99999.99 -99999.99 -99999.99
6/9/2022 4:45:00 AM -99999.99 -179968 -99999.99 -99999.99 -99999.99 -99999.99
6/9/2022 5:00:00 AM -99999.99 -179968 -99999.99 -99999.99 -99999.99 -99999.99
6/9/2022 5:15:00 AM -99999.99 -179968 -99999.99 -99999.99 -99999.99 -99999.99
6/9/2022 5:30:00 AM -99999.99 -179968 -99999.99 -99999.99 -99999.99 -99999.99
6/9/2022 5:45:00 AM -99999.99 -179968 -99999.99 -99999.99 -99999.99 -99999.99
6/9/2022 6:00:00 AM -99999.99 -179968 -99999.99 -99999.99 -99999.99 -99999.99
6/9/2022 6:15:00 AM -99999.99 -179968 -99999.99 -99999.99 -99999.99 -99999.99
6/9/2022 6:30:00 AM -99999.99 -179968 -99999.99 -99999.99 -99999.99 -99999.99
6/9/2022 6:45:00 AM -99999.99 -179968 -99999.99 -99999.99 -99999.99 -99999.99
6/9/2022 7:00:00 AM -99999.99 -179968 -99999.99 -99999.99 -99999.99 -99999.99
6/9/2022 7:15:00 AM -99999.99 -179968 -99999.99 -99999.99 -99999.99 -99999.99
6/9/2022 7:30:00 AM -99999.99 -179968 -99999.99 -99999.99 -99999.99 -99999.99
6/9/2022 7:45:00 AM -99999.99 -179968 -99999.99 -99999.99 -99999.99 -99999.99
6/9/2022 8:00:00 AM -99999.99 -179968 -99999.99 -99999.99 -99999.99 -99999.99
6/9/2022 8:15:00 AM -99999.99 -179968 -99999.99 -99999.99 -99999.99 -99999.99
6/9/2022 8:30:00 AM -99999.99 -179968 -99999.99 -99999.99 -99999.99 -99999.99
6/9/2022 8:45:00 AM -99999.99 -179968 -99999.99 -99999.99 -99999.99 -99999.99
6/9/2022 9:00:00 AM -99999.99 -179968 -99999.99 -99999.99 -99999.99 -99999.99
6/9/2022 9:15:00 AM -99999.99 -179968 -99999.99 -99999.99 -99999.99 -99999.99
6/9/2022 9:30:00 AM -99999.99 -179968 -99999.99 -99999.99 -99999.99 -99999.99
6/9/2022 9:45:00 AM -99999.99 -179968 -99999.99 -99999.99 -99999.99 -99999.99
6/9/2022 10:00:00 AM -99999.99 -179968 -99999.99 -99999.99 -99999.99 -99999.99
6/9/2022 10:15:00 AM -99999.99 -179968 -99999.99 -99999.99 -99999.99 -99999.99
6/9/2022 10:30:00 AM -99999.99 -179968 -99999.99 -99999.99 -99999.99 -99999.99
6/9/2022 10:45:00 AM -99999.99 -179968 -99999.99 -99999.99 -99999.99 -99999.99
6/9/2022 11:00:00 AM -99999.99 -179968 -99999.99 -99999.99 -99999.99 -99999.99
6/9/2022 11:15:00 AM -99999.99 -179968 -99999.99 -99999.99 -99999.99 -99999.99
6/9/2022 11:30:00 AM -99999.99 -179968 -99999.99 -99999.99 -99999.99 -99999.99
6/9/2022 11:45:00 AM -99999.99 -179968 -99999.99 -99999.99 -99999.99 -99999.99
6/9/2022 12:00:00 PM -99999.99 -179968 -99999.99 -99999.99 -99999.99 -99999.99
6/9/2022 12:15:00 PM -99999.99 -179968 -99999.99 -99999.99 -99999.99 -99999.99
6/9/2022 12:30:00 PM -99999.99 -179968 -99999.99 -99999.99 -99999.99 -99999.99
6/9/2022 12:45:00 PM -99999.99 -179968 -99999.99 -99999.99 -99999.99 -99999.99
6/9/2022 1:00:00 PM -99999.99 -179968 -99999.99 -99999.99 -99999.99 -99999.99
6/9/2022 1:15:00 PM -99999.99 -179968 -99999.99 -99999.99 -99999.99 -99999.99
6/9/2022 1:30:00 PM -99999.99 -179968 -99999.99 -99999.99 -99999.99 -99999.99
6/9/2022 1:45:00 PM -99999.99 -179968 -99999.99 -99999.99 -99999.99 -99999.99
6/9/2022 2:00:00 PM -99999.99 -179968 -99999.99 -99999.99 -99999.99 -99999.99
6/9/2022 2:15:00 PM -99999.99 -179968 -99999.99 -99999.99 -99999.99 -99999.99
6/9/2022 2:30:00 PM -99999.99 -179968 -99999.99 -99999.99 -99999.99 -99999.99
6/9/2022 2:45:00 PM -99999.99 -179968 -99999.99 -99999.99 -99999.99 -99999.99
6/9/2022 3:00:00 PM -99999.99 -179968 -99999.99 -99999.99 -99999.99 -99999.99
6/9/2022 3:15:00 PM -99999.99 -179968 -99999.99 -99999.99 -99999.99 -99999.99
6/9/2022 3:30:00 PM -99999.99 -179968 -99999.99 -99999.99 -99999.99 -99999.99
6/9/2022 3:45:00 PM -99999.99 -179968 -99999.99 -99999.99 -99999.99 -99999.99
6/9/2022 4:00:00 PM -99999.99 -179968 -99999.99 -99999.99 -99999.99 -99999.99
6/9/2022 4:15:00 PM -99999.99 -179968 -99999.99 -99999.99 -99999.99 -99999.99
6/9/2022 4:30:00 PM -99999.99 -179968 -99999.99 -99999.99 -99999.99 -99999.99
6/9/2022 4:45:00 PM -99999.99 -179968 -99999.99 -99999.99 -99999.99 -99999.99
6/9/2022 5:00:00 PM -99999.99 -179968 -99999.99 -99999.99 -99999.99 -99999.99
6/9/2022 5:15:00 PM -99999.99 -179968 -99999.99 -99999.99 -99999.99 -99999.99
6/9/2022 5:30:00 PM -99999.99 -179968 -99999.99 -99999.99 -99999.99 -99999.99
6/9/2022 5:45:00 PM -99999.99 -179968 -99999.99 -99999.99 -99999.99 -99999.99
6/9/2022 6:00:00 PM -99999.99 -179968 -99999.99 -99999.99 -99999.99 -99999.99
6/9/2022 6:15:00 PM -99999.99 -179968 -99999.99 -99999.99 -99999.99 -99999.99
6/9/2022 6:30:00 PM -99999.99 -179968 -99999.99 -99999.99 -99999.99 -99999.99
6/9/2022 6:45:00 PM -99999.99 -179968 -99999.99 -99999.99 -99999.99 -99999.99
6/9/2022 7:00:00 PM -99999.99 -179968 -99999.99 -99999.99 -99999.99 -99999.99
6/9/2022 7:15:00 PM -99999.99 -179968 -99999.99 -99999.99 -99999.99 -99999.99
6/9/2022 7:30:00 PM -99999.99 -179968 -99999.99 -99999.99 -99999.99 -99999.99
6/9/2022 7:45:00 PM -99999.99 -179968 -99999.99 -99999.99 -99999.99 -99999.99
6/9/2022 8:00:00 PM -99999.99 -179968 -99999.99 -99999.99 -99999.99 -99999.99
6/9/2022 8:15:00 PM -99999.99 -179968 -99999.99 -99999.99 -99999.99 -99999.99
6/9/2022 8:30:00 PM -99999.99 -179968 -99999.99 -99999.99 -99999.99 -99999.99
6/9/2022 8:45:00 PM -99999.99 -179968 -99999.99 -99999.99 -99999.99 -99999.99
6/9/2022 9:00:00 PM -99999.99 -179968 -99999.99 -99999.99 -99999.99 -99999.99
6/9/2022 9:15:00 PM -99999.99 -179968 -99999.99 -99999.99 -99999.99 -99999.99
6/9/2022 9:30:00 PM -99999.99 -179968 -99999.99 -99999.99 -99999.99 -99999.99
6/9/2022 9:45:00 PM -99999.99 -179968 -99999.99 -99999.99 -99999.99 -99999.99
6/9/2022 10:00:00 PM -99999.99 -179968 -99999.99 -99999.99 -99999.99 -99999.99
6/9/2022 10:15:00 PM -99999.99 -179968 -99999.99 -99999.99 -99999.99 -99999.99
6/9/2022 10:30:00 PM -99999.99 -179968 -99999.99 -99999.99 -99999.99 -99999.99
6/9/2022 10:45:00 PM -99999.99 -179968 -99999.99 -99999.99 -99999.99 -99999.99
6/9/2022 11:00:00 PM -99999.99 -179968 -99999.99 -99999.99 -99999.99 -99999.99
6/9/2022 11:15:00 PM -99999.99 -179968 -99999.99 -99999.99 -99999.99 -99999.99
6/9/2022 11:30:00 PM -99999.99 -179968 -99999.99 -99999.99 -99999.99 -99999.99
6/9/2022 11:45:00 PM -99999.99 -179968 -99999.99 -99999.99 -99999.99 -99999.99
6/10/2022 12:00:00 AM -99999.99 -179968 -99999.99 -99999.99 -99999.99 -99999.99
6/10/2022 12:15:00 AM -99999.99 -179968 -99999.99 -99999.99 -99999.99 -99999.99
6/10/2022 12:30:00 AM -99999.99 -179968 -99999.99 -99999.99 -99999.99 -99999.99
6/10/2022 12:45:00 AM -99999.99 -179968 -99999.99 -99999.99 -99999.99 -99999.99
6/10/2022 1:00:00 AM -99999.99 -179968 -99999.99 -99999.99 -99999.99 -99999.99
6/10/2022 1:15:00 AM -99999.99 -179968 -99999.99 -99999.99 -99999.99 -99999.99
6/10/2022 1:30:00 AM -99999.99 -179968 -99999.99 -99999.99 -99999.99 -99999.99
6/10/2022 1:45:00 AM -99999.99 -179968 -99999.99 -99999.99 -99999.99 -99999.99
6/10/2022 2:00:00 AM -99999.99 -179968 -99999.99 -99999.99 -99999.99 -99999.99
6/10/2022 2:15:00 AM -99999.99 -179968 -99999.99 -99999.99 -99999.99 -99999.99
6/10/2022 2:30:00 AM -99999.99 -179968 -99999.99 -99999.99 -99999.99 -99999.99
6/10/2022 2:45:00 AM -99999.99 -179968 -99999.99 -99999.99 -99999.99 -99999.99
6/10/2022 3:00:00 AM -99999.99 -179968 -99999.99 -99999.99 -99999.99 -99999.99
6/10/2022 3:15:00 AM -99999.99 -179968 -99999.99 -99999.99 -99999.99 -99999.99
6/10/2022 3:30:00 AM -99999.99 -179968 -99999.99 -99999.99 -99999.99 -99999.99
6/10/2022 3:45:00 AM -99999.99 -179968 -99999.99 -99999.99 -99999.99 -99999.99
6/10/2022 4:00:00 AM -99999.99 -179968 -99999.99 -99999.99 -99999.99 -99999.99
6/10/2022 4:15:00 AM -99999.99 -179968 -99999.99 -99999.99 -99999.99 -99999.99
6/10/2022 4:30:00 AM -99999.99 -179968 -99999.99 -99999.99 -99999.99 -99999.99
6/10/2022 4:45:00 AM -99999.99 -179968 -99999.99 -99999.99 -99999.99 -99999.99
6/10/2022 5:00:00 AM -99999.99 -179968 -99999.99 -99999.99 -99999.99 -99999.99
6/10/2022 5:15:00 AM -99999.99 -179968 -99999.99 -99999.99 -99999.99 -99999.99
6/10/2022 5:30:00 AM -99999.99 -179968 -99999.99 -99999.99 -99999.99 -99999.99
6/10/2022 5:45:00 AM -99999.99 -179968 -99999.99 -99999.99 -99999.99 -99999.99
6/10/2022 6:00:00 AM -99999.99